HOT - SCOPE : Cruise & Drifter Tracks
in the School of Ocean and Earth Science and Technology at the University of Hawai'i at Manoa

Kilo Moana
GMT GMT Latitude Longitude SOG Head TWind TWind Temp Rel Bar SST
date time deg N deg W dir speed deg C Humid deg C
5-22-2024 2:15 34o 56.79' ( 34.9465) 123o 5.84' (-123.0973) 0.4 329.6 327.5 21.5 0.6 83.0 1016.0 13.9
5-22-2024 2:00 34o 56.79' ( 34.9466) 123o 5.84' (-123.0973) 0.5 331.0 328.4 24.3 2.4 81.5 1016.0 13.9
5-22-2024 1:45 34o 56.79' ( 34.9465) 123o 5.84' (-123.0973) 0.4 330.1 325.4 24.4 4.4 81.2 1016.0 13.9
5-22-2024 1:30 34o 56.79' ( 34.9465) 123o 5.84' (-123.0973) 0.5 332.5 322.6 22.3 5.4 81.4 1016.0 13.9
5-22-2024 1:15 34o 56.79' ( 34.9465) 123o 5.84' (-123.0973) 0.5 330.5 330.7 24.0 3.4 80.6 1016.1 13.9
5-22-2024 1:00 34o 56.79' ( 34.9465) 123o 5.84' (-123.0973) 0.4 325.0 327.3 23.0 9.9 80.6 1016.2 13.9
5-22-2024 0:45 34o 56.79' ( 34.9465) 123o 5.84' (-123.0973) 0.6 327.1 325.4 23.0 8.5 80.1 1016.3 13.9
5-22-2024 0:30 34o 56.79' ( 34.9465) 123o 5.84' (-123.0973) 0.6 328.2 328.4 21.5 6.0 80.3 1016.3 13.9
5-22-2024 0:15 34o 56.79' ( 34.9465) 123o 5.84' (-123.0973) 0.4 329.9 325.0 20.0 9.5 80.3 1016.4 13.9
5-22-2024 0:00 34o 56.79' ( 34.9465) 123o 5.83' (-123.0972) 0.6 329.1 325.4 21.8 6.8 79.9 1016.4 13.9
5-21-2024 23:45 34o 56.79' ( 34.9464) 123o 5.84' (-123.0973) 0.5 320.6 325.9 22.1 6.5 79.8 1016.5 13.9
5-21-2024 23:30 34o 56.77' ( 34.9462) 123o 5.83' (-123.0972) 1.7 323.8 322.0 20.5 7.5 80.1 1016.5 13.9
5-21-2024 23:15 34o 56.35' ( 34.9392) 123o 5.50' (-123.0916) 2.0 321.0 326.7 21.4 9.1 79.2 1016.5 13.9
5-21-2024 23:00 34o 55.90' ( 34.9317) 123o 5.14' (-123.0857) 2.3 320.8 327.1 20.4 8.5 80.5 1016.7 13.9
5-21-2024 22:45 34o 55.42' ( 34.9236) 123o 4.74' (-123.0790) 2.4 322.2 330.7 22.5 8.8 78.8 1016.7 13.9
5-21-2024 22:30 34o 54.91' ( 34.9152) 123o 4.28' (-123.0713) 2.1 317.4 323.0 20.9 10.3 79.2 1016.9 13.8
5-21-2024 22:15 34o 54.37' ( 34.9061) 123o 3.79' (-123.0631) 3.1 328.4 330.8 17.1 7.2 80.0 1017.1 13.9
5-21-2024 22:00 34o 53.86' ( 34.8977) 123o 3.42' (-123.0571) 2.2 322.2 323.1 18.6 9.2 79.9 1017.0 13.9
5-21-2024 21:45 34o 53.42' ( 34.8903) 123o 3.05' (-123.0508) 2.3 322.1 326.7 18.5 9.7 78.8 1017.0 13.9
5-21-2024 21:30 34o 52.96' ( 34.8827) 123o 2.66' (-123.0443) 2.0 323.2 326.3 19.2 9.7 79.6 1017.0 13.9
5-21-2024 21:15 34o 52.52' ( 34.8753) 123o 2.30' (-123.0383) 2.3 322.6 325.0 21.0 10.6 78.1 1017.2 13.9
5-21-2024 21:00 34o 52.06' ( 34.8676) 123o 1.91' (-123.0319) 2.3 322.2 329.8 20.6 10.7 78.2 1017.2 13.9
5-21-2024 20:45 34o 51.65' ( 34.8608) 123o 1.51' (-123.0252) 2.7 325.5 328.2 19.9 11.7 77.7 1017.3 13.9
5-21-2024 20:30 34o 51.16' ( 34.8527) 123o 1.09' (-123.0181) 1.9 323.9 324.1 19.8 10.2 79.1 1017.4 13.8
5-21-2024 20:15 34o 50.75' ( 34.8459) 123o 0.70' (-123.0117) 2.2 320.7 330.6 18.0 11.3 78.3 1017.4 13.8
5-21-2024 20:00 34o 50.35' ( 34.8392) 123o 0.31' (-123.0052) 2.1 322.4 325.4 19.1 9.5 78.0 1017.5 13.8
5-21-2024 19:45 34o 50.14' ( 34.8357) 123o 0.14' (-123.0023) 2.3 323.3 321.5 19.8 8.9 78.6 1017.6 13.8
5-21-2024 19:30 34o 49.99' ( 34.8332) 123o 0.01' (-123.0002) 0.6 323.5 331.8 20.3 9.4 77.8 1017.6 13.8
5-21-2024 19:15 34o 49.99' ( 34.8332) 123o 0.01' (-123.0002) 0.4 321.7 328.1 19.4 10.4 78.0 1017.7 13.8
5-21-2024 19:00 34o 49.99' ( 34.8332) 123o 0.01' (-123.0002) 0.6 330.5 331.0 20.0 11.5 77.2 1017.7 13.8
5-21-2024 18:45 34o 50.00' ( 34.8333) 123o 0.01' (-123.0002) 0.7 340.5 333.1 17.6 7.4 79.7 1017.8 13.8
5-21-2024 18:30 34o 50.00' ( 34.8333) 123o 0.01' (-123.0002) 0.6 341.2 327.0 20.6 8.4 77.8 1017.6 13.8
5-21-2024 18:15 34o 50.00' ( 34.8333) 123o 0.01' (-123.0002) 0.5 341.0 330.6 19.4 7.8 78.4 1017.5 13.8
5-21-2024 18:00 34o 50.00' ( 34.8333) 123o 0.01' (-123.0002) 0.6 339.9 327.4 21.6 7.2 77.8 1017.4 13.8
5-21-2024 17:45 34o 50.00' ( 34.8333) 123o 0.01' (-123.0002) 0.5 344.3 330.0 20.8 6.2 78.2 1017.4 13.7
5-21-2024 17:30 34o 49.99' ( 34.8332) 123o 0.01' (-123.0002) 0.5 344.2 329.6 22.4 5.2 78.1 1017.3 13.8
5-21-2024 17:15 34o 49.97' ( 34.8329) 123o 0.00' (-123.0001) 0.5 344.4 335.9 19.1 4.4 78.4 1017.3 13.8
5-21-2024 17:00 34o 49.97' ( 34.8329) 123o 0.01' (-123.0001) 0.6 344.1 326.1 22.2 3.2 78.8 1017.2 13.8
5-21-2024 16:45 34o 49.97' ( 34.8329) 123o 0.01' (-123.0001) 0.5 343.3 327.3 22.4 2.9 79.2 1017.1 13.7
5-21-2024 16:30 34o 49.97' ( 34.8329) 123o 0.00' (-123.0001) 0.7 342.9 329.9 20.2 1.6 79.7 1017.1 13.7
5-21-2024 16:15 34o 49.97' ( 34.8329) 123o 0.00' (-123.0001) 0.5 346.4 333.4 21.6 1.7 79.3 1017.0 13.7
5-21-2024 16:00 34o 49.98' ( 34.8330) 123o 0.00' (-123.0000) 0.6 344.1 328.4 22.2 0.3 80.1 1017.0 13.7
5-21-2024 15:45 34o 49.97' ( 34.8329) 123o 0.01' (-123.0001) 0.6 342.9 331.4 23.1 0.4 78.3 1017.0 13.7
5-21-2024 15:30 34o 49.98' ( 34.8329) 123o 0.00' (-123.0000) 0.6 344.0 338.1 24.7 -0.1 78.3 1017.0 13.7
5-21-2024 15:15 34o 49.97' ( 34.8329) 123o 0.01' (-123.0001) 0.4 340.3 330.9 23.3 -1.1 78.8 1016.8 13.7
5-21-2024 15:00 34o 49.98' ( 34.8329) 123o 0.00' (-123.0000) 0.6 343.0 327.3 24.6 -1.5 78.8 1016.8 13.7
5-21-2024 14:45 34o 49.97' ( 34.8329) 123o 0.01' (-123.0001) 0.4 341.5 335.2 21.2 -1.7 78.9 1016.7 13.7
5-21-2024 14:30 34o 49.98' ( 34.8329) 123o 0.00' (-123.0000) 0.8 341.6 339.4 24.7 -2.2 78.2 1016.7 13.7
5-21-2024 14:15 34o 49.97' ( 34.8329) 123o 0.00' (-123.0001) 0.5 344.2 333.8 22.8 -2.5 77.8 1016.0 13.7
5-21-2024 14:00 34o 49.98' ( 34.8329) 123o 0.00' (-123.0000) 0.6 344.5 329.5 25.1 -2.7 78.7 1016.6 13.7
5-21-2024 13:45 34o 49.97' ( 34.8329) 123o 0.01' (-123.0001) 0.5 341.9 335.5 26.5 -2.9 77.5 1016.6 13.7
5-21-2024 13:30 34o 49.98' ( 34.8330) 123o 0.00' (-123.0000) 0.6 341.7 337.2 25.7 -3.0 76.9 1016.5 13.7
5-21-2024 13:15 34o 49.97' ( 34.8329) 123o 0.01' (-123.0001) 0.5 340.5 334.6 23.0 -2.9 79.9 1016.4 13.7
5-21-2024 13:00 34o 49.98' ( 34.8329) 123o 0.00' (-123.0001) 0.5 341.9 339.2 26.5 -3.1 78.0 1016.2 13.7
5-21-2024 12:45 34o 49.97' ( 34.8329) 123o 0.01' (-123.0001) 0.6 342.2 329.6 25.5 -3.0 78.6 1016.1 13.7
5-21-2024 12:30 34o 49.87' ( 34.8312) 122o 59.91' (-122.9986) 1.2 342.4 337.4 26.9 -3.0 78.5 1016.1 13.7
5-21-2024 12:15 34o 49.74' ( 34.8290) 122o 59.82' (-122.9971) 0.6 342.1 336.6 27.0 -2.9 78.1 1016.1 13.7
5-21-2024 12:00 34o 49.80' ( 34.8299) 122o 59.76' (-122.9960) 1.9 259.0 332.2 27.9 -2.7 78.1 1015.9 13.7
5-21-2024 11:45 34o 49.68' ( 34.8279) 122o 58.14' (-122.9690) 8.4 290.3 327.9 27.2 -2.6 78.1 1015.8 13.6
5-21-2024 11:30 34o 49.22' ( 34.8204) 122o 55.62' (-122.9270) 8.6 285.8 327.8 27.9 -2.8 77.9 1015.8 13.5
5-21-2024 11:15 34o 48.84' ( 34.8140) 122o 53.02' (-122.8837) 8.8 285.8 320.3 26.4 -2.7 77.0 1015.8 13.9
5-21-2024 11:00 34o 48.41' ( 34.8068) 122o 50.44' (-122.8406) 8.6 284.1 316.0 26.7 -2.7 77.2 1015.8 13.9
5-21-2024 10:45 34o 48.00' ( 34.8000) 122o 47.87' (-122.7978) 8.7 283.7 320.4 26.3 -2.7 76.7 1015.8 13.9
5-21-2024 10:30 34o 47.60' ( 34.7934) 122o 45.26' (-122.7543) 9.0 282.0 321.3 25.6 -2.7 75.7 1015.8 13.8
5-21-2024 10:15 34o 47.18' ( 34.7863) 122o 42.57' (-122.7095) 9.7 285.8 322.0 26.7 -2.7 75.7 1015.6 14.0
5-21-2024 10:00 34o 46.66' ( 34.7776) 122o 39.64' (-122.6607) 9.6 285.1 323.0 26.8 -2.7 75.0 1015.6 14.1
5-21-2024 9:45 34o 46.17' ( 34.7695) 122o 36.75' (-122.6124) 9.6 286.5 326.8 26.3 -2.9 75.0 1015.6 13.8
5-21-2024 9:30 34o 45.68' ( 34.7614) 122o 33.84' (-122.5641) 9.8 286.3 317.9 25.8 -3.1 75.8 1015.7 13.7
5-21-2024 9:15 34o 45.20' ( 34.7534) 122o 30.95' (-122.5159) 9.7 283.5 317.0 27.5 -3.0 77.0 1015.7 13.7
5-21-2024 9:00 34o 44.73' ( 34.7456) 122o 28.03' (-122.4672) 10.2 284.4 324.6 25.2 -2.9 76.6 1015.8 13.6
5-21-2024 8:45 34o 44.32' ( 34.7387) 122o 25.07' (-122.4178) 9.8 282.4 321.2 26.0 -2.9 76.4 1015.8 13.6
5-21-2024 8:30 34o 43.93' ( 34.7321) 122o 22.13' (-122.3688) 9.7 282.8 325.1 25.4 -3.0 76.8 1015.8 13.6
5-21-2024 8:15 34o 43.40' ( 34.7233) 122o 19.23' (-122.3205) 9.8 286.2 316.8 23.9 -2.7 77.9 1015.9 13.5
5-21-2024 8:00 34o 42.89' ( 34.7149) 122o 16.33' (-122.2722) 9.7 287.6 315.8 26.2 -3.0 76.5 1015.9 13.3
5-21-2024 7:45 34o 42.40' ( 34.7067) 122o 13.44' (-122.2240) 10.0 286.9 312.8 23.3 -2.8 78.2 1016.1 13.2
5-21-2024 7:30 34o 41.91' ( 34.6985) 122o 10.53' (-122.1755) 9.7 287.2 314.1 24.6 -3.0 78.5 1016.2 13.0
5-21-2024 7:15 34o 41.45' ( 34.6908) 122o 7.62' (-122.1270) 9.9 286.0 312.0 22.2 -3.0 80.3 1016.2 12.8
5-21-2024 7:00 34o 41.02' ( 34.6837) 122o 4.65' (-122.0776) 10.1 284.7 313.0 21.6 -2.8 80.0 1016.2 12.6
5-21-2024 6:45 34o 40.62' ( 34.6770) 122o 1.69' (-122.0281) 10.0 284.4 316.3 21.7 -2.9 78.7 1016.2 13.1
5-21-2024 6:30 34o 40.17' ( 34.6695) 121o 58.69' (-121.9782) 10.1 283.7 313.4 22.7 -2.9 78.2 1016.2 12.9
5-21-2024 6:15 34o 39.72' ( 34.6620) 121o 55.68' (-121.9280) 10.1 284.5 316.4 23.4 -2.8 78.3 1016.3 13.1
5-21-2024 6:00 34o 39.22' ( 34.6536) 121o 52.72' (-121.8786) 10.0 282.1 324.2 22.6 -2.8 76.2 1016.3 13.0
5-21-2024 5:45 34o 38.79' ( 34.6465) 121o 49.73' (-121.8289) 9.4 282.6 320.0 22.0 -3.0 78.1 1016.3 13.4
5-21-2024 5:30 34o 38.41' ( 34.6402) 121o 48.10' (-121.8017) 0.5 305.4 322.9 20.7 -3.0 77.6 1016.5 13.4
5-21-2024 5:15 34o 38.41' ( 34.6402) 121o 48.10' (-121.8016) 0.7 306.8 325.4 24.2 -3.1 76.8 1016.2 13.3
5-21-2024 5:00 34o 38.41' ( 34.6402) 121o 48.10' (-121.8017) 0.5 305.6 320.6 20.2 -2.9 77.9 1016.2 13.3
5-21-2024 4:45 34o 38.41' ( 34.6402) 121o 48.10' (-121.8016) 0.7 305.6 320.3 22.8 -3.0 76.9 1016.2 13.2
5-21-2024 4:30 34o 38.42' ( 34.6403) 121o 48.10' (-121.8017) 0.4 305.5 320.4 23.4 -2.9 77.5 1016.0 13.2
5-21-2024 4:15 34o 38.41' ( 34.6402) 121o 48.10' (-121.8016) 0.5 308.7 319.9 23.7 -2.9 77.3 1015.9 13.2
5-21-2024 4:00 34o 38.42' ( 34.6403) 121o 48.10' (-121.8016) 0.6 306.0 324.5 22.3 -2.9 77.4 1015.9 13.2
5-21-2024 3:45 34o 38.41' ( 34.6402) 121o 48.10' (-121.8016) 0.5 305.2 321.4 21.7 -3.0 78.5 1015.9 13.2
5-21-2024 3:30 34o 38.42' ( 34.6403) 121o 48.10' (-121.8016) 0.5 305.3 320.2 22.0 -2.6 77.3 1015.9 13.3
5-21-2024 3:15 34o 38.41' ( 34.6402) 121o 48.10' (-121.8016) 0.4 306.4 324.2 21.5 -2.8 78.6 1015.8 13.2
5-21-2024 3:00 34o 38.42' ( 34.6403) 121o 48.10' (-121.8016) 0.6 306.4 317.5 21.7 -2.8 78.3 1015.8 13.2
5-21-2024 2:45 34o 38.41' ( 34.6402) 121o 48.10' (-121.8016) 0.7 306.2 325.0 21.2 -2.7 78.0 1015.8 13.2
5-21-2024 2:30 34o 38.42' ( 34.6403) 121o 48.10' (-121.8016) 0.6 305.1 323.3 21.1 -2.0 79.5 1015.7 13.2
5-21-2024 2:15 34o 38.41' ( 34.6402) 121o 48.10' (-121.8016) 0.7 306.5 324.7 19.3 0.6 78.4 1015.6 13.2
5-21-2024 2:00 34o 38.07' ( 34.6345) 121o 47.59' (-121.7931) 1.3 310.6 322.8 20.3 -1.1 78.5 1015.5 13.1
5-21-2024 1:45 34o 38.09' ( 34.6348) 121o 47.58' (-121.7930) 0.7 305.1 318.3 22.8 -1.0 77.6 1015.6 13.1
5-21-2024 1:30 34o 38.09' ( 34.6349) 121o 47.58' (-121.7930) 0.5 309.0 326.2 21.4 -1.0 78.2 1015.7 13.0
5-21-2024 1:15 34o 38.03' ( 34.6338) 121o 47.50' (-121.7917) 0.8 305.4 316.1 19.9 -0.7 78.6 1015.8 13.0
5-21-2024 1:00 34o 38.03' ( 34.6339) 121o 47.50' (-121.7916) 0.6 307.8 320.2 17.9 0.1 78.8 1016.0 13.1
5-21-2024 0:45 34o 38.02' ( 34.6337) 121o 47.50' (-121.7917) 0.6 306.3 320.7 17.6 0.5 79.0 1016.0 13.1
5-21-2024 0:30 34o 38.10' ( 34.6349) 121o 47.37' (-121.7895) 1.1 268.2 318.8 22.6 1.5 75.8 1016.0 13.2
5-21-2024 0:15 34o 38.20' ( 34.6367) 121o 47.19' (-121.7865) 1.7 273.8 319.6 20.7 2.8 75.5 1016.1 13.2
5-21-2024 0:00 34o 38.25' ( 34.6375) 121o 46.65' (-121.7775) 2.1 275.7 314.2 19.8 4.5 75.8 1016.3 13.3
5-20-2024 23:45 34o 38.22' ( 34.6370) 121o 46.11' (-121.7686) 1.8 291.8 309.3 19.5 4.9 76.8 1016.5 13.3
5-20-2024 23:30 34o 38.17' ( 34.6362) 121o 45.98' (-121.7663) 0.6 288.4 313.7 18.3 6.4 77.2 1016.5 13.3
5-20-2024 23:15 34o 38.17' ( 34.6361) 121o 45.98' (-121.7663) 0.9 288.8 316.3 18.7 5.9 76.9 1016.6 13.2
5-20-2024 23:00 34o 38.06' ( 34.6343) 121o 45.81' (-121.7635) 0.8 305.6 312.9 17.4 7.1 76.4 1016.6 13.0
5-20-2024 22:45 34o 38.01' ( 34.6335) 121o 45.84' (-121.7640) 0.8 272.4 312.6 17.7 4.7 76.8 1016.7 13.0
5-20-2024 22:30 34o 38.01' ( 34.6335) 121o 45.88' (-121.7646) 0.7 283.1 308.4 18.0 7.5 77.1 1016.8 13.1
5-20-2024 22:15 34o 38.00' ( 34.6334) 121o 45.87' (-121.7645) 0.6 284.3 304.4 16.2 10.4 76.9 1016.9 13.3
5-20-2024 22:00 34o 38.00' ( 34.6334) 121o 45.87' (-121.7645) 0.5 285.8 302.7 16.0 11.4 76.1 1017.0 13.3
5-20-2024 21:45 34o 38.00' ( 34.6334) 121o 45.87' (-121.7645) 0.6 284.9 303.4 17.7 10.9 75.0 1017.1 13.4
5-20-2024 21:30 34o 38.01' ( 34.6334) 121o 45.87' (-121.7645) 0.5 282.1 304.5 15.7 10.1 76.5 1017.1 13.5
5-20-2024 21:15 34o 37.97' ( 34.6329) 121o 45.88' (-121.7646) 0.9 294.6 302.9 15.9 6.8 76.8 1017.2 13.5
5-20-2024 21:00 34o 38.89' ( 34.6481) 121o 46.32' (-121.7721) 11.3 146.8 306.3 16.4 6.7 75.5 1017.4 13.3
5-20-2024 20:45 34o 41.23' ( 34.6872) 121o 48.17' (-121.8028) 11.2 155.7 307.1 14.7 5.0 76.0 1017.4 12.8
5-20-2024 20:30 34o 43.52' ( 34.7254) 121o 49.90' (-121.8317) 4.7 165.1 302.9 15.6 9.9 76.4 1017.3 13.1
5-20-2024 20:15 34o 43.57' ( 34.7262) 121o 49.69' (-121.8282) 0.7 300.6 299.4 13.7 9.9 76.2 1017.5 13.1
5-20-2024 20:00 34o 43.58' ( 34.7263) 121o 49.69' (-121.8282) 0.6 296.9 300.3 15.0 11.3 74.9 1017.7 13.1
5-20-2024 19:45 34o 43.56' ( 34.7260) 121o 49.69' (-121.8282) 1.1 303.5 301.8 14.3 11.2 74.1 1017.8 13.1
5-20-2024 19:30 34o 43.32' ( 34.7220) 121o 49.29' (-121.8216) 2.1 303.9 303.9 14.1 10.9 72.7 1017.9 13.1
5-20-2024 19:15 34o 43.04' ( 34.7174) 121o 48.79' (-121.8132) 2.1 295.7 307.6 16.1 12.1 72.9 1017.8 12.9
5-20-2024 19:00 34o 42.80' ( 34.7133) 121o 48.24' (-121.8041) 2.2 303.0 305.3 13.8 12.6 73.9 1017.9 12.9
5-20-2024 18:45 34o 42.46' ( 34.7077) 121o 47.72' (-121.7953) 2.5 298.7 304.9 14.5 11.5 75.2 1018.0 13.0
5-20-2024 18:15 34o 41.73' ( 34.6954) 121o 46.58' (-121.7763) 1.8 301.5 308.7 13.4 9.6 75.0 1017.9 12.9
5-20-2024 18:30 34o 42.10' ( 34.7017) 121o 47.14' (-121.7856) 2.3 300.2 307.4 14.2 12.4 74.0 1018.0 12.9
5-20-2024 18:00 34o 41.55' ( 34.6925) 121o 46.47' (-121.7745) 2.7 321.1 314.2 13.3 6.9 75.9 1017.8 13.0
5-20-2024 17:45 34o 41.21' ( 34.6868) 121o 46.89' (-121.7815) 1.5 47.6 306.0 17.1 3.5 75.6 1017.7 13.0
5-20-2024 17:30 34o 41.15' ( 34.6859) 121o 47.21' (-121.7869) 3.1 341.9 322.7 15.3 6.0 76.8 1017.7 13.0
5-20-2024 17:15 34o 40.53' ( 34.6755) 121o 47.42' (-121.7904) 2.6 92.1 313.8 15.9 2.9 76.8 1017.7 13.2
5-20-2024 17:00 34o 40.25' ( 34.6709) 121o 48.01' (-121.8001) 1.9 353.7 315.9 18.5 1.7 76.3 1017.6 13.2
5-20-2024 16:45 34o 40.02' ( 34.6670) 121o 47.98' (-121.7997) 2.2 312.2 319.0 18.1 0.6 75.7 1017.5 13.2
5-20-2024 16:30 34o 39.61' ( 34.6602) 121o 47.58' (-121.7930) 2.1 311.8 320.7 18.2 -0.8 75.2 1017.5 13.3
5-20-2024 16:15 34o 39.21' ( 34.6535) 121o 47.21' (-121.7868) 1.9 311.5 312.5 16.2 -0.7 76.3 1017.4 13.4
5-20-2024 16:00 34o 38.81' ( 34.6468) 121o 46.84' (-121.7807) 2.2 313.8 317.8 15.2 -1.2 76.0 1017.4 13.4
5-20-2024 15:45 34o 38.47' ( 34.6412) 121o 46.56' (-121.7760) 1.6 308.6 317.2 19.7 -1.4 76.7 1017.2 13.4
5-20-2024 15:30 34o 38.12' ( 34.6354) 121o 46.16' (-121.7693) 2.3 308.7 316.3 18.5 -1.0 77.1 1017.1 13.5
5-20-2024 15:15 34o 37.93' ( 34.6321) 121o 45.94' (-121.7657) 0.8 310.4 315.3 20.7 -1.5 77.3 1017.0 13.4
5-20-2024 15:00 34o 37.93' ( 34.6322) 121o 45.94' (-121.7657) 0.8 310.1 316.1 21.4 -1.8 77.0 1016.9 13.4
5-20-2024 14:45 34o 37.93' ( 34.6321) 121o 45.94' (-121.7657) 0.6 308.1 321.4 19.7 -1.6 75.0 1016.7 13.4
5-20-2024 14:30 34o 37.93' ( 34.6322) 121o 45.94' (-121.7657) 0.5 309.6 311.6 18.8 -2.2 77.9 1016.7 13.4
5-20-2024 14:15 34o 37.93' ( 34.6321) 121o 45.94' (-121.7657) 0.6 310.3 312.7 20.2 -2.2 74.8 1016.5 13.4
5-20-2024 14:00 34o 37.93' ( 34.6322) 121o 45.94' (-121.7657) 0.7 312.3 320.0 19.1 -2.6 74.0 1016.4 13.4
5-20-2024 13:45 34o 37.93' ( 34.6321) 121o 45.94' (-121.7657) 0.6 309.5 326.0 21.2 -3.0 74.3 1016.3 13.4
5-20-2024 13:30 34o 37.93' ( 34.6321) 121o 45.94' (-121.7657) 0.4 309.7 316.1 21.0 -3.2 77.4 1016.3 13.4
5-20-2024 13:15 34o 37.93' ( 34.6321) 121o 45.94' (-121.7657) 0.5 310.8 321.8 20.4 -3.1 76.8 1016.1 13.4
5-20-2024 13:00 34o 37.93' ( 34.6322) 121o 45.94' (-121.7656) 0.7 310.8 316.4 20.6 -3.7 77.2 1016.1 13.4
5-20-2024 12:45 34o 37.93' ( 34.6321) 121o 45.94' (-121.7657) 0.5 314.2 318.6 21.3 -3.9 76.1 1016.0 13.4
5-20-2024 12:30 34o 37.93' ( 34.6321) 121o 45.94' (-121.7657) 0.5 314.0 314.1 22.4 -3.7 75.3 1015.9 13.3
5-20-2024 12:15 34o 37.93' ( 34.6321) 121o 45.94' (-121.7657) 0.7 311.9 328.5 22.7 -3.6 76.0 1015.9 13.3
5-20-2024 12:00 34o 37.91' ( 34.6318) 121o 45.92' (-121.7653) 0.6 310.3 326.7 19.5 -3.7 79.0 1015.8 13.3
5-20-2024 11:45 34o 37.95' ( 34.6325) 121o 45.98' (-121.7663) 0.8 317.8 318.1 24.0 -3.5 76.3 1015.8 13.3
5-20-2024 11:30 34o 37.91' ( 34.6319) 121o 45.94' (-121.7657) 0.7 309.8 327.8 24.3 -3.6 76.3 1015.7 13.3
5-20-2024 11:15 34o 37.97' ( 34.6329) 121o 46.00' (-121.7667) 0.5 321.5 323.5 24.5 -3.7 76.6 1015.8 13.2
5-20-2024 11:00 34o 37.97' ( 34.6329) 121o 46.00' (-121.7667) 0.5 320.1 324.6 24.7 -3.9 75.9 1015.8 13.3
5-20-2024 10:45 34o 37.97' ( 34.6329) 121o 46.00' (-121.7667) 0.5 320.6 328.7 24.6 -4.0 76.0 1015.7 13.2
5-20-2024 10:30 34o 37.98' ( 34.6330) 121o 46.00' (-121.7666) 0.4 323.4 329.2 24.8 -4.0 77.1 1015.7 13.2
5-20-2024 10:15 34o 37.97' ( 34.6329) 121o 46.00' (-121.7667) 0.6 323.4 321.9 22.7 -4.2 77.8 1015.8 13.2
5-20-2024 10:00 34o 37.97' ( 34.6329) 121o 46.00' (-121.7667) 0.4 324.3 325.7 25.3 -4.3 77.3 1015.8 13.3
5-20-2024 9:45 34o 37.97' ( 34.6328) 121o 45.99' (-121.7665) 1.2 324.2 321.8 21.6 -4.3 78.5 1016.0 13.3
5-20-2024 9:30 34o 37.91' ( 34.6319) 121o 45.94' (-121.7657) 1.4 314.0 323.8 21.2 -4.4 79.2 1016.0 13.3
5-20-2024 9:15 34o 36.29' ( 34.6049) 121o 44.80' (-121.7467) 10.3 327.7 319.7 18.1 -4.1 79.7 1016.0 13.5
5-20-2024 9:00 34o 34.10' ( 34.5683) 121o 43.18' (-121.7197) 10.2 329.0 319.6 19.0 12.7 78.4 1016.1 13.6
5-20-2024 8:45 34o 31.89' ( 34.5315) 121o 41.68' (-121.6946) 10.2 329.8 322.3 17.3 12.9 79.2 1016.2 14.0
5-20-2024 8:30 34o 29.66' ( 34.4943) 121o 40.30' (-121.6716) 9.9 332.2 323.2 20.3 12.8 77.8 1016.3 14.1
5-20-2024 8:15 34o 27.43' ( 34.4572) 121o 38.89' (-121.6481) 9.9 331.9 320.1 19.8 12.9 78.7 1016.5 14.1
5-20-2024 8:00 34o 25.22' ( 34.4203) 121o 37.39' (-121.6231) 10.2 332.1 321.2 20.0 12.9 77.6 1016.5 14.2
5-20-2024 7:45 34o 23.00' ( 34.3834) 121o 35.79' (-121.5966) 10.5 329.6 323.4 19.5 13.0 78.2 1016.6 14.4
5-20-2024 7:30 34o 20.78' ( 34.3463) 121o 34.13' (-121.5688) 10.7 330.4 325.6 19.2 13.0 78.9 1016.5 14.4
5-20-2024 7:15 34o 18.50' ( 34.3083) 121o 32.42' (-121.5403) 10.6 331.3 323.1 18.7 13.1 78.2 1016.6 14.6
5-20-2024 7:00 34o 16.23' ( 34.2705) 121o 30.77' (-121.5129) 10.7 328.9 331.5 19.0 13.1 76.0 1016.6 14.6
5-20-2024 6:45 34o 13.91' ( 34.2319) 121o 29.12' (-121.4853) 10.8 330.1 321.9 17.8 13.1 77.7 1016.6 14.6
5-20-2024 6:30 34o 11.60' ( 34.1934) 121o 27.44' (-121.4573) 10.8 330.4 331.7 18.8 13.1 77.5 1016.5 14.6
5-20-2024 6:15 34o 9.32' ( 34.1553) 121o 25.75' (-121.4291) 10.8 330.3 323.1 17.8 13.1 77.0 1016.7 14.6
5-20-2024 6:00 34o 6.97' ( 34.1162) 121o 24.21' (-121.4035) 10.6 338.4 330.7 17.6 13.2 79.8 1016.7 14.6
5-20-2024 5:45 34o 4.55' ( 34.0758) 121o 22.83' (-121.3805) 10.7 338.0 332.4 20.2 13.0 75.4 1016.7 14.6
5-20-2024 5:30 34o 2.16' ( 34.0360) 121o 21.43' (-121.3572) 10.6 336.3 326.0 18.4 13.2 76.9 1016.8 14.5
5-20-2024 5:15 33o 59.89' ( 33.9981) 121o 19.92' (-121.3321) 10.5 334.0 319.9 18.5 13.2 76.6 1016.8 14.8
5-20-2024 5:00 33o 57.70' ( 33.9616) 121o 18.19' (-121.3032) 10.4 329.8 324.4 18.7 13.1 75.0 1016.8 14.3
5-20-2024 4:45 33o 55.50' ( 33.9250) 121o 16.40' (-121.2733) 10.3 329.2 322.6 19.3 13.1 76.2 1016.6 14.3
5-20-2024 4:30 33o 53.37' ( 33.8894) 121o 14.65' (-121.2442) 10.4 329.8 322.1 17.1 13.2 76.8 1016.5 14.5
5-20-2024 4:15 33o 51.28' ( 33.8547) 121o 12.92' (-121.2153) 10.1 335.2 324.7 16.7 13.1 76.0 1016.4 14.3
5-20-2024 4:00 33o 49.06' ( 33.8177) 121o 11.48' (-121.1913) 10.0 330.7 326.8 17.1 13.1 76.4 1016.3 14.1
5-20-2024 3:45 33o 47.30' ( 33.7883) 121o 10.21' (-121.1702) 6.4 327.7 324.3 18.1 13.1 77.1 1016.4 13.9
5-20-2024 3:30 33o 46.54' ( 33.7757) 121o 9.52' (-121.1586) 0.4 336.1 318.6 18.9 13.0 76.8 1016.4 13.9
5-20-2024 3:15 33o 46.54' ( 33.7756) 121o 9.52' (-121.1587) 0.5 336.8 328.4 19.0 13.0 75.7 1016.5 13.9
5-20-2024 3:00 33o 46.54' ( 33.7756) 121o 9.52' (-121.1587) 0.4 331.0 330.7 17.8 13.1 77.2 1016.5 13.9
5-20-2024 2:45 33o 46.53' ( 33.7756) 121o 9.52' (-121.1587) 0.3 324.7 320.3 19.1 13.0 76.5 1016.6 13.9
5-20-2024 2:30 33o 46.54' ( 33.7756) 121o 9.52' (-121.1587) 0.3 323.5 316.5 19.7 12.9 75.2 1016.7 14.0
5-20-2024 2:15 33o 46.53' ( 33.7756) 121o 9.52' (-121.1587) 0.4 324.1 326.0 15.8 13.1 75.6 1016.7 14.0
5-20-2024 2:00 33o 46.54' ( 33.7756) 121o 9.52' (-121.1587) 0.3 324.3 315.5 16.0 13.1 75.1 1016.8 14.0
5-20-2024 1:45 33o 46.53' ( 33.7756) 121o 9.52' (-121.1587) 0.3 322.8 318.9 18.6 13.1 74.7 1016.8 14.0
5-20-2024 1:30 33o 46.53' ( 33.7756) 121o 9.52' (-121.1587) 0.4 323.9 326.7 16.8 13.1 75.5 1017.0 14.0
5-20-2024 1:15 33o 46.53' ( 33.7756) 121o 9.52' (-121.1587) 0.3 324.7 323.3 15.1 13.1 75.7 1017.0 14.0
5-20-2024 1:00 33o 46.54' ( 33.7756) 121o 9.52' (-121.1586) 0.5 324.4 319.5 14.7 13.1 75.0 1017.0 13.9
5-20-2024 0:45 33o 46.53' ( 33.7756) 121o 9.52' (-121.1587) 0.5 320.9 312.5 17.6 13.1 74.9 1017.1 13.9
5-20-2024 0:30 33o 46.54' ( 33.7756) 121o 9.52' (-121.1587) 0.4 321.7 312.8 15.4 13.1 74.1 1017.2 13.8
5-20-2024 0:15 33o 46.53' ( 33.7756) 121o 9.52' (-121.1587) 0.3 322.3 316.4 17.4 13.2 75.6 1017.3 13.8
5-20-2024 0:00 33o 46.54' ( 33.7756) 121o 9.52' (-121.1587) 0.5 321.4 316.3 15.7 13.1 72.3 1017.4 13.8
5-19-2024 23:45 33o 46.53' ( 33.7756) 121o 9.52' (-121.1587) 0.5 337.3 311.0 16.2 13.3 74.6 1017.6 13.8
5-19-2024 23:30 33o 46.54' ( 33.7756) 121o 9.52' (-121.1586) 0.3 337.3 321.7 14.3 13.3 73.9 1017.5 13.8
5-19-2024 23:15 33o 46.53' ( 33.7756) 121o 9.52' (-121.1587) 0.5 337.4 328.6 16.3 13.2 71.4 1017.6 13.9
5-19-2024 23:00 33o 46.54' ( 33.7757) 121o 9.52' (-121.1586) 0.4 337.2 325.3 18.0 13.3 73.9 1017.4 13.8
5-19-2024 22:45 33o 46.54' ( 33.7756) 121o 9.52' (-121.1587) 0.3 337.5 319.9 16.0 13.4 75.0 1017.9 13.9
5-19-2024 22:30 33o 46.54' ( 33.7756) 121o 9.52' (-121.1587) 0.4 336.8 304.8 13.6 13.7 72.8 1018.3 13.9
5-19-2024 22:15 33o 46.54' ( 33.7756) 121o 9.52' (-121.1587) 0.4 338.3 319.7 12.5 13.6 71.7 1018.3 13.9
5-19-2024 22:00 33o 46.54' ( 33.7756) 121o 9.52' (-121.1587) 0.3 336.8 320.8 14.0 13.6 74.2 1018.4 13.9
5-19-2024 21:45 33o 46.54' ( 33.7756) 121o 9.52' (-121.1587) 0.4 336.1 322.2 11.5 13.6 72.4 1018.5 13.9
5-19-2024 21:30 33o 46.54' ( 33.7756) 121o 9.52' (-121.1587) 0.3 337.0 306.1 13.9 13.7 73.1 1018.7 13.9
5-19-2024 21:15 33o 46.54' ( 33.7756) 121o 9.52' (-121.1587) 0.3 338.8 318.0 13.0 13.7 74.7 1018.7 13.9
5-19-2024 21:00 33o 46.54' ( 33.7756) 121o 9.52' (-121.1587) 0.4 338.7 318.6 10.7 13.7 74.8 1018.8 13.9
5-19-2024 20:45 33o 46.54' ( 33.7756) 121o 9.52' (-121.1587) 0.3 339.3 332.3 9.8 13.4 73.0 1018.9 13.9
5-19-2024 20:30 33o 46.54' ( 33.7756) 121o 9.52' (-121.1587) 0.4 340.2 321.8 11.8 13.5 74.5 1019.0 13.9
5-19-2024 20:15 33o 46.54' ( 33.7756) 121o 9.52' (-121.1587) 0.4 339.0 325.7 11.7 13.4 73.0 1019.1 13.9
5-19-2024 20:00 33o 46.54' ( 33.7756) 121o 9.52' (-121.1587) 0.2 339.8 325.7 12.1 13.2 75.5 1019.2 13.9
5-19-2024 19:45 33o 46.53' ( 33.7756) 121o 9.52' (-121.1587) 0.3 338.8 336.7 10.9 13.2 73.9 1019.2 13.9
5-19-2024 19:30 33o 46.54' ( 33.7757) 121o 9.52' (-121.1586) 0.4 338.8 332.3 12.2 13.0 76.0 1019.2 13.9
5-19-2024 19:15 33o 46.38' ( 33.7730) 121o 9.45' (-121.1575) 1.5 346.6 330.9 13.8 12.9 78.1 1019.1 13.8
5-19-2024 19:00 33o 45.98' ( 33.7664) 121o 9.36' (-121.1561) 1.7 338.8 327.3 12.5 12.9 78.9 1019.1 13.7
5-19-2024 18:45 33o 45.53' ( 33.7588) 121o 9.22' (-121.1537) 1.9 353.3 333.3 14.7 12.7 80.1 1019.0 13.8
5-19-2024 18:30 33o 44.97' ( 33.7495) 121o 9.15' (-121.1525) 2.6 350.1 334.0 13.1 12.7 81.1 1019.0 13.8
5-19-2024 18:15 33o 44.33' ( 33.7388) 121o 9.00' (-121.1500) 2.6 339.3 331.6 12.6 12.6 82.0 1019.0 13.8
5-19-2024 18:00 33o 43.70' ( 33.7283) 121o 8.79' (-121.1466) 2.4 351.6 326.9 12.5 12.6 84.1 1019.2 13.8
5-19-2024 17:45 33o 43.02' ( 33.7170) 121o 8.68' (-121.1446) 1.1 342.9 328.5 11.8 12.6 83.3 1019.2 13.7
5-19-2024 17:30 33o 42.54' ( 33.7090) 121o 8.57' (-121.1429) 2.4 346.9 331.3 12.0 12.6 81.6 1019.0 13.7
5-19-2024 17:15 33o 41.92' ( 33.6987) 121o 8.36' (-121.1394) 1.8 343.3 329.9 13.9 12.4 83.0 1018.9 13.7
5-19-2024 17:00 33o 41.50' ( 33.6917) 121o 8.08' (-121.1346) 2.5 335.9 337.3 12.1 12.7 81.0 1018.9 13.6
5-19-2024 16:45 33o 40.92' ( 33.6821) 121o 7.70' (-121.1283) 2.0 329.7 339.0 13.0 12.8 80.1 1018.7 13.6
5-19-2024 16:30 33o 40.52' ( 33.6753) 121o 7.23' (-121.1205) 2.1 319.1 337.0 14.8 12.8 79.9 1018.6 13.4
5-19-2024 16:15 33o 40.07' ( 33.6679) 121o 6.77' (-121.1129) 2.5 322.7 329.1 16.2 12.8 81.0 1018.5 13.4
5-19-2024 16:00 33o 39.59' ( 33.6598) 121o 6.28' (-121.1047) 2.5 319.7 334.3 15.0 13.0 81.3 1018.3 13.4
5-19-2024 15:45 33o 39.17' ( 33.6528) 121o 5.76' (-121.0960) 2.4 322.8 326.7 12.9 12.8 80.1 1018.2 13.3
5-19-2024 15:30 33o 38.68' ( 33.6447) 121o 5.34' (-121.0890) 2.5 327.5 329.3 14.7 12.8 82.5 1018.2 13.3
5-19-2024 15:15 33o 38.25' ( 33.6375) 121o 4.91' (-121.0819) 2.1 312.2 322.8 13.3 12.7 82.7 1018.2 13.3
5-19-2024 15:00 33o 37.92' ( 33.6320) 121o 4.47' (-121.0745) 2.0 319.5 317.0 13.5 12.8 82.6 1018.2 13.4
5-19-2024 14:45 33o 37.74' ( 33.6289) 121o 4.24' (-121.0707) 0.2 312.0 324.4 9.9 12.9 83.1 1018.2 13.4
5-19-2024 14:30 33o 37.74' ( 33.6290) 121o 4.24' (-121.0707) 0.3 311.8 336.3 9.2 12.6 81.2 1018.1 13.4
5-19-2024 14:15 33o 37.74' ( 33.6290) 121o 4.24' (-121.0707) 0.4 311.6 330.4 11.4 12.6 82.4 1018.0 13.4
5-19-2024 14:00 33o 37.74' ( 33.6290) 121o 4.24' (-121.0707) 0.2 312.0 325.5 10.8 12.6 83.5 1017.8 13.5
5-19-2024 13:45 33o 37.74' ( 33.6290) 121o 4.24' (-121.0707) 0.2 312.1 318.0 9.7 12.8 83.0 1017.7 13.5
5-19-2024 13:30 33o 37.74' ( 33.6290) 121o 4.24' (-121.0707) 0.2 311.9 318.0 10.7 12.7 82.0 1017.5 13.5
5-19-2024 13:15 33o 37.74' ( 33.6289) 121o 4.24' (-121.0707) 0.3 312.0 318.5 13.5 12.7 83.6 1017.4 13.5
5-19-2024 13:00 33o 37.74' ( 33.6289) 121o 4.24' (-121.0707) 0.3 312.2 323.0 11.5 12.8 83.5 1017.4 13.5
5-19-2024 12:45 33o 37.74' ( 33.6290) 121o 4.24' (-121.0707) 0.3 312.7 314.6 12.9 12.8 81.9 1017.1 13.6
5-19-2024 12:30 33o 37.74' ( 33.6290) 121o 4.24' (-121.0707) 0.2 311.8 321.7 12.9 12.9 82.6 1017.1 13.6
5-19-2024 12:15 33o 37.74' ( 33.6290) 121o 4.24' (-121.0707) 0.3 312.0 315.0 11.7 12.9 82.1 1017.2 13.5
5-19-2024 12:00 33o 37.74' ( 33.6290) 121o 4.24' (-121.0707) 0.3 312.1 313.0 10.7 12.9 84.5 1017.2 13.5
5-19-2024 11:45 33o 37.74' ( 33.6289) 121o 4.24' (-121.0707) 0.2 311.9 324.1 12.9 12.9 81.2 1017.1 13.5
5-19-2024 11:30 33o 37.74' ( 33.6289) 121o 4.24' (-121.0707) 0.2 311.7 316.1 12.5 12.8 83.8 1017.1 13.6
5-19-2024 11:15 33o 37.74' ( 33.6290) 121o 4.24' (-121.0707) 0.3 312.3 304.2 10.3 12.9 82.0 1017.2 13.6
5-19-2024 11:00 33o 37.74' ( 33.6290) 121o 4.24' (-121.0707) 0.2 312.2 307.1 9.9 12.9 81.4 1017.1 13.6
5-19-2024 10:45 33o 37.74' ( 33.6290) 121o 4.24' (-121.0707) 0.2 312.9 305.2 13.5 13.1 81.3 1017.1 13.6
5-19-2024 10:30 33o 37.74' ( 33.6289) 121o 4.24' (-121.0707) 0.3 307.4 302.0 13.1 13.0 79.8 1017.2 13.6
5-19-2024 10:15 33o 37.74' ( 33.6289) 121o 4.24' (-121.0707) 0.2 307.7 308.6 14.5 13.0 80.3 1017.3 13.6
5-19-2024 10:00 33o 37.75' ( 33.6292) 121o 4.24' (-121.0706) 0.8 283.5 297.0 11.9 13.0 81.9 1017.4 13.5
5-19-2024 9:45 33o 36.28' ( 33.6046) 121o 3.36' (-121.0560) 10.7 334.4 314.3 11.8 13.0 81.7 1017.3 13.7
5-19-2024 9:30 33o 33.87' ( 33.5645) 121o 1.97' (-121.0328) 10.6 334.3 298.6 10.8 12.7 89.3 1017.3 13.5
5-19-2024 9:15 33o 31.43' ( 33.5238) 121o 0.81' (-121.0135) 10.6 335.7 306.3 12.4 13.1 86.7 1017.4 14.0
5-19-2024 9:00 33o 28.92' ( 33.4821) 120o 59.71' (-120.9951) 10.8 337.2 305.0 12.1 13.3 81.3 1017.4 14.3
5-19-2024 8:45 33o 26.76' ( 33.4460) 120o 57.89' (-120.9648) 10.6 319.5 299.9 10.8 13.5 79.5 1017.4 14.6
5-19-2024 8:30 33o 24.70' ( 33.4117) 120o 55.90' (-120.9317) 10.7 318.8 290.4 10.0 13.6 79.0 1017.5 14.6
5-19-2024 8:15 33o 22.48' ( 33.3747) 120o 54.16' (-120.9026) 10.7 329.5 297.8 12.5 13.7 79.8 1017.4 14.4
5-19-2024 8:00 33o 20.10' ( 33.3350) 120o 52.62' (-120.8770) 10.8 331.1 306.7 11.0 13.8 78.6 1017.5 14.7
5-19-2024 7:45 33o 17.71' ( 33.2952) 120o 51.13' (-120.8522) 10.9 331.2 303.5 11.2 14.1 79.8 1017.5 14.7
5-19-2024 7:30 33o 15.31' ( 33.2552) 120o 49.58' (-120.8263) 11.0 331.7 304.3 10.6 14.0 77.2 1017.5 15.0
5-19-2024 7:15 33o 12.86' ( 33.2143) 120o 48.16' (-120.8027) 10.8 334.5 290.7 10.5 14.2 75.6 1017.6 15.4
5-19-2024 7:00 33o 10.42' ( 33.1736) 120o 46.86' (-120.7810) 10.5 336.4 283.8 12.3 14.2 74.0 1017.5 15.3
5-19-2024 6:45 33o 8.03' ( 33.1338) 120o 45.52' (-120.7587) 10.6 335.1 304.1 11.6 14.3 76.0 1017.6 15.3
5-19-2024 6:15 33o 3.12' ( 33.0520) 120o 42.62' (-120.7104) 11.4 336.8 291.6 11.9 14.4 73.4 1017.5 15.2
5-19-2024 6:30 33o 5.62' ( 33.0937) 120o 44.09' (-120.7348) 10.8 337.4 290.0 13.2 14.5 75.0 1017.5 15.4
5-19-2024 6:00 33o 0.50' ( 33.0083) 120o 41.21' (-120.6869) 11.4 337.2 280.3 12.0 14.5 73.5 1017.5 15.3
5-19-2024 5:45 32o 57.87' ( 32.9644) 120o 40.07' (-120.6678) 11.0 338.0 289.9 9.3 14.6 73.3 1017.6 15.4
5-19-2024 5:30 32o 55.31' ( 32.9218) 120o 38.98' (-120.6497) 10.6 337.5 304.0 10.4 14.7 74.1 1017.6 15.3
5-19-2024 5:15 32o 53.48' ( 32.8913) 120o 38.20' (-120.6367) 0.5 299.5 304.4 13.3 14.7 72.4 1017.7 15.4
5-19-2024 5:00 32o 53.47' ( 32.8912) 120o 38.20' (-120.6366) 0.2 284.7 298.8 15.5 14.7 72.6 1017.5 15.4
5-19-2024 4:45 32o 53.47' ( 32.8912) 120o 38.20' (-120.6366) 0.2 284.8 285.6 13.4 14.7 71.0 1017.5 15.4
5-19-2024 4:30 32o 53.47' ( 32.8912) 120o 38.20' (-120.6366) 0.2 285.0 291.3 14.4 14.8 71.0 1017.4 15.4
5-19-2024 4:15 32o 53.47' ( 32.8912) 120o 38.20' (-120.6366) 0.2 284.2 290.8 17.9 14.7 71.4 1017.2 15.4
5-19-2024 4:00 32o 53.48' ( 32.8913) 120o 38.20' (-120.6367) 0.2 284.8 307.9 14.8 14.6 70.4 1017.2 15.4
5-19-2024 3:45 32o 53.47' ( 32.8912) 120o 38.20' (-120.6366) 0.2 284.7 289.5 12.8 14.6 73.0 1017.1 15.4
5-19-2024 3:30 32o 53.48' ( 32.8913) 120o 38.20' (-120.6367) 0.2 281.0 291.8 11.1 14.6 71.4 1017.0 15.4
5-19-2024 3:15 32o 53.47' ( 32.8912) 120o 38.20' (-120.6366) 0.2 282.5 300.5 16.7 14.5 69.9 1016.9 15.5
5-19-2024 3:00 32o 53.48' ( 32.8913) 120o 38.20' (-120.6367) 0.2 279.3 292.9 12.7 14.5 71.4 1016.8 15.5
5-19-2024 2:45 32o 53.47' ( 32.8912) 120o 38.20' (-120.6366) 0.2 279.0 285.0 15.1 14.4 70.6 1016.6 15.5
5-19-2024 2:30 32o 53.47' ( 32.8912) 120o 38.20' (-120.6366) 0.2 278.5 286.7 14.7 14.4 70.5 1016.5 15.5
5-19-2024 2:15 32o 53.47' ( 32.8912) 120o 38.20' (-120.6366) 0.2 279.1 277.6 10.9 14.6 71.8 1016.4 15.5
5-19-2024 2:00 32o 53.47' ( 32.8912) 120o 38.20' (-120.6366) 0.2 277.5 282.0 13.3 14.6 71.0 1016.3 15.5
5-19-2024 1:45 32o 53.47' ( 32.8912) 120o 38.20' (-120.6366) 0.2 279.0 281.7 12.7 14.6 70.7 1016.3 15.5
5-19-2024 1:30 32o 53.48' ( 32.8913) 120o 38.20' (-120.6367) 0.2 279.4 289.1 14.5 14.6 70.8 1016.3 15.5
5-19-2024 1:15 32o 53.47' ( 32.8912) 120o 38.20' (-120.6366) 0.2 279.4 282.4 9.7 14.6 70.4 1016.3 15.5
5-19-2024 1:00 32o 53.47' ( 32.8912) 120o 38.20' (-120.6366) 0.2 279.6 290.3 13.0 14.8 68.0 1016.2 15.5
5-19-2024 0:45 32o 53.47' ( 32.8912) 120o 38.20' (-120.6366) 0.2 277.0 295.3 13.7 14.9 71.7 1016.3 15.5
5-19-2024 0:30 32o 53.47' ( 32.8912) 120o 38.20' (-120.6366) 0.2 281.0 290.6 12.7 14.8 69.7 1016.3 15.5
5-19-2024 0:15 32o 53.47' ( 32.8912) 120o 38.20' (-120.6366) 0.2 280.4 294.1 13.9 14.9 70.6 1016.3 15.5
5-19-2024 0:00 32o 53.47' ( 32.8912) 120o 38.20' (-120.6366) 0.2 280.1 288.3 12.4 15.0 71.1 1016.3 15.5
5-18-2024 23:45 32o 53.47' ( 32.8912) 120o 38.20' (-120.6367) 0.4 287.9 301.0 11.5 14.8 69.4 1016.4 15.5
5-18-2024 23:30 32o 53.37' ( 32.8895) 120o 38.10' (-120.6351) 2.0 310.3 304.0 10.5 14.7 69.6 1016.5 15.4
5-18-2024 23:15 32o 52.98' ( 32.8830) 120o 37.76' (-120.6294) 2.0 314.3 297.8 9.5 14.9 70.4 1016.6 15.5
5-18-2024 23:00 32o 52.61' ( 32.8768) 120o 37.41' (-120.6235) 1.9 314.8 286.3 9.7 14.9 69.4 1016.8 15.5
5-18-2024 22:45 32o 52.22' ( 32.8704) 120o 37.07' (-120.6179) 1.9 314.7 291.8 11.2 14.9 71.1 1016.8 15.4
5-18-2024 22:30 32o 51.84' ( 32.8640) 120o 36.73' (-120.6121) 1.9 316.3 291.7 11.2 14.9 71.7 1016.8 15.4
5-18-2024 22:15 32o 51.47' ( 32.8578) 120o 36.37' (-120.6062) 1.9 316.2 291.3 10.2 14.9 69.2 1016.8 15.5
5-18-2024 22:00 32o 51.11' ( 32.8518) 120o 36.01' (-120.6002) 1.9 311.5 291.3 10.0 15.0 68.6 1016.9 15.5
5-18-2024 21:45 32o 50.75' ( 32.8458) 120o 35.65' (-120.5942) 1.8 320.4 296.9 11.0 14.9 68.9 1016.9 15.5
5-18-2024 21:30 32o 50.40' ( 32.8400) 120o 35.30' (-120.5883) 1.9 319.0 294.0 10.4 14.9 72.5 1017.1 15.5
5-18-2024 21:15 32o 50.04' ( 32.8340) 120o 34.94' (-120.5823) 1.9 318.8 302.3 9.2 15.0 71.0 1016.9 15.6
5-18-2024 21:00 32o 49.69' ( 32.8282) 120o 34.59' (-120.5765) 1.9 317.0 298.4 9.1 14.9 69.8 1017.0 15.5
5-18-2024 20:45 32o 49.33' ( 32.8221) 120o 34.22' (-120.5704) 1.9 316.4 286.9 10.3 15.0 69.3 1017.0 15.5
5-18-2024 20:30 32o 48.95' ( 32.8159) 120o 33.87' (-120.5644) 1.9 319.1 296.1 10.1 14.6 71.3 1017.0 15.5
5-18-2024 20:15 32o 48.59' ( 32.8098) 120o 33.50' (-120.5583) 2.0 326.4 299.8 9.6 15.0 69.7 1017.0 15.5
5-18-2024 20:00 32o 48.21' ( 32.8035) 120o 33.12' (-120.5520) 2.0 326.8 288.9 12.1 14.7 70.5 1017.1 15.5
5-18-2024 19:45 32o 47.82' ( 32.7970) 120o 32.74' (-120.5457) 2.0 325.8 307.1 8.6 14.6 73.5 1017.3 15.5
5-18-2024 19:30 32o 47.46' ( 32.7909) 120o 32.39' (-120.5398) 1.8 311.9 309.2 7.2 14.6 74.1 1017.4 15.4
5-18-2024 19:15 32o 47.10' ( 32.7850) 120o 32.03' (-120.5339) 2.0 323.5 316.7 7.2 14.6 74.4 1017.5 15.4
5-18-2024 19:00 32o 46.71' ( 32.7786) 120o 31.65' (-120.5276) 2.0 312.0 321.2 8.1 14.4 75.0 1017.3 15.4
5-18-2024 18:45 32o 46.33' ( 32.7721) 120o 31.27' (-120.5212) 2.0 327.9 293.4 9.6 14.5 71.5 1017.3 15.3
5-18-2024 18:30 32o 45.92' ( 32.7653) 120o 30.93' (-120.5154) 2.0 322.8 312.5 9.7 14.2 75.5 1017.4 15.3
5-18-2024 18:15 32o 45.55' ( 32.7592) 120o 30.62' (-120.5103) 0.3 324.7 315.7 9.0 14.3 76.3 1017.4 15.3
5-18-2024 18:00 32o 45.56' ( 32.7593) 120o 30.62' (-120.5103) 0.3 324.9 316.7 9.4 14.3 74.6 1017.3 15.3
5-18-2024 17:45 32o 45.55' ( 32.7592) 120o 30.62' (-120.5103) 0.3 323.4 323.2 7.6 14.2 76.9 1017.2 15.3
5-18-2024 17:30 32o 45.56' ( 32.7593) 120o 30.62' (-120.5103) 0.3 324.9 304.5 9.5 14.2 74.2 1017.2 15.3
5-18-2024 17:15 32o 45.55' ( 32.7592) 120o 30.62' (-120.5103) 0.3 327.8 316.1 10.1 13.8 79.0 1017.0 15.3
5-18-2024 17:00 32o 45.56' ( 32.7593) 120o 30.62' (-120.5103) 0.2 326.9 317.8 10.3 13.0 78.8 1016.9 15.2
5-18-2024 16:45 32o 45.55' ( 32.7592) 120o 30.62' (-120.5103) 0.3 328.3 305.3 10.3 13.8 77.1 1016.8 15.2
5-18-2024 16:30 32o 45.55' ( 32.7592) 120o 30.62' (-120.5103) 0.2 327.6 317.6 11.6 13.5 79.9 1017.0 15.2
5-18-2024 16:15 32o 45.55' ( 32.7592) 120o 30.62' (-120.5103) 0.2 327.9 315.9 10.1 13.4 82.0 1016.9 15.2
5-18-2024 16:00 32o 45.55' ( 32.7592) 120o 30.62' (-120.5103) 0.2 328.0 322.7 8.0 13.4 81.9 1017.0 15.2
5-18-2024 15:45 32o 45.55' ( 32.7592) 120o 30.62' (-120.5103) 0.2 327.1 331.8 11.4 13.3 81.9 1016.9 15.2
5-18-2024 15:30 32o 45.44' ( 32.7574) 120o 30.38' (-120.5064) 6.4 292.6 325.7 9.3 13.3 83.9 1016.7 15.2
5-18-2024 15:15 32o 44.62' ( 32.7437) 120o 27.42' (-120.4570) 11.3 290.3 295.2 8.6 13.3 84.3 1016.6 15.1
5-18-2024 15:00 32o 43.72' ( 32.7287) 120o 24.24' (-120.4040) 11.4 290.8 310.7 9.2 13.1 84.1 1016.4 15.2
5-18-2024 14:45 32o 42.86' ( 32.7143) 120o 21.05' (-120.3508) 11.3 290.9 321.0 10.6 13.0 87.8 1016.1 15.2
5-18-2024 14:30 32o 41.99' ( 32.6999) 120o 17.88' (-120.2980) 11.3 292.0 306.6 7.7 13.4 84.2 1016.2 15.2
5-18-2024 14:15 32o 41.05' ( 32.6842) 120o 14.73' (-120.2455) 11.2 294.1 301.7 10.7 13.1 87.0 1016.0 15.1
5-18-2024 14:00 32o 40.16' ( 32.6694) 120o 11.59' (-120.1932) 11.3 292.3 309.4 9.4 12.8 90.8 1015.8 14.5
5-18-2024 13:45 32o 39.20' ( 32.6533) 120o 8.47' (-120.1411) 11.2 296.0 320.6 10.1 13.2 86.2 1015.7 14.2
5-18-2024 13:30 32o 38.26' ( 32.6377) 120o 5.32' (-120.0886) 11.2 293.4 307.8 11.1 13.1 90.3 1015.5 14.1
5-18-2024 13:15 32o 37.35' ( 32.6224) 120o 2.12' (-120.0353) 11.6 290.6 311.9 11.6 13.3 87.9 1015.3 14.2
5-18-2024 13:00 32o 36.47' ( 32.6079) 119o 58.83' (-119.9806) 11.7 289.4 311.4 10.7 13.0 91.8 1015.2 14.3
5-18-2024 12:45 32o 35.63' ( 32.5939) 119o 55.56' (-119.9261) 11.4 287.9 311.6 12.3 13.0 91.4 1015.2 14.0
5-18-2024 12:30 32o 34.66' ( 32.5777) 119o 52.33' (-119.8722) 11.8 288.9 302.5 8.7 13.0 92.4 1015.0 14.3
5-18-2024 12:15 32o 33.80' ( 32.5633) 119o 49.06' (-119.8176) 11.6 286.6 297.2 9.3 13.2 90.7 1015.0 14.5
5-18-2024 12:00 32o 32.83' ( 32.5472) 119o 45.80' (-119.7634) 11.8 288.5 300.3 9.5 13.0 91.7 1014.9 14.4
5-18-2024 11:45 32o 31.85' ( 32.5308) 119o 42.51' (-119.7084) 12.0 288.4 301.5 9.0 13.0 92.6 1015.0 15.1
5-18-2024 11:30 32o 30.87' ( 32.5146) 119o 39.12' (-119.6520) 12.2 291.3 305.0 8.3 13.3 91.8 1014.9 15.1
5-18-2024 11:15 32o 29.90' ( 32.4983) 119o 35.71' (-119.5952) 12.1 292.2 295.1 7.9 13.2 90.7 1014.8 14.9
5-18-2024 11:00 32o 28.90' ( 32.4817) 119o 32.40' (-119.5400) 11.6 293.0 303.3 7.4 13.4 86.9 1014.7 15.1
5-18-2024 10:45 32o 27.97' ( 32.4661) 119o 29.24' (-119.4873) 11.1 293.0 289.0 8.8 13.3 87.0 1014.8 15.3
5-18-2024 10:30 32o 27.12' ( 32.4521) 119o 26.14' (-119.4356) 10.9 288.7 281.9 10.7 13.5 86.5 1014.7 15.2
5-18-2024 10:15 32o 26.26' ( 32.4377) 119o 23.00' (-119.3833) 11.3 288.2 295.1 9.8 13.3 86.4 1014.7 15.6
5-18-2024 10:00 32o 25.33' ( 32.4222) 119o 19.85' (-119.3308) 11.3 289.1 287.4 10.1 13.2 87.2 1014.8 15.5
5-18-2024 9:45 32o 24.42' ( 32.4070) 119o 16.68' (-119.2779) 11.5 287.8 290.8 9.2 13.1 88.6 1014.8 15.5
5-18-2024 9:30 32o 23.53' ( 32.3922) 119o 13.44' (-119.2239) 11.4 289.4 292.6 9.3 12.9 88.0 1014.9 15.3
5-18-2024 9:15 32o 22.68' ( 32.3779) 119o 10.26' (-119.1710) 11.2 288.6 288.9 10.0 13.1 85.6 1014.9 15.3
5-18-2024 9:00 32o 21.83' ( 32.3638) 119o 7.11' (-119.1184) 11.2 289.0 295.5 10.7 13.3 83.6 1015.0 15.4
5-18-2024 8:45 32o 20.93' ( 32.3489) 119o 3.97' (-119.0662) 11.2 291.9 300.9 9.6 12.9 84.0 1015.0 15.5
5-18-2024 8:30 32o 20.00' ( 32.3333) 119o 0.84' (-119.0140) 11.3 292.9 304.4 9.9 13.1 86.6 1015.0 15.4
5-18-2024 8:15 32o 19.04' ( 32.3173) 118o 57.68' (-118.9613) 11.4 292.2 306.2 11.0 13.1 87.7 1015.0 15.2
5-18-2024 8:00 32o 18.08' ( 32.3013) 118o 54.50' (-118.9084) 11.6 292.3 304.0 6.8 13.2 89.3 1015.0 15.1
5-18-2024 7:45 32o 17.18' ( 32.2863) 118o 51.25' (-118.8542) 11.5 290.3 298.9 9.3 13.1 89.0 1015.0 14.8
5-18-2024 7:30 32o 16.32' ( 32.2719) 118o 48.03' (-118.8005) 11.4 288.2 296.7 6.0 13.0 88.5 1015.1 15.0
5-18-2024 7:15 32o 15.52' ( 32.2587) 118o 44.81' (-118.7468) 11.5 284.9 307.0 9.0 13.3 88.3 1014.9 14.9
5-18-2024 7:00 32o 14.96' ( 32.2493) 118o 41.49' (-118.6915) 11.5 265.1 318.3 8.5 13.2 87.4 1014.9 15.7
5-18-2024 6:45 32o 15.64' ( 32.2607) 118o 38.18' (-118.6364) 11.6 254.6 309.8 11.2 13.4 86.9 1015.0 15.9
5-18-2024 6:30 32o 16.71' ( 32.2784) 118o 34.99' (-118.5832) 11.5 248.0 295.3 7.5 13.2 85.8 1015.2 16.0
5-18-2024 6:15 32o 17.79' ( 32.2966) 118o 31.85' (-118.5309) 11.4 249.1 304.6 9.8 13.4 85.4 1015.0 16.1
5-18-2024 6:00 32o 18.89' ( 32.3149) 118o 28.71' (-118.4785) 11.6 247.6 323.1 7.4 13.5 84.3 1014.7 16.0
5-18-2024 5:45 32o 20.00' ( 32.3334) 118o 25.56' (-118.4261) 11.5 248.1 322.2 11.6 13.9 83.7 1014.7 16.1
5-18-2024 5:30 32o 21.11' ( 32.3518) 118o 22.41' (-118.3735) 11.7 248.3 323.2 9.0 13.9 83.2 1014.8 16.2
5-18-2024 5:15 32o 22.17' ( 32.3695) 118o 19.22' (-118.3203) 11.6 247.9 311.7 10.3 13.9 82.0 1014.9 16.2
5-18-2024 5:00 32o 23.21' ( 32.3869) 118o 16.03' (-118.2671) 11.6 247.9 316.2 11.1 14.0 83.5 1014.7 16.2
5-18-2024 4:45 32o 24.27' ( 32.4046) 118o 12.85' (-118.2142) 11.5 248.2 314.8 12.8 14.1 83.3 1014.4 16.1
5-18-2024 4:30 32o 25.36' ( 32.4227) 118o 9.72' (-118.1620) 11.5 248.1 289.2 8.5 14.1 82.7 1014.5 16.1
5-18-2024 4:15 32o 26.47' ( 32.4411) 118o 6.58' (-118.1097) 11.4 248.7 292.5 11.9 14.4 81.9 1014.2 16.1
5-18-2024 4:00 32o 27.63' ( 32.4606) 118o 3.49' (-118.0581) 11.6 248.5 296.0 10.1 14.4 81.0 1014.0 16.1
5-18-2024 3:45 32o 28.76' ( 32.4794) 118o 0.52' (-118.0087) 7.8 251.6 297.6 12.9 14.3 80.8 1013.8 16.4
5-18-2024 3:30 32o 29.43' ( 32.4904) 117o 58.43' (-117.9738) 5.8 256.5 285.2 12.4 14.3 81.3 1013.7 16.5
5-18-2024 3:15 32o 29.53' ( 32.4921) 117o 58.10' (-117.9684) 0.1 306.6 301.6 10.7 14.5 82.1 1013.6 16.6
5-18-2024 3:00 32o 29.53' ( 32.4922) 117o 58.10' (-117.9684) 0.1 306.1 309.8 8.6 14.4 81.1 1013.0 16.6
5-18-2024 2:45 32o 29.53' ( 32.4921) 117o 58.10' (-117.9684) 0.1 305.9 308.9 12.5 14.5 80.4 1013.4 16.6
5-18-2024 2:30 32o 29.53' ( 32.4922) 117o 58.10' (-117.9684) 0.1 305.5 293.0 11.6 14.6 81.4 1013.4 16.6
5-18-2024 2:15 32o 29.53' ( 32.4921) 117o 58.10' (-117.9684) 0.1 292.4 311.0 9.7 14.4 79.5 1013.2 16.6
5-18-2024 2:00 32o 29.53' ( 32.4922) 117o 58.10' (-117.9684) 0.3 282.1 308.9 12.1 14.4 80.4 1013.0 16.6
5-18-2024 1:45 32o 29.48' ( 32.4913) 117o 57.83' (-117.9638) 2.0 315.0 274.5 11.1 14.5 79.0 1012.9 16.6
5-18-2024 1:30 32o 29.16' ( 32.4860) 117o 57.37' (-117.9562) 2.0 315.6 282.6 11.9 14.6 79.8 1013.0 16.6
5-18-2024 1:15 32o 28.83' ( 32.4805) 117o 56.93' (-117.9488) 2.0 307.7 276.1 11.2 14.8 80.6 1013.1 16.7
5-18-2024 1:00 32o 28.50' ( 32.4749) 117o 56.46' (-117.9409) 2.1 305.6 277.6 12.8 14.9 81.1 1013.0 16.8
5-18-2024 0:45 32o 28.17' ( 32.4695) 117o 55.96' (-117.9327) 2.1 298.3 272.8 12.2 14.8 80.9 1013.1 16.7
5-18-2024 0:30 32o 27.93' ( 32.4655) 117o 55.43' (-117.9238) 1.3 294.6 279.8 11.5 15.1 81.4 1013.1 16.5
5-18-2024 0:15 32o 27.84' ( 32.4641) 117o 55.22' (-117.9204) 0.9 295.4 284.7 10.3 15.0 80.1 1013.2 16.6
5-18-2024 0:00 32o 27.76' ( 32.4627) 117o 54.95' (-117.9159) 0.1 290.0 285.9 10.5 15.0 79.2 1013.2 16.6
5-17-2024 23:45 32o 27.76' ( 32.4626) 117o 54.95' (-117.9158) 0.1 289.8 284.2 10.4 14.9 78.8 1013.2 16.6
5-17-2024 23:30 32o 27.76' ( 32.4627) 117o 54.95' (-117.9158) 0.1 302.9 288.4 9.8 15.0 79.1 1013.2 16.6
5-17-2024 23:15 32o 27.76' ( 32.4627) 117o 54.95' (-117.9158) 0.2 303.2 288.3 10.5 15.0 79.8 1013.2 16.6
5-17-2024 23:00 32o 27.76' ( 32.4627) 117o 54.95' (-117.9158) 0.1 303.2 294.3 10.1 15.0 79.3 1013.3 16.6
5-17-2024 22:45 32o 27.76' ( 32.4627) 117o 54.95' (-117.9158) 0.1 303.6 288.8 10.2 15.2 78.8 1013.5 16.4
5-17-2024 22:30 32o 27.76' ( 32.4627) 117o 54.95' (-117.9158) 0.2 300.8 289.2 9.4 15.2 79.4 1013.5 16.5
5-17-2024 22:15 32o 28.11' ( 32.4686) 117o 53.67' (-117.8945) 11.5 253.9 287.5 9.2 15.1 79.6 1013.5 16.8
5-17-2024 22:00 32o 29.04' ( 32.4840) 117o 50.43' (-117.8405) 11.6 252.7 302.6 9.0 15.3 78.3 1013.0 17.1
5-17-2024 21:45 32o 29.96' ( 32.4993) 117o 47.19' (-117.7865) 11.6 254.6 285.2 9.8 15.3 78.3 1013.8 17.2
5-17-2024 21:30 32o 30.85' ( 32.5141) 117o 43.92' (-117.7321) 11.6 255.2 288.9 8.4 15.4 77.6 1014.0 17.1
5-17-2024 21:15 32o 31.73' ( 32.5288) 117o 40.68' (-117.6780) 11.4 252.9 297.9 8.9 15.5 76.3 1014.0 17.1
5-17-2024 21:00 32o 32.65' ( 32.5441) 117o 37.52' (-117.6254) 11.2 254.1 283.4 9.0 15.5 77.4 1014.2 17.4
5-17-2024 20:45 32o 33.50' ( 32.5583) 117o 34.39' (-117.5732) 11.2 255.0 281.4 9.5 15.6 77.3 1014.3 17.5
5-17-2024 20:30 32o 34.42' ( 32.5736) 117o 31.24' (-117.5207) 11.3 252.4 275.2 10.5 15.6 78.0 1014.4 17.8
5-17-2024 20:15 32o 35.28' ( 32.5879) 117o 28.12' (-117.4687) 11.3 265.6 277.2 11.3 15.6 78.3 1014.4 17.4
5-17-2024 20:00 32o 35.60' ( 32.5934) 117o 24.82' (-117.4137) 11.2 265.2 284.4 9.9 15.8 79.2 1014.5 17.6
5-17-2024 19:45 32o 35.95' ( 32.5992) 117o 21.54' (-117.3590) 11.2 264.3 276.9 8.8 15.8 79.7 1014.6 17.4
5-17-2024 19:30 32o 36.33' ( 32.6055) 117o 18.21' (-117.3035) 10.9 270.3 283.1 8.6 15.8 80.1 1014.6 17.8
5-17-2024 19:15 32o 36.25' ( 32.6041) 117o 15.26' (-117.2543) 11.3 260.9 275.2 9.1 15.9 80.1 1014.6 16.3
5-17-2024 19:00 32o 38.10' ( 32.6350) 117o 13.40' (-117.2233) 11.2 172.3 274.2 9.7 16.4 76.9 1014.7 14.6
5-17-2024 18:45 32o 40.51' ( 32.6751) 117o 13.76' (-117.2293) 7.3 175.8 282.4 10.5 16.5 77.5 1014.5 18.3
5-17-2024 18:30 32o 42.50' ( 32.7084) 117o 13.49' (-117.2249) 9.6 222.0 265.2 8.5 16.6 78.6 1014.5 18.6
5-17-2024 18:15 32o 42.76' ( 32.7127) 117o 10.96' (-117.1826) 9.8 303.3 273.3 2.6 16.8 73.6 1014.7 19.2
5-17-2024 18:00 32o 41.86' ( 32.6976) 117o 9.56' (-117.1593) 1.0 297.0 228.9 5.7 17.2 72.3 1014.7 19.3
5-17-2024 17:45 32o 41.71' ( 32.6951) 117o 9.35' (-117.1558) 0.6 301.0 237.6 2.7 18.0 71.1 1014.8 19.3
5-17-2024 17:30 32o 41.73' ( 32.6955) 117o 9.18' (-117.1530) 0.0 69.9 273.9 3.5 17.6 72.2 1014.8 19.2
5-17-2024 17:15 32o 41.73' ( 32.6955) 117o 9.18' (-117.1530) 0.0 70.1 291.9 3.5 17.4 72.9 1014.8 19.2
5-17-2024 17:00 32o 41.73' ( 32.6955) 117o 9.18' (-117.1530) 0.0 70.2 310.4 3.8 17.1 74.4 1014.8 19.1
5-17-2024 16:45 32o 41.73' ( 32.6955) 117o 9.18' (-117.1530) 0.0 70.1 288.7 4.0 17.1 74.7 1014.9 19.1
5-17-2024 16:30 32o 41.73' ( 32.6955) 117o 9.18' (-117.1529) 0.0 70.7 293.0 4.5 17.0 75.4 1014.0 19.1
5-17-2024 16:15 32o 41.73' ( 32.6955) 117o 9.18' (-117.1530) 0.0 70.3 295.0 3.8 16.9 76.0 1015.0 19.1
5-17-2024 16:00 32o 41.73' ( 32.6955) 117o 9.18' (-117.1530) 0.0 70.2 290.0 4.2 16.6 76.6 1015.1 19.1
5-17-2024 15:45 32o 41.73' ( 32.6955) 117o 9.18' (-117.1530) 0.1 69.7 294.3 4.4 16.4 77.2 1015.0 19.0
5-17-2024 15:30 32o 41.73' ( 32.6955) 117o 9.18' (-117.1529) 0.0 69.7 236.7 3.9 16.5 77.2 1015.1 19.0
5-17-2024 15:15 32o 41.73' ( 32.6955) 117o 9.18' (-117.1530) 0.0 70.0 273.3 4.2 16.3 77.3 1015.0 19.0
5-17-2024 15:00 32o 41.73' ( 32.6955) 117o 9.18' (-117.1530) 0.0 70.6 278.2 4.5 16.2 77.7 1014.8 19.0
5-17-2024 14:45 32o 41.73' ( 32.6955) 117o 9.18' (-117.1530) 0.0 70.3 260.0 4.0 16.1 78.2 1014.8 19.0
5-17-2024 14:30 32o 41.73' ( 32.6955) 117o 9.18' (-117.1530) 0.0 70.0 255.1 5.5 16.1 78.5 1014.6 19.0
5-17-2024 14:15 32o 41.73' ( 32.6955) 117o 9.18' (-117.1530) 0.0 70.1 285.6 6.0 16.1 78.2 1014.6 19.0
5-17-2024 14:00 32o 41.73' ( 32.6955) 117o 9.18' (-117.1530) 0.0 70.2 282.0 4.2 16.0 79.0 1014.5 19.0
5-17-2024 13:45 32o 41.73' ( 32.6955) 117o 9.18' (-117.1530) 0.0 70.1 291.3 4.8 15.9 80.4 1014.5 19.0
5-17-2024 13:30 32o 41.73' ( 32.6955) 117o 9.18' (-117.1530) 0.0 70.0 302.3 4.3 15.6 80.0 1014.3 19.0
5-17-2024 13:15 32o 41.73' ( 32.6955) 117o 9.18' (-117.1530) 0.0 69.9 294.9 4.2 15.6 81.7 1014.2 19.0
5-17-2024 13:00 32o 41.73' ( 32.6955) 117o 9.18' (-117.1530) 0.0 70.0 302.3 3.9 15.5 81.8 1014.2 19.0
5-17-2024 12:45 32o 41.73' ( 32.6955) 117o 9.18' (-117.1530) 0.0 70.1 303.3 4.4 15.4 82.3 1014.2 19.0
5-17-2024 12:30 32o 41.73' ( 32.6955) 117o 9.18' (-117.1530) 0.0 70.1 302.0 4.2 15.4 82.8 1014.1 19.0
5-17-2024 12:15 32o 41.73' ( 32.6955) 117o 9.18' (-117.1530) 0.0 70.8 298.3 3.0 15.3 83.0 1014.2 19.0
5-17-2024 12:00 32o 41.73' ( 32.6955) 117o 9.18' (-117.1530) 0.0 70.3 301.9 3.6 15.2 84.1 1014.1 19.0
5-17-2024 11:45 32o 41.73' ( 32.6955) 117o 9.18' (-117.1530) 0.0 70.8 303.1 3.9 15.1 84.9 1014.2 19.0
5-17-2024 11:30 32o 41.73' ( 32.6955) 117o 9.18' (-117.1530) 0.0 70.3 304.4 4.0 15.1 85.5 1014.2 19.0
5-17-2024 11:15 32o 41.73' ( 32.6955) 117o 9.18' (-117.1530) 0.0 70.7 316.3 4.0 15.1 86.1 1014.3 19.1
5-17-2024 11:00 32o 41.73' ( 32.6955) 117o 9.18' (-117.1530) 0.0 71.4 308.9 3.0 15.0 86.2 1014.3 19.1
5-17-2024 10:45 32o 41.73' ( 32.6955) 117o 9.18' (-117.1530) 0.0 71.3 306.7 3.4 15.0 86.3 1014.4 19.1
5-17-2024 10:30 32o 41.73' ( 32.6955) 117o 9.18' (-117.1530) 0.0 71.3 314.5 3.6 15.1 86.3 1014.5 19.1
5-17-2024 10:15 32o 41.73' ( 32.6955) 117o 9.18' (-117.1530) 0.0 70.6 297.3 6.8 15.3 85.5 1014.5 19.1
5-17-2024 10:00 32o 41.73' ( 32.6955) 117o 9.18' (-117.1530) 0.0 70.5 276.1 7.0 15.2 86.2 1014.7 19.0
5-17-2024 9:45 32o 41.73' ( 32.6955) 117o 9.18' (-117.1530) 0.0 70.8 287.6 7.1 15.2 86.3 1014.6 19.1
5-17-2024 9:30 32o 41.73' ( 32.6955) 117o 9.18' (-117.1530) 0.0 70.9 285.8 6.3 15.3 85.8 1014.7 19.2
5-17-2024 9:15 32o 41.73' ( 32.6955) 117o 9.18' (-117.1530) 0.0 70.8 274.4 5.1 15.3 85.0 1014.7 19.3
5-17-2024 9:00 32o 41.73' ( 32.6955) 117o 9.18' (-117.1530) 0.0 71.2 281.8 5.1 15.4 85.1 1014.9 19.4
5-17-2024 8:45 32o 41.73' ( 32.6955) 117o 9.18' (-117.1530) 0.0 71.1 289.6 5.4 15.4 85.4 1015.0 19.5
5-17-2024 8:30 32o 41.73' ( 32.6955) 117o 9.18' (-117.1530) 0.0 71.0 283.1 5.7 15.5 85.1 1015.1 19.5
5-17-2024 8:15 32o 41.73' ( 32.6955) 117o 9.18' (-117.1530) 0.0 71.1 275.0 5.2 15.6 84.0 1015.2 19.5
5-17-2024 8:00 32o 41.73' ( 32.6955) 117o 9.18' (-117.1530) 0.0 71.6 267.8 4.5 15.6 83.7 1015.3 19.4
5-17-2024 7:45 32o 41.73' ( 32.6955) 117o 9.18' (-117.1530) 0.0 71.2 291.6 5.5 15.7 83.7 1015.2 19.4
5-17-2024 7:30 32o 41.73' ( 32.6955) 117o 9.18' (-117.1530) 0.0 71.2 288.3 5.8 15.8 82.9 1015.3 19.4
5-17-2024 7:15 32o 41.73' ( 32.6955) 117o 9.18' (-117.1530) 0.0 71.1 293.2 6.8 15.9 82.1 1015.3 19.4
5-17-2024 7:00 32o 41.73' ( 32.6955) 117o 9.18' (-117.1530) 0.0 71.4 297.0 6.6 16.2 80.8 1015.1 19.3
5-17-2024 6:45 32o 41.73' ( 32.6955) 117o 9.18' (-117.1530) 0.0 71.5 282.3 3.8 16.2 79.9 1015.1 19.3
5-17-2024 6:30 32o 41.73' ( 32.6955) 117o 9.18' (-117.1530) 0.0 71.6 297.5 3.8 16.4 79.7 1015.1 19.3
5-17-2024 6:15 32o 41.73' ( 32.6955) 117o 9.18' (-117.1530) 0.0 70.3 287.1 5.9 16.5 79.2 1015.2 19.3
5-17-2024 6:00 32o 41.73' ( 32.6955) 117o 9.18' (-117.1530) 0.0 70.3 261.7 6.1 16.7 77.3 1015.0 19.3
5-17-2024 5:45 32o 41.73' ( 32.6955) 117o 9.18' (-117.1530) 0.0 71.3 288.5 6.0 16.7 76.0 1015.1 19.2
5-17-2024 5:30 32o 41.73' ( 32.6955) 117o 9.18' (-117.1530) 0.0 71.0 291.9 7.6 16.5 77.4 1015.0 19.2
5-17-2024 5:15 32o 41.73' ( 32.6955) 117o 9.18' (-117.1530) 0.0 70.3 294.6 8.4 16.5 78.4 1014.8 19.2
5-17-2024 5:00 32o 41.73' ( 32.6955) 117o 9.18' (-117.1530) 0.0 70.4 301.6 7.6 16.5 78.0 1014.7 19.2
5-17-2024 4:45 32o 41.73' ( 32.6955) 117o 9.18' (-117.1530) 0.0 70.2 292.3 10.1 16.5 78.2 1014.6 19.2
5-17-2024 4:30 32o 41.73' ( 32.6955) 117o 9.18' (-117.1530) 0.0 70.6 296.6 8.1 16.6 76.9 1014.4 19.2
5-17-2024 4:15 32o 41.73' ( 32.6955) 117o 9.18' (-117.1530) 0.0 71.3 288.8 7.6 17.1 76.0 1014.2 19.2
5-17-2024 4:00 32o 41.73' ( 32.6955) 117o 9.18' (-117.1530) 0.0 70.9 291.2 11.1 17.1 77.0 1014.0 19.1
5-17-2024 3:45 32o 41.73' ( 32.6955) 117o 9.18' (-117.1530) 0.0 70.9 290.6 10.6 16.7 77.8 1013.7 19.1
5-17-2024 3:30 32o 41.73' ( 32.6955) 117o 9.18' (-117.1529) 0.0 70.6 293.0 9.9 16.6 77.9 1013.5 19.1
5-17-2024 3:15 32o 41.73' ( 32.6955) 117o 9.18' (-117.1530) 0.0 70.5 289.1 10.1 16.5 77.6 1013.3 19.1
5-17-2024 3:00 32o 41.73' ( 32.6955) 117o 9.18' (-117.1530) 0.0 70.8 288.7 10.9 16.6 78.6 1013.2 19.1
5-17-2024 2:45 32o 41.73' ( 32.6955) 117o 9.18' (-117.1530) 0.0 70.8 295.3 8.0 16.7 76.5 1013.1 19.0
5-17-2024 2:30 32o 41.73' ( 32.6955) 117o 9.18' (-117.1530) 0.0 70.4 296.6 9.4 16.7 76.4 1013.0 19.0
5-17-2024 2:15 32o 41.73' ( 32.6955) 117o 9.18' (-117.1530) 0.1 69.6 291.9 10.8 16.8 75.8 1012.9 18.9
5-17-2024 2:00 32o 41.73' ( 32.6955) 117o 9.18' (-117.1530) 0.0 69.9 294.7 10.3 17.5 73.7 1012.9 18.8
5-17-2024 1:45 32o 41.73' ( 32.6955) 117o 9.18' (-117.1530) 0.0 70.4 284.1 10.9 18.3 71.9 1012.8 18.8
5-17-2024 1:30 32o 41.73' ( 32.6955) 117o 9.18' (-117.1530) 0.0 69.7 277.1 9.7 17.9 72.0 1012.8 18.8
5-17-2024 1:15 32o 41.73' ( 32.6955) 117o 9.18' (-117.1530) 0.0 69.5 293.7 10.6 17.8 73.1 1012.7 18.8
5-17-2024 1:00 32o 41.73' ( 32.6955) 117o 9.18' (-117.1530) 0.0 70.7 291.7 11.3 17.6 72.8 1012.8 18.8
5-17-2024 0:45 32o 41.73' ( 32.6955) 117o 9.18' (-117.1530) 0.0 70.4 293.6 12.3 17.7 72.7 1012.8 18.8
5-17-2024 0:30 32o 41.73' ( 32.6955) 117o 9.18' (-117.1530) 0.0 70.7 295.3 12.8 17.9 71.3 1012.9 19.1
5-17-2024 0:15 32o 41.73' ( 32.6955) 117o 9.18' (-117.1530) 0.0 70.4 292.6 12.6 18.0 71.8 1013.0 19.2
5-17-2024 0:00 32o 41.73' ( 32.6955) 117o 9.18' (-117.1530) 0.0 70.7 292.1 13.1 17.8 70.0 1013.2 19.2
5-16-2024 23:45 32o 41.73' ( 32.6955) 117o 9.18' (-117.1530) 0.0 70.5 295.3 12.6 18.0 69.8 1013.2 19.1
5-16-2024 23:30 32o 41.73' ( 32.6955) 117o 9.18' (-117.1530) 0.0 70.7 294.5 12.3 18.4 68.3 1013.1 19.4
5-16-2024 23:15 32o 41.73' ( 32.6955) 117o 9.18' (-117.1530) 0.0 70.5 285.1 12.9 18.3 67.0 1013.2 19.5
5-16-2024 23:00 32o 41.73' ( 32.6955) 117o 9.18' (-117.1530) 0.1 70.6 290.1 13.7 18.8 65.5 1013.3 19.5
5-16-2024 22:45 32o 41.73' ( 32.6955) 117o 9.18' (-117.1530) 0.0 70.7 293.0 12.8 18.2 66.3 1013.2 19.5
5-16-2024 22:30 32o 41.73' ( 32.6955) 117o 9.18' (-117.1530) 0.0 70.5 291.9 13.0 18.2 65.4 1013.4 19.4
5-16-2024 22:15 32o 41.73' ( 32.6955) 117o 9.18' (-117.1530) 0.0 71.2 292.0 12.2 18.3 65.1 1013.4 19.3
5-16-2024 22:00 32o 41.73' ( 32.6955) 117o 9.18' (-117.1530) 0.0 70.8 294.0 12.6 19.0 63.6 1013.4 19.5
5-16-2024 21:45 32o 41.73' ( 32.6955) 117o 9.18' (-117.1530) 0.0 71.1 291.1 11.9 18.6 64.1 1013.5 19.5
5-16-2024 21:30 32o 41.73' ( 32.6955) 117o 9.18' (-117.1530) 0.0 71.0 292.2 12.8 18.5 63.2 1013.7 19.5
5-16-2024 21:15 32o 41.73' ( 32.6955) 117o 9.18' (-117.1530) 0.0 70.6 287.1 13.5 18.7 62.8 1013.8 19.4
5-16-2024 21:00 32o 41.73' ( 32.6955) 117o 9.18' (-117.1530) 0.0 70.6 292.9 13.8 18.7 62.6 1013.9 19.2
5-16-2024 20:45 32o 41.73' ( 32.6955) 117o 9.18' (-117.1530) 0.0 70.8 298.1 12.8 18.4 62.2 1014.1 19.3
5-16-2024 20:30 32o 41.73' ( 32.6955) 117o 9.18' (-117.1530) 0.0 71.1 290.2 11.9 18.7 61.0 1014.1 19.8
5-16-2024 20:15 32o 41.73' ( 32.6955) 117o 9.18' (-117.1530) 0.0 71.3 286.5 10.3 19.4 59.7 1014.1 19.8
5-16-2024 20:00 32o 41.73' ( 32.6955) 117o 9.18' (-117.1530) 0.0 71.4 289.8 11.7 19.1 60.7 1014.2 19.9
5-16-2024 19:45 32o 41.73' ( 32.6955) 117o 9.18' (-117.1530) 0.0 71.6 277.4 7.9 19.4 58.5 1014.3 19.9
5-16-2024 19:30 32o 41.73' ( 32.6955) 117o 9.18' (-117.1530) 0.0 71.5 289.1 9.6 18.9 59.7 1014.4 19.8
5-16-2024 19:15 32o 41.73' ( 32.6955) 117o 9.18' (-117.1530) 0.0 71.5 286.4 7.8 18.6 60.9 1014.5 19.8
5-16-2024 19:00 32o 41.73' ( 32.6955) 117o 9.18' (-117.1530) 0.0 71.7 294.5 8.5 18.8 59.0 1014.6 19.8
5-16-2024 18:45 32o 41.73' ( 32.6955) 117o 9.18' (-117.1530) 0.0 71.9 280.5 6.8 19.0 61.2 1014.8 19.8
5-16-2024 18:30 32o 41.73' ( 32.6955) 117o 9.18' (-117.1530) 0.0 71.5 241.8 5.4 18.1 63.3 1014.9 19.7
5-16-2024 18:15 32o 41.73' ( 32.6955) 117o 9.18' (-117.1530) 0.0 71.7 269.1 6.9 18.1 63.6 1014.9 19.7
5-16-2024 18:00 32o 41.73' ( 32.6955) 117o 9.18' (-117.1529) 0.0 71.5 280.7 5.5 17.9 64.6 1014.9 19.7
5-16-2024 17:45 32o 41.73' ( 32.6956) 117o 9.18' (-117.1530) 0.0 69.6 207.6 7.3 17.4 66.2 1014.8 19.7
5-16-2024 17:30 32o 41.73' ( 32.6955) 117o 9.18' (-117.1530) 0.0 70.9 270.9 5.0 18.2 63.0 1014.8 19.6
5-16-2024 17:15 32o 41.73' ( 32.6955) 117o 9.18' (-117.1530) 0.0 69.4 270.2 4.7 18.4 63.5 1014.7 19.6
5-16-2024 17:00 32o 41.73' ( 32.6955) 117o 9.18' (-117.1530) 0.0 71.9 286.2 5.9 18.3 63.3 1014.6 19.6
5-16-2024 16:45 32o 41.73' ( 32.6955) 117o 9.18' (-117.1530) 0.0 71.3 198.1 1.9 18.4 63.2 1014.5 19.6
5-16-2024 16:30 32o 41.73' ( 32.6955) 117o 9.18' (-117.1530) 0.1 73.3 226.0 3.1 17.9 61.8 1014.5 19.6
5-16-2024 16:15 32o 41.73' ( 32.6955) 117o 9.18' (-117.1530) 0.0 70.1 231.1 5.4 17.2 65.0 1014.6 19.6
5-16-2024 16:00 32o 41.73' ( 32.6955) 117o 9.18' (-117.1530) 0.0 70.6 209.4 5.8 16.4 67.3 1014.5 19.6
5-16-2024 15:45 32o 41.73' ( 32.6955) 117o 9.18' (-117.1530) 0.0 70.4 232.6 5.4 16.6 67.2 1014.4 19.6
5-16-2024 15:30 32o 41.73' ( 32.6955) 117o 9.18' (-117.1530) 0.0 70.0 228.8 5.7 16.6 67.7 1014.3 19.5
5-16-2024 15:15 32o 41.73' ( 32.6955) 117o 9.18' (-117.1530) 0.0 70.0 245.4 5.0 16.9 66.7 1014.2 19.6
5-16-2024 15:00 32o 41.73' ( 32.6955) 117o 9.18' (-117.1530) 0.0 70.1 213.4 6.4 16.4 70.8 1013.9 19.5
5-16-2024 14:45 32o 41.73' ( 32.6955) 117o 9.18' (-117.1530) 0.0 70.3 204.7 4.2 16.5 67.5 1013.7 19.5
5-16-2024 14:30 32o 41.73' ( 32.6955) 117o 9.18' (-117.1530) 0.0 70.3 51.6 0.6 16.3 67.4 1013.5 19.5
5-16-2024 14:15 32o 41.73' ( 32.6955) 117o 9.18' (-117.1530) 0.0 70.2 93.4 1.0 16.1 69.9 1013.5 19.6
5-16-2024 14:00 32o 41.73' ( 32.6955) 117o 9.18' (-117.1530) 0.0 70.3 274.2 2.9 15.9 71.1 1013.6 19.6
5-16-2024 13:45 32o 41.73' ( 32.6955) 117o 9.18' (-117.1530) 0.0 70.1 282.5 3.0 15.8 72.0 1013.5 19.6
5-16-2024 13:30 32o 41.73' ( 32.6955) 117o 9.18' (-117.1530) 0.0 70.0 311.1 1.9 15.6 72.6 1013.5 19.6
5-16-2024 13:15 32o 41.73' ( 32.6955) 117o 9.18' (-117.1530) 0.0 70.1 290.2 1.9 15.5 72.6 1013.6 19.5
5-16-2024 13:00 32o 41.73' ( 32.6955) 117o 9.18' (-117.1530) 0.0 70.3 316.7 2.5 15.4 73.4 1013.7 19.5
5-16-2024 12:45 32o 41.73' ( 32.6955) 117o 9.18' (-117.1530) 0.0 70.8 235.7 2.1 15.0 73.4 1013.7 19.5
5-16-2024 12:30 32o 41.73' ( 32.6955) 117o 9.18' (-117.1530) 0.0 70.3 270.2 0.6 15.5 72.5 1013.8 19.6
5-16-2024 12:15 32o 41.73' ( 32.6955) 117o 9.18' (-117.1530) 0.0 71.8 245.7 2.2 15.3 72.0 1013.8 19.6
5-16-2024 12:00 32o 41.73' ( 32.6955) 117o 9.18' (-117.1530) 0.0 71.2 230.4 3.7 15.4 73.0 1013.8 19.6
5-16-2024 11:45 32o 41.73' ( 32.6955) 117o 9.18' (-117.1530) 0.0 68.1 248.2 3.8 15.3 72.9 1013.8 19.6
5-16-2024 11:30 32o 41.73' ( 32.6955) 117o 9.18' (-117.1530) 0.0 70.8 241.4 3.0 15.3 72.8 1013.9 19.6
5-16-2024 11:15 32o 41.73' ( 32.6955) 117o 9.18' (-117.1530) 0.0 62.8 221.7 4.1 15.4 72.8 1013.9 19.6
5-16-2024 11:00 32o 41.73' ( 32.6955) 117o 9.18' (-117.1530) 0.0 70.3 218.6 5.9 15.3 73.0 1013.8 19.6
5-16-2024 10:45 32o 41.73' ( 32.6955) 117o 9.18' (-117.1530) 0.0 70.5 221.4 6.0 15.4 73.5 1013.8 19.6
5-16-2024 10:30 32o 41.73' ( 32.6955) 117o 9.18' (-117.1530) 0.0 70.5 200.7 6.0 15.4 73.9 1013.9 19.6
5-16-2024 10:15 32o 41.73' ( 32.6955) 117o 9.18' (-117.1530) 0.0 70.5 201.8 5.6 15.4 74.1 1013.9 19.5
5-16-2024 10:00 32o 41.73' ( 32.6955) 117o 9.18' (-117.1530) 0.0 70.4 211.5 7.0 15.4 74.4 1013.8 19.5
5-16-2024 9:45 32o 41.73' ( 32.6955) 117o 9.18' (-117.1530) 0.0 70.6 229.0 5.8 15.3 73.0 1013.8 19.5
5-16-2024 9:30 32o 41.73' ( 32.6955) 117o 9.18' (-117.1530) 0.0 70.4 204.7 7.6 15.4 73.9 1013.8 19.5
5-16-2024 9:15 32o 41.73' ( 32.6955) 117o 9.18' (-117.1530) 0.0 70.5 218.2 7.7 15.4 73.2 1013.8 19.5
5-16-2024 9:00 32o 41.73' ( 32.6955) 117o 9.18' (-117.1530) 0.0 70.4 206.7 7.0 15.4 73.6 1013.8 19.5
5-16-2024 8:45 32o 41.73' ( 32.6955) 117o 9.18' (-117.1530) 0.0 70.3 219.7 6.7 15.3 74.0 1014.0 19.5
5-16-2024 8:30 32o 41.73' ( 32.6955) 117o 9.18' (-117.1530) 0.0 70.3 221.4 8.0 15.4 74.0 1013.9 19.5
5-16-2024 8:15 32o 41.73' ( 32.6955) 117o 9.18' (-117.1530) 0.0 70.4 209.1 8.1 15.4 74.3 1013.9 19.5
5-16-2024 8:00 32o 41.73' ( 32.6955) 117o 9.18' (-117.1530) 0.0 70.4 209.5 7.7 15.5 74.5 1013.9 19.5
5-16-2024 7:45 32o 41.73' ( 32.6955) 117o 9.18' (-117.1530) 0.0 70.3 200.9 7.3 15.6 73.1 1014.0 19.5
5-16-2024 7:30 32o 41.73' ( 32.6955) 117o 9.18' (-117.1530) 0.0 70.6 225.3 6.8 15.5 73.1 1014.0 19.5
5-16-2024 7:15 32o 41.73' ( 32.6955) 117o 9.18' (-117.1530) 0.0 71.4 227.3 5.9 15.5 73.7 1013.9 19.5
5-16-2024 7:00 32o 41.73' ( 32.6955) 117o 9.18' (-117.1530) 0.0 70.4 208.0 6.5 15.5 73.9 1013.9 19.5
5-16-2024 6:45 32o 41.73' ( 32.6955) 117o 9.18' (-117.1530) 0.0 70.4 225.4 7.0 15.4 73.4 1013.9 19.5
5-16-2024 6:30 32o 41.73' ( 32.6955) 117o 9.18' (-117.1530) 0.0 70.5 216.5 6.4 15.5 74.2 1013.9 19.4
5-16-2024 6:15 32o 41.73' ( 32.6955) 117o 9.18' (-117.1530) 0.0 70.4 198.4 6.4 15.6 74.0 1013.9 19.4
5-16-2024 6:00 32o 41.73' ( 32.6955) 117o 9.18' (-117.1530) 0.0 70.2 224.1 5.5 15.6 74.8 1013.9 19.4
5-16-2024 5:45 32o 41.73' ( 32.6955) 117o 9.18' (-117.1530) 0.0 70.6 211.9 5.0 15.6 75.0 1013.9 19.4
5-16-2024 5:30 32o 41.73' ( 32.6955) 117o 9.18' (-117.1530) 0.0 70.2 218.5 4.1 15.6 74.5 1014.0 19.4
5-16-2024 5:15 32o 41.73' ( 32.6955) 117o 9.18' (-117.1530) 0.0 70.3 220.7 4.3 15.0 74.6 1014.0 19.4
5-16-2024 5:00 32o 41.73' ( 32.6955) 117o 9.18' (-117.1530) 0.0 70.4 225.5 4.6 15.5 74.5 1013.8 19.3
5-16-2024 4:45 32o 41.73' ( 32.6955) 117o 9.18' (-117.1530) 0.0 70.3 223.0 5.9 15.4 75.0 1013.7 19.3
5-16-2024 4:30 32o 41.73' ( 32.6955) 117o 9.18' (-117.1530) 0.1 70.1 219.7 5.8 15.4 75.0 1013.4 19.3
5-16-2024 4:15 32o 41.73' ( 32.6955) 117o 9.18' (-117.1530) 0.0 70.3 217.5 4.6 15.4 75.0 1013.4 19.3
5-16-2024 4:00 32o 41.73' ( 32.6955) 117o 9.18' (-117.1530) 0.0 70.4 214.9 4.2 15.5 74.8 1013.4 19.3
5-16-2024 3:45 32o 41.73' ( 32.6955) 117o 9.18' (-117.1530) 0.0 71.1 211.2 3.2 15.4 75.3 1013.3 19.3
5-16-2024 3:30 32o 41.73' ( 32.6955) 117o 9.18' (-117.1530) 0.0 71.6 235.4 3.7 15.4 74.0 1013.3 19.3
5-16-2024 3:15 32o 41.73' ( 32.6955) 117o 9.18' (-117.1530) 0.0 71.2 217.0 4.7 15.5 74.5 1013.2 19.4
5-16-2024 3:00 32o 41.73' ( 32.6955) 117o 9.18' (-117.1530) 0.0 71.8 225.1 3.7 15.5 73.7 1013.2 19.3
5-16-2024 2:45 32o 41.73' ( 32.6955) 117o 9.18' (-117.1530) 0.0 70.9 224.6 4.1 15.6 73.3 1013.0 19.3
5-16-2024 2:30 32o 41.73' ( 32.6955) 117o 9.18' (-117.1530) 0.0 70.2 233.0 3.4 15.8 71.0 1012.8 19.3
5-16-2024 2:15 32o 41.73' ( 32.6955) 117o 9.18' (-117.1530) 0.0 70.2 269.0 3.5 16.0 72.0 1012.8 19.2
5-16-2024 2:00 32o 41.73' ( 32.6955) 117o 9.18' (-117.1530) 0.0 70.2 263.5 5.6 15.9 72.1 1012.7 19.2
5-16-2024 1:45 32o 41.73' ( 32.6955) 117o 9.18' (-117.1530) 0.0 70.4 253.9 4.0 16.0 71.1 1012.5 19.2
5-16-2024 1:30 32o 41.73' ( 32.6955) 117o 9.18' (-117.1529) 0.0 70.4 286.5 5.2 16.1 71.8 1012.5 19.2
5-16-2024 1:15 32o 41.73' ( 32.6955) 117o 9.18' (-117.1530) 0.0 70.5 247.9 4.7 15.9 72.4 1012.3 19.1
5-16-2024 1:00 32o 41.73' ( 32.6955) 117o 9.18' (-117.1530) 0.0 70.4 241.5 3.9 15.7 71.9 1012.2 19.1
5-16-2024 0:45 32o 41.73' ( 32.6955) 117o 9.18' (-117.1530) 0.0 70.2 241.9 5.3 15.8 72.3 1012.1 19.0
5-16-2024 0:30 32o 41.73' ( 32.6955) 117o 9.18' (-117.1530) 0.0 70.4 249.6 5.3 15.8 71.6 1012.1 19.0
5-16-2024 0:15 32o 41.73' ( 32.6955) 117o 9.18' (-117.1530) 0.0 70.1 237.0 5.9 16.3 71.6 1012.0 19.0
5-16-2024 0:00 32o 41.73' ( 32.6955) 117o 9.18' (-117.1530) 0.0 70.5 272.6 6.8 16.7 69.6 1012.3 19.3
5-15-2024 23:45 32o 41.73' ( 32.6955) 117o 9.18' (-117.1530) 0.0 70.2 265.5 6.5 16.4 72.2 1012.4 19.4
5-15-2024 23:30 32o 41.73' ( 32.6955) 117o 9.18' (-117.1530) 0.0 70.2 260.1 6.9 16.1 73.4 1012.3 19.2
5-15-2024 23:15 32o 41.73' ( 32.6955) 117o 9.18' (-117.1530) 0.0 70.8 286.9 8.2 16.2 73.2 1012.3 19.3
5-15-2024 23:00 32o 41.73' ( 32.6955) 117o 9.18' (-117.1530) 0.0 71.1 258.6 9.7 16.3 72.0 1012.2 19.4
5-15-2024 22:45 32o 41.73' ( 32.6955) 117o 9.18' (-117.1530) 0.0 70.0 260.5 7.5 16.5 71.7 1012.3 19.4
5-15-2024 22:30 32o 41.73' ( 32.6955) 117o 9.18' (-117.1530) 0.0 71.6 265.6 7.5 16.8 70.8 1012.6 19.4
5-15-2024 22:15 32o 41.73' ( 32.6955) 117o 9.18' (-117.1530) 0.0 70.7 281.4 8.6 17.6 67.9 1012.7 19.5
5-15-2024 22:00 32o 41.73' ( 32.6955) 117o 9.18' (-117.1530) 0.0 70.1 285.1 8.7 17.2 70.6 1012.7 19.6
5-15-2024 21:45 32o 41.73' ( 32.6955) 117o 9.18' (-117.1530) 0.0 70.2 265.4 8.3 17.0 69.0 1012.7 19.5
5-15-2024 21:30 32o 41.73' ( 32.6955) 117o 9.18' (-117.1530) 0.0 70.8 276.0 6.6 17.0 69.5 1012.8 19.6
5-15-2024 21:15 32o 41.73' ( 32.6955) 117o 9.18' (-117.1530) 0.0 70.7 274.1 7.1 17.3 69.1 1012.9 19.8
5-15-2024 21:00 32o 41.73' ( 32.6955) 117o 9.18' (-117.1530) 0.0 70.3 254.5 7.8 16.7 72.1 1013.0 19.8
5-15-2024 20:45 32o 41.73' ( 32.6955) 117o 9.18' (-117.1530) 0.0 70.2 255.4 8.9 16.8 71.7 1013.2 19.8
5-15-2024 20:30 32o 41.73' ( 32.6955) 117o 9.18' (-117.1530) 0.0 70.9 274.3 8.9 16.8 72.9 1013.2 19.7
5-15-2024 20:15 32o 41.73' ( 32.6955) 117o 9.18' (-117.1530) 0.0 70.9 263.0 8.5 16.2 74.6 1013.2 19.6
5-15-2024 20:00 32o 41.73' ( 32.6955) 117o 9.18' (-117.1530) 0.0 70.5 244.9 6.2 15.8 76.5 1013.2 19.5
5-15-2024 19:45 32o 41.73' ( 32.6955) 117o 9.18' (-117.1530) 0.0 71.2 242.3 7.3 15.9 76.0 1013.3 19.4
5-15-2024 19:30 32o 41.73' ( 32.6955) 117o 9.18' (-117.1530) 0.0 70.7 230.5 7.4 16.0 74.8 1013.3 19.9
5-15-2024 19:15 32o 41.73' ( 32.6955) 117o 9.18' (-117.1530) 0.0 71.0 241.1 6.3 16.0 74.0 1013.2 20.0
5-15-2024 19:00 32o 41.73' ( 32.6955) 117o 9.18' (-117.1530) 0.0 71.4 234.6 5.8 15.9 74.3 1013.2 20.0
5-15-2024 18:45 32o 41.73' ( 32.6955) 117o 9.18' (-117.1530) 0.0 71.3 269.9 5.7 15.8 75.0 1013.3 20.0
5-15-2024 18:30 32o 41.73' ( 32.6955) 117o 9.18' (-117.1530) 0.0 71.3 234.0 7.0 15.7 76.9 1013.4 20.0
5-15-2024 18:15 32o 41.73' ( 32.6955) 117o 9.18' (-117.1530) 0.0 71.6 230.1 6.5 15.5 76.6 1013.5 20.0
5-15-2024 18:00 32o 41.73' ( 32.6955) 117o 9.18' (-117.1530) 0.0 70.6 235.3 5.7 15.4 78.4 1013.5 20.0
5-15-2024 17:45 32o 41.73' ( 32.6955) 117o 9.18' (-117.1530) 0.0 70.9 229.9 6.5 15.3 78.9 1013.5 20.0
5-15-2024 17:30 32o 41.73' ( 32.6955) 117o 9.18' (-117.1530) 0.0 70.3 219.3 8.1 15.3 79.7 1013.5 20.0
5-15-2024 17:15 32o 41.73' ( 32.6955) 117o 9.18' (-117.1530) 0.0 70.3 228.3 5.6 15.5 77.5 1013.5 20.0
5-15-2024 17:00 32o 41.73' ( 32.6955) 117o 9.18' (-117.1530) 0.0 70.8 237.2 4.2 15.4 78.3 1013.4 20.0
5-15-2024 16:45 32o 41.73' ( 32.6955) 117o 9.18' (-117.1530) 0.0 70.5 234.2 5.3 15.3 79.0 1013.4 20.0
5-15-2024 16:30 32o 41.73' ( 32.6955) 117o 9.18' (-117.1530) 0.0 70.9 235.4 4.1 15.2 78.7 1013.4 20.0
5-15-2024 16:15 32o 41.73' ( 32.6955) 117o 9.18' (-117.1530) 0.0 70.6 233.4 6.2 15.1 79.1 1013.4 20.0
5-15-2024 16:00 32o 41.73' ( 32.6955) 117o 9.18' (-117.1530) 0.0 70.4 226.6 6.4 15.1 79.5 1013.4 20.0
5-15-2024 15:45 32o 41.73' ( 32.6955) 117o 9.18' (-117.1530) 0.0 70.4 219.4 7.8 15.2 79.5 1013.4 20.0
5-15-2024 15:30 32o 41.73' ( 32.6955) 117o 9.18' (-117.1530) 0.0 70.4 228.0 4.5 15.3 78.9 1013.3 20.0
5-15-2024 15:15 32o 41.73' ( 32.6955) 117o 9.18' (-117.1530) 0.0 70.3 226.8 5.3 15.2 78.9 1013.3 20.0
5-15-2024 15:00 32o 41.73' ( 32.6955) 117o 9.18' (-117.1530) 0.0 70.5 232.3 5.5 15.4 78.3 1013.3 20.0
5-15-2024 14:45 32o 41.73' ( 32.6955) 117o 9.18' (-117.1530) 0.0 70.8 223.9 5.3 15.5 78.1 1013.2 19.9
5-15-2024 14:30 32o 41.73' ( 32.6955) 117o 9.18' (-117.1530) 0.0 71.3 265.3 3.6 15.2 78.6 1013.2 19.9
5-15-2024 14:15 32o 41.73' ( 32.6955) 117o 9.18' (-117.1530) 0.0 70.6 207.7 5.9 15.2 78.7 1013.1 19.9
5-15-2024 14:00 32o 41.73' ( 32.6955) 117o 9.18' (-117.1530) 0.0 70.5 212.3 6.9 15.2 77.1 1013.1 19.9
5-15-2024 13:45 32o 41.73' ( 32.6955) 117o 9.18' (-117.1530) 0.0 70.5 207.0 7.5 15.2 75.9 1013.1 19.9
5-15-2024 13:30 32o 41.73' ( 32.6955) 117o 9.18' (-117.1530) 0.0 70.4 216.1 6.0 15.4 74.3 1013.0 19.9
5-15-2024 13:15 32o 41.73' ( 32.6955) 117o 9.18' (-117.1530) 0.0 70.5 228.1 4.1 15.3 73.3 1012.9 19.9
5-15-2024 13:00 32o 41.73' ( 32.6955) 117o 9.18' (-117.1530) 0.0 70.5 241.0 3.2 15.2 72.2 1012.7 19.9
5-15-2024 12:45 32o 41.73' ( 32.6955) 117o 9.18' (-117.1530) 0.0 70.6 224.8 1.9 15.3 72.3 1012.7 19.9
5-15-2024 12:30 32o 41.73' ( 32.6955) 117o 9.18' (-117.1530) 0.0 70.5 238.6 2.1 15.2 72.0 1012.7 19.9
5-15-2024 12:15 32o 41.73' ( 32.6955) 117o 9.18' (-117.1530) 0.0 70.6 236.2 4.3 15.2 72.7 1012.6 19.9
5-15-2024 12:00 32o 41.73' ( 32.6955) 117o 9.18' (-117.1530) 0.0 70.5 203.0 4.9 15.2 73.3 1012.7 19.9
5-15-2024 11:45 32o 41.73' ( 32.6955) 117o 9.18' (-117.1530) 0.0 70.5 259.3 3.3 15.2 72.1 1012.8 19.9
5-15-2024 11:30 32o 41.73' ( 32.6955) 117o 9.18' (-117.1530) 0.0 70.5 186.3 4.0 15.1 73.4 1012.8 19.9
5-15-2024 11:15 32o 41.73' ( 32.6955) 117o 9.18' (-117.1530) 0.0 70.6 190.7 5.8 15.0 73.8 1012.8 19.9
5-15-2024 11:00 32o 41.73' ( 32.6955) 117o 9.18' (-117.1530) 0.0 70.6 187.4 6.7 14.9 73.8 1012.9 19.9
5-15-2024 10:45 32o 41.73' ( 32.6955) 117o 9.18' (-117.1530) 0.0 70.7 199.5 7.2 15.0 75.0 1012.8 19.9
5-15-2024 10:30 32o 41.73' ( 32.6955) 117o 9.18' (-117.1530) 0.0 70.7 186.0 7.8 15.0 75.0 1012.8 19.9
5-15-2024 10:15 32o 41.73' ( 32.6955) 117o 9.18' (-117.1530) 0.0 70.7 193.0 5.8 15.0 75.0 1012.9 19.9
5-15-2024 10:00 32o 41.73' ( 32.6955) 117o 9.18' (-117.1530) 0.0 70.7 201.6 9.1 15.0 75.5 1012.9 19.9
5-15-2024 9:45 32o 41.73' ( 32.6955) 117o 9.18' (-117.1530) 0.0 70.6 199.1 7.3 15.0 74.6 1012.9 19.9
5-15-2024 9:30 32o 41.73' ( 32.6955) 117o 9.18' (-117.1530) 0.0 70.7 210.5 7.6 15.0 74.6 1012.9 19.9
5-15-2024 9:15 32o 41.73' ( 32.6955) 117o 9.18' (-117.1530) 0.0 70.7 188.2 6.6 15.0 74.0 1012.9 19.9
5-15-2024 9:00 32o 41.73' ( 32.6955) 117o 9.18' (-117.1530) 0.0 70.6 210.1 7.1 15.0 74.6 1013.1 19.9
5-15-2024 8:45 32o 41.73' ( 32.6955) 117o 9.18' (-117.1530) 0.0 70.6 208.8 7.2 15.1 74.9 1013.1 19.9
5-15-2024 8:30 32o 41.73' ( 32.6955) 117o 9.18' (-117.1530) 0.0 70.7 214.5 5.7 15.1 74.9 1013.1 19.9
5-15-2024 8:15 32o 41.73' ( 32.6955) 117o 9.18' (-117.1530) 0.0 70.6 204.1 7.1 15.2 75.3 1013.0 19.9
5-15-2024 8:00 32o 41.73' ( 32.6955) 117o 9.18' (-117.1530) 0.0 70.5 201.3 6.2 15.3 75.2 1013.1 19.9
5-15-2024 7:45 32o 41.73' ( 32.6955) 117o 9.18' (-117.1530) 0.0 70.6 219.8 6.0 15.3 74.2 1013.2 19.8
5-15-2024 7:30 32o 41.73' ( 32.6955) 117o 9.18' (-117.1530) 0.0 70.7 216.6 5.1 15.3 73.9 1013.2 19.8
5-15-2024 7:15 32o 41.73' ( 32.6955) 117o 9.18' (-117.1530) 0.0 70.7 220.8 3.1 15.3 74.1 1013.2 19.8
5-15-2024 7:00 32o 41.73' ( 32.6955) 117o 9.18' (-117.1530) 0.0 70.8 214.2 5.2 15.4 74.0 1013.2 19.8
5-15-2024 6:45 32o 41.73' ( 32.6955) 117o 9.18' (-117.1530) 0.0 70.9 220.0 7.1 15.3 73.9 1013.2 19.8
5-15-2024 6:30 32o 41.73' ( 32.6955) 117o 9.18' (-117.1530) 0.0 70.8 223.7 6.5 15.4 73.5 1013.3 19.8
5-15-2024 6:15 32o 41.73' ( 32.6955) 117o 9.18' (-117.1530) 0.0 71.0 224.1 5.4 15.4 73.4 1013.5 19.8
5-15-2024 6:00 32o 41.73' ( 32.6955) 117o 9.18' (-117.1530) 0.0 70.6 235.6 4.6 15.5 73.5 1013.4 19.8
5-15-2024 5:45 32o 41.73' ( 32.6955) 117o 9.18' (-117.1530) 0.0 71.3 223.7 5.7 15.5 73.3 1013.5 19.8
5-15-2024 5:30 32o 41.73' ( 32.6955) 117o 9.18' (-117.1530) 0.0 70.4 239.0 4.4 15.6 73.5 1013.6 19.8
5-15-2024 5:15 32o 41.73' ( 32.6955) 117o 9.18' (-117.1530) 0.0 70.6 252.8 4.5 15.5 73.2 1013.4 19.7
5-15-2024 5:00 32o 41.73' ( 32.6955) 117o 9.18' (-117.1530) 0.0 70.5 247.3 4.0 15.4 72.8 1013.3 19.7
5-15-2024 4:45 32o 41.73' ( 32.6955) 117o 9.18' (-117.1530) 0.0 70.5 225.5 4.5 15.5 73.2 1013.2 19.7
5-15-2024 4:30 32o 41.73' ( 32.6955) 117o 9.18' (-117.1530) 0.0 70.3 220.5 4.4 15.5 73.2 1013.0 19.7
5-15-2024 4:15 32o 41.73' ( 32.6955) 117o 9.18' (-117.1530) 0.0 70.7 236.7 2.8 15.4 72.7 1012.9 19.7
5-15-2024 4:00 32o 41.73' ( 32.6955) 117o 9.18' (-117.1530) 0.0 71.0 228.6 4.9 15.4 73.0 1012.0 19.7
5-15-2024 3:45 32o 41.73' ( 32.6955) 117o 9.18' (-117.1530) 0.0 71.2 223.4 7.0 15.4 72.6 1012.7 19.7
5-15-2024 3:30 32o 41.73' ( 32.6955) 117o 9.18' (-117.1530) 0.0 71.0 217.1 6.0 15.4 72.0 1012.7 19.7
5-15-2024 3:15 32o 41.73' ( 32.6955) 117o 9.18' (-117.1530) 0.0 70.8 215.5 6.9 15.5 72.7 1012.7 19.7
5-15-2024 3:00 32o 41.73' ( 32.6955) 117o 9.18' (-117.1530) 0.0 70.8 212.4 6.7 15.5 73.2 1012.6 19.7
5-15-2024 2:45 32o 41.73' ( 32.6956) 117o 9.18' (-117.1530) 0.0 70.8 212.6 5.7 15.4 73.4 1012.6 19.7
5-15-2024 2:30 32o 41.73' ( 32.6955) 117o 9.18' (-117.1530) 0.0 70.8 206.3 7.1 15.6 73.9 1012.6 19.7
5-15-2024 2:15 32o 41.73' ( 32.6955) 117o 9.18' (-117.1530) 0.0 70.8 199.1 4.0 15.6 72.0 1012.5 19.7
5-15-2024 2:00 32o 41.73' ( 32.6955) 117o 9.18' (-117.1530) 0.0 70.6 209.5 6.0 15.7 72.7 1012.4 19.7
5-15-2024 1:45 32o 41.73' ( 32.6955) 117o 9.18' (-117.1530) 0.0 70.3 209.5 5.9 15.0 72.3 1012.3 19.7
5-15-2024 1:30 32o 41.73' ( 32.6955) 117o 9.18' (-117.1530) 0.0 70.0 228.7 5.2 15.9 70.9 1012.3 19.7
5-15-2024 1:15 32o 41.73' ( 32.6955) 117o 9.18' (-117.1530) 0.0 70.0 245.0 5.1 15.7 72.7 1012.3 19.7
5-15-2024 1:00 32o 41.73' ( 32.6955) 117o 9.18' (-117.1530) 0.0 70.4 228.7 7.4 15.8 75.8 1012.3 19.7
5-15-2024 0:45 32o 41.73' ( 32.6955) 117o 9.18' (-117.1530) 0.0 70.3 223.8 6.9 15.8 75.8 1012.4 19.8
5-15-2024 0:30 32o 41.73' ( 32.6955) 117o 9.18' (-117.1530) 0.0 70.6 226.3 7.0 15.9 76.4 1012.4 19.8
5-15-2024 0:15 32o 41.73' ( 32.6955) 117o 9.18' (-117.1530) 0.0 70.2 229.3 7.3 16.0 76.8 1012.4 19.8
5-15-2024 0:00 32o 41.73' ( 32.6955) 117o 9.18' (-117.1530) 0.0 70.5 225.7 7.9 16.0 76.8 1012.3 19.7
5-14-2024 23:45 32o 41.73' ( 32.6955) 117o 9.18' (-117.1530) 0.0 70.2 222.5 10.8 16.2 75.9 1012.2 19.7
5-14-2024 23:30 32o 41.73' ( 32.6955) 117o 9.18' (-117.1530) 0.0 70.0 223.5 10.3 16.3 76.2 1012.2 19.7
5-14-2024 23:15 32o 41.73' ( 32.6956) 117o 9.18' (-117.1530) 0.0 70.1 229.1 9.7 16.6 73.7 1012.1 19.7
5-14-2024 23:00 32o 41.73' ( 32.6955) 117o 9.18' (-117.1530) 0.0 69.5 241.5 9.5 16.6 73.1 1012.0 19.7
5-14-2024 22:45 32o 41.73' ( 32.6955) 117o 9.18' (-117.1530) 0.0 70.1 231.0 11.4 17.0 74.7 1012.1 19.7
5-14-2024 22:30 32o 41.73' ( 32.6955) 117o 9.18' (-117.1530) 0.5 77.7 218.4 12.6 16.8 75.0 1011.9 19.7
5-14-2024 22:15 32o 41.82' ( 32.6971) 117o 9.37' (-117.1561) 0.1 127.3 241.0 7.5 17.3 70.1 1011.9 19.6
5-14-2024 22:00 32o 41.83' ( 32.6971) 117o 9.37' (-117.1561) 0.0 129.2 223.8 8.9 17.0 70.2 1012.0 19.8
5-14-2024 21:45 32o 41.83' ( 32.6971) 117o 9.37' (-117.1561) 0.1 129.1 238.9 8.7 16.8 71.5 1012.1 19.8
5-14-2024 21:30 32o 41.83' ( 32.6971) 117o 9.37' (-117.1561) 0.0 128.5 241.4 8.1 16.8 69.0 1012.4 19.8
5-14-2024 21:15 32o 41.83' ( 32.6971) 117o 9.37' (-117.1561) 0.0 128.7 233.3 10.8 16.7 68.7 1012.5 19.8
5-14-2024 21:00 32o 41.83' ( 32.6971) 117o 9.37' (-117.1561) 0.0 129.0 235.5 9.6 16.7 67.8 1012.7 19.8
5-14-2024 20:45 32o 41.83' ( 32.6971) 117o 9.37' (-117.1561) 0.0 128.7 245.5 12.6 16.7 67.1 1012.7 19.8
5-14-2024 20:30 32o 41.83' ( 32.6971) 117o 9.37' (-117.1561) 0.0 128.7 229.2 10.5 16.0 67.0 1012.8 19.7
5-14-2024 20:15 32o 41.83' ( 32.6971) 117o 9.37' (-117.1561) 0.0 128.9 230.3 9.1 16.7 66.5 1012.7 19.7
5-14-2024 20:00 32o 41.83' ( 32.6971) 117o 9.37' (-117.1561) 0.0 128.7 208.2 8.4 16.6 66.0 1012.8 19.7
5-14-2024 19:45 32o 41.83' ( 32.6971) 117o 9.37' (-117.1561) 0.0 128.9 217.9 9.5 16.4 66.0 1012.9 19.6
5-14-2024 19:30 32o 41.82' ( 32.6971) 117o 9.37' (-117.1561) 0.0 129.6 220.3 8.0 16.2 66.7 1012.9 19.8
5-14-2024 19:15 32o 41.83' ( 32.6971) 117o 9.37' (-117.1561) 0.0 128.9 226.7 8.2 16.1 68.8 1013.1 19.7
5-14-2024 19:00 32o 41.82' ( 32.6970) 117o 9.37' (-117.1561) 0.0 128.8 222.7 8.6 16.2 67.4 1013.2 19.7
5-14-2024 18:45 32o 41.83' ( 32.6971) 117o 9.37' (-117.1561) 0.0 128.9 214.6 7.2 16.0 67.1 1013.2 19.7
5-14-2024 18:30 32o 41.82' ( 32.6971) 117o 9.37' (-117.1561) 0.0 128.8 228.3 9.6 16.0 66.8 1013.3 19.7
5-14-2024 18:15 32o 41.83' ( 32.6971) 117o 9.37' (-117.1561) 0.0 128.5 230.2 7.3 16.1 66.2 1013.4 19.6
5-14-2024 18:00 32o 41.82' ( 32.6971) 117o 9.37' (-117.1561) 0.0 128.7 233.5 8.1 15.9 67.0 1013.4 19.6
5-14-2024 17:45 32o 41.83' ( 32.6971) 117o 9.37' (-117.1561) 0.0 128.7 213.4 7.2 15.8 66.4 1013.3 19.6
5-14-2024 17:30 32o 41.82' ( 32.6971) 117o 9.37' (-117.1561) 0.0 128.8 210.0 7.7 16.1 64.0 1013.2 19.5
5-14-2024 17:15 32o 41.83' ( 32.6971) 117o 9.37' (-117.1561) 0.0 128.8 193.6 6.9 16.2 63.6 1013.2 19.5
5-14-2024 17:00 32o 41.83' ( 32.6971) 117o 9.37' (-117.1561) 0.0 128.6 186.5 6.3 16.7 62.6 1013.2 19.5
5-14-2024 16:45 32o 41.83' ( 32.6971) 117o 9.37' (-117.1561) 0.0 128.6 186.8 6.8 16.6 59.8 1013.3 19.5
5-14-2024 16:30 32o 41.82' ( 32.6971) 117o 9.37' (-117.1562) 0.0 129.6 182.9 5.0 16.7 59.8 1013.4 19.5
5-14-2024 16:15 32o 41.83' ( 32.6971) 117o 9.37' (-117.1561) 0.0 129.0 215.5 3.8 16.8 64.3 1013.4 19.5
5-14-2024 16:00 32o 41.82' ( 32.6970) 117o 9.37' (-117.1561) 0.0 130.4 265.4 0.8 16.3 67.2 1013.4 19.5
5-14-2024 15:45 32o 41.83' ( 32.6971) 117o 9.37' (-117.1561) 0.0 129.2 248.0 3.6 15.8 70.2 1013.5 19.4
5-14-2024 15:30 32o 41.82' ( 32.6971) 117o 9.37' (-117.1561) 0.0 129.8 214.6 1.6 15.3 70.8 1013.5 19.4
5-14-2024 15:15 32o 41.83' ( 32.6971) 117o 9.37' (-117.1561) 0.0 129.8 269.0 1.1 14.9 72.3 1013.5 19.4
5-14-2024 15:00 32o 41.82' ( 32.6971) 117o 9.37' (-117.1561) 0.0 129.7 267.8 3.4 14.9 73.7 1013.5 19.4
5-14-2024 14:45 32o 41.83' ( 32.6971) 117o 9.37' (-117.1561) 0.0 129.3 289.6 1.8 14.8 73.8 1013.4 19.4
5-14-2024 14:30 32o 41.82' ( 32.6971) 117o 9.37' (-117.1561) 0.0 129.2 232.3 2.7 14.6 74.4 1013.3 19.4
5-14-2024 14:15 32o 41.83' ( 32.6971) 117o 9.37' (-117.1561) 0.0 129.6 236.2 4.5 14.6 75.3 1013.2 19.4
5-14-2024 14:00 32o 41.82' ( 32.6970) 117o 9.37' (-117.1561) 0.0 129.2 237.5 3.8 14.5 75.3 1013.0 19.3
5-14-2024 13:45 32o 41.83' ( 32.6971) 117o 9.37' (-117.1561) 0.0 129.2 236.4 4.3 14.5 75.0 1013.0 19.3
5-14-2024 13:30 32o 41.82' ( 32.6970) 117o 9.37' (-117.1561) 0.0 129.2 245.7 3.1 14.5 75.7 1012.9 19.3
5-14-2024 13:15 32o 41.83' ( 32.6971) 117o 9.37' (-117.1561) 0.0 129.1 201.3 3.9 14.5 76.1 1012.7 19.3
5-14-2024 13:00 32o 41.83' ( 32.6971) 117o 9.37' (-117.1561) 0.0 129.3 243.1 3.7 14.4 76.2 1012.7 19.3
5-14-2024 12:45 32o 41.83' ( 32.6971) 117o 9.37' (-117.1561) 0.0 129.0 233.0 3.5 14.4 76.4 1012.7 19.3
5-14-2024 12:30 32o 41.83' ( 32.6971) 117o 9.37' (-117.1561) 0.1 129.1 252.6 3.4 14.4 77.1 1012.6 19.2
5-14-2024 12:15 32o 41.83' ( 32.6971) 117o 9.37' (-117.1561) 0.0 129.1 209.2 4.2 14.4 76.5 1012.7 19.2
5-14-2024 12:00 32o 41.83' ( 32.6971) 117o 9.37' (-117.1561) 0.0 128.8 214.0 4.6 14.4 76.5 1012.7 19.2
5-14-2024 11:45 32o 41.83' ( 32.6971) 117o 9.37' (-117.1561) 0.0 129.7 258.7 3.6 14.5 76.3 1012.9 19.2
5-14-2024 11:30 32o 41.83' ( 32.6971) 117o 9.37' (-117.1561) 0.0 128.8 235.0 3.5 14.7 76.4 1012.8 19.2
5-14-2024 11:15 32o 41.83' ( 32.6971) 117o 9.37' (-117.1561) 0.0 129.4 296.3 0.3 14.6 76.2 1012.0 19.2
5-14-2024 11:00 32o 41.82' ( 32.6970) 117o 9.37' (-117.1561) 0.0 129.3 290.2 3.1 14.7 75.6 1013.0 19.2
5-14-2024 10:45 32o 41.83' ( 32.6971) 117o 9.37' (-117.1561) 0.1 129.5 278.7 1.1 14.5 76.5 1013.0 19.2
5-14-2024 10:30 32o 41.82' ( 32.6971) 117o 9.37' (-117.1561) 0.0 129.5 220.6 2.3 14.4 77.2 1013.1 19.2
5-14-2024 10:15 32o 41.83' ( 32.6971) 117o 9.37' (-117.1561) 0.0 129.8 188.2 1.5 14.4 77.0 1013.0 19.2
5-14-2024 10:00 32o 41.83' ( 32.6971) 117o 9.37' (-117.1561) 0.0 129.4 245.9 1.9 14.5 78.0 1013.1 19.2
5-14-2024 9:45 32o 41.83' ( 32.6971) 117o 9.37' (-117.1561) 0.0 129.3 249.6 4.3 14.4 78.3 1013.1 19.2
5-14-2024 9:30 32o 41.82' ( 32.6970) 117o 9.37' (-117.1561) 0.0 129.0 258.2 6.3 14.5 78.7 1013.2 19.2
5-14-2024 9:15 32o 41.83' ( 32.6971) 117o 9.37' (-117.1561) 0.0 129.1 243.1 5.6 14.5 78.5 1013.3 19.2
5-14-2024 9:00 32o 41.82' ( 32.6970) 117o 9.37' (-117.1561) 0.0 129.4 238.5 6.0 14.5 78.1 1013.4 19.2
5-14-2024 8:45 32o 41.83' ( 32.6971) 117o 9.37' (-117.1561) 0.0 129.4 243.4 5.7 14.5 78.4 1013.5 19.2
5-14-2024 8:30 32o 41.82' ( 32.6971) 117o 9.37' (-117.1561) 0.0 129.4 230.0 5.5 14.6 78.6 1013.6 19.2
5-14-2024 8:15 32o 41.83' ( 32.6971) 117o 9.37' (-117.1561) 0.0 129.4 230.6 4.5 14.6 78.5 1013.6 19.2
5-14-2024 8:00 32o 41.82' ( 32.6970) 117o 9.37' (-117.1561) 0.0 129.6 255.3 4.0 14.7 79.0 1013.8 19.2
5-14-2024 7:45 32o 41.83' ( 32.6971) 117o 9.37' (-117.1561) 0.0 129.3 237.0 5.3 14.8 78.3 1013.8 19.2
5-14-2024 7:30 32o 41.82' ( 32.6970) 117o 9.37' (-117.1561) 0.0 129.8 205.4 1.0 14.9 78.1 1013.9 19.2
5-14-2024 7:15 32o 41.83' ( 32.6971) 117o 9.37' (-117.1561) 0.0 129.8 262.3 3.3 14.8 78.1 1014.0 19.2
5-14-2024 7:00 32o 41.83' ( 32.6971) 117o 9.37' (-117.1561) 0.0 129.5 221.6 2.7 14.8 78.0 1014.1 19.2
5-14-2024 6:45 32o 41.83' ( 32.6971) 117o 9.37' (-117.1561) 0.0 129.8 305.6 1.2 14.9 78.2 1014.3 19.2
5-14-2024 6:30 32o 41.83' ( 32.6971) 117o 9.37' (-117.1561) 0.1 129.8 274.6 3.5 14.9 78.1 1014.3 19.2
5-14-2024 6:15 32o 41.83' ( 32.6971) 117o 9.37' (-117.1561) 0.0 129.8 302.8 2.0 14.9 78.1 1014.4 19.2
5-14-2024 6:00 32o 41.82' ( 32.6970) 117o 9.37' (-117.1561) 0.0 130.5 5.6 4.9 14.9 78.0 1014.5 19.2
5-14-2024 5:45 32o 41.83' ( 32.6971) 117o 9.37' (-117.1561) 0.0 130.0 318.6 2.1 14.9 78.4 1014.6 19.2
5-14-2024 5:30 32o 41.82' ( 32.6970) 117o 9.37' (-117.1561) 0.0 130.1 331.9 3.8 14.9 78.5 1014.7 19.2
5-14-2024 5:15 32o 41.83' ( 32.6971) 117o 9.37' (-117.1561) 0.0 130.4 315.9 3.1 14.9 78.4 1014.7 19.2
5-14-2024 5:00 32o 41.83' ( 32.6971) 117o 9.37' (-117.1561) 0.0 129.9 296.1 3.2 15.0 78.4 1014.5 19.2
5-14-2024 4:45 32o 41.83' ( 32.6971) 117o 9.37' (-117.1561) 0.0 129.9 302.4 3.9 15.4 77.0 1014.5 19.2
5-14-2024 4:30 32o 41.83' ( 32.6971) 117o 9.37' (-117.1561) 0.0 129.6 283.6 5.7 15.2 78.0 1014.3 19.1
5-14-2024 4:15 32o 41.83' ( 32.6971) 117o 9.37' (-117.1561) 0.0 130.0 281.3 6.9 15.4 78.1 1014.1 19.1
5-14-2024 4:00 32o 41.83' ( 32.6971) 117o 9.37' (-117.1561) 0.0 129.1 278.5 6.7 15.1 78.6 1014.1 19.1
5-14-2024 3:45 32o 41.83' ( 32.6971) 117o 9.37' (-117.1561) 0.0 130.1 306.5 4.5 15.2 77.7 1013.9 19.1
5-14-2024 3:30 32o 41.83' ( 32.6971) 117o 9.37' (-117.1561) 0.0 129.4 291.8 6.5 15.7 76.8 1013.8 19.1
5-14-2024 3:15 32o 41.83' ( 32.6971) 117o 9.37' (-117.1561) 0.0 129.4 289.4 6.8 15.8 76.6 1013.5 19.1
5-14-2024 3:00 32o 41.82' ( 32.6970) 117o 9.37' (-117.1561) 0.0 129.4 286.7 6.8 16.1 75.6 1013.5 19.1
5-14-2024 2:45 32o 41.83' ( 32.6971) 117o 9.37' (-117.1561) 0.1 129.4 285.8 8.1 16.0 75.3 1013.5 19.1
5-14-2024 2:30 32o 41.82' ( 32.6971) 117o 9.37' (-117.1561) 0.0 129.7 287.6 6.9 16.7 73.5 1013.4 19.1
5-14-2024 2:15 32o 41.83' ( 32.6971) 117o 9.37' (-117.1561) 0.0 129.7 283.5 8.1 16.8 71.7 1013.3 19.1
5-14-2024 2:00 32o 41.82' ( 32.6970) 117o 9.37' (-117.1561) 0.0 130.0 299.4 5.9 16.7 72.3 1013.2 19.0
5-14-2024 1:45 32o 41.83' ( 32.6971) 117o 9.37' (-117.1561) 0.0 129.5 293.4 7.1 17.1 71.0 1013.2 19.0
5-14-2024 1:30 32o 41.82' ( 32.6970) 117o 9.37' (-117.1561) 0.0 129.5 301.5 5.4 16.6 72.3 1013.2 19.0
5-14-2024 1:15 32o 41.83' ( 32.6971) 117o 9.37' (-117.1561) 0.0 129.1 288.4 9.3 17.0 72.0 1013.2 18.9
5-14-2024 1:00 32o 41.82' ( 32.6970) 117o 9.37' (-117.1561) 0.0 129.2 292.7 8.9 16.8 72.8 1013.2 18.9
5-14-2024 0:45 32o 41.83' ( 32.6971) 117o 9.37' (-117.1561) 0.0 129.3 285.7 11.1 17.5 70.1 1013.2 18.8
5-14-2024 0:30 32o 41.82' ( 32.6970) 117o 9.37' (-117.1561) 0.0 129.5 279.2 10.7 17.8 68.3 1013.1 18.8
5-14-2024 0:15 32o 41.83' ( 32.6971) 117o 9.37' (-117.1561) 0.0 129.8 293.6 9.5 16.8 73.0 1013.2 18.8
5-14-2024 0:00 32o 41.82' ( 32.6970) 117o 9.37' (-117.1561) 0.0 129.9 290.7 11.3 17.1 70.8 1013.4 18.7
5-13-2024 23:45 32o 41.83' ( 32.6971) 117o 9.37' (-117.1561) 0.0 128.8 287.6 10.7 17.1 70.5 1013.4 18.7
5-13-2024 23:30 32o 41.82' ( 32.6970) 117o 9.37' (-117.1561) 0.0 129.3 292.5 9.6 16.6 72.5 1013.3 18.7
5-13-2024 23:15 32o 41.83' ( 32.6971) 117o 9.37' (-117.1561) 0.0 128.9 294.2 10.0 16.9 71.9 1013.4 18.7
5-13-2024 23:00 32o 41.83' ( 32.6971) 117o 9.37' (-117.1561) 0.0 128.8 285.9 10.5 17.6 68.0 1013.5 18.7
5-13-2024 22:45 32o 41.83' ( 32.6971) 117o 9.37' (-117.1561) 0.0 128.8 286.4 12.7 18.1 67.6 1013.5 18.6
5-13-2024 22:30 32o 41.82' ( 32.6970) 117o 9.37' (-117.1561) 0.0 129.4 290.7 11.5 17.5 69.2 1013.5 18.6
5-13-2024 22:15 32o 41.83' ( 32.6971) 117o 9.37' (-117.1561) 0.0 128.9 294.3 8.8 17.2 70.6 1013.8 18.6
5-13-2024 22:00 32o 41.82' ( 32.6971) 117o 9.37' (-117.1561) 0.0 129.7 292.8 9.5 16.9 71.0 1013.7 18.5
5-13-2024 21:45 32o 41.83' ( 32.6971) 117o 9.37' (-117.1561) 0.0 129.3 297.7 8.2 17.7 69.5 1013.8 18.4
5-13-2024 21:30 32o 41.82' ( 32.6970) 117o 9.37' (-117.1561) 0.0 129.1 292.9 9.4 18.0 68.1 1014.0 18.3
5-13-2024 21:15 32o 41.83' ( 32.6971) 117o 9.37' (-117.1561) 0.0 128.9 293.0 9.0 17.6 70.1 1014.0 18.1
5-13-2024 21:00 32o 41.82' ( 32.6970) 117o 9.37' (-117.1561) 0.0 129.2 292.6 6.6 17.7 68.2 1014.0 18.0
5-13-2024 20:45 32o 41.83' ( 32.6971) 117o 9.37' (-117.1561) 0.0 129.2 288.1 9.5 17.7 68.0 1014.1 17.8
5-13-2024 20:30 32o 41.82' ( 32.6970) 117o 9.39' (-117.1565) 0.6 133.9 286.4 9.3 17.3 70.4 1014.1 17.8
5-13-2024 20:15 32o 41.84' ( 32.6974) 117o 9.43' (-117.1571) 0.0 126.1 288.9 9.4 17.2 70.8 1014.1 17.6
5-13-2024 20:00 32o 41.85' ( 32.6974) 117o 9.46' (-117.1577) 0.9 114.3 284.9 7.5 17.8 69.0 1014.3 17.5
5-13-2024 19:45 32o 42.72' ( 32.7119) 117o 10.94' (-117.1824) 10.6 127.6 291.9 6.1 16.7 74.0 1014.2 17.8
5-13-2024 19:30 32o 42.30' ( 32.7050) 117o 13.70' (-117.2283) 10.7 34.5 272.0 7.9 15.9 77.3 1014.3 16.4
5-13-2024 19:15 32o 39.69' ( 32.6615) 117o 13.62' (-117.2270) 9.3 351.6 287.8 8.3 15.6 78.8 1014.2 15.6
5-13-2024 19:00 32o 37.80' ( 32.6300) 117o 13.37' (-117.2228) 5.2 352.2 281.2 10.4 15.7 79.5 1014.3 16.1
5-13-2024 18:45 32o 36.36' ( 32.6060) 117o 13.15' (-117.2192) 5.8 353.3 282.0 9.4 15.8 78.6 1014.4 16.2
5-13-2024 18:30 32o 34.74' ( 32.5789) 117o 14.32' (-117.2387) 11.8 70.5 290.2 8.7 16.1 78.0 1014.6 16.1
5-13-2024 18:15 32o 33.93' ( 32.5655) 117o 17.63' (-117.2938) 11.7 70.1 294.2 6.0 15.3 79.8 1014.6 17.3
5-13-2024 18:00 32o 33.05' ( 32.5508) 117o 20.94' (-117.3489) 11.9 70.0 298.0 6.8 15.3 79.0 1014.8 17.3
5-13-2024 17:45 32o 32.15' ( 32.5358) 117o 24.25' (-117.4041) 10.4 77.8 303.6 6.7 15.4 78.2 1014.8 17.5
5-13-2024 17:30 32o 31.79' ( 32.5298) 117o 26.48' (-117.4414) 4.8 85.1 297.3 7.4 15.1 78.1 1014.8 17.5
5-13-2024 17:15 32o 31.52' ( 32.5254) 117o 26.75' (-117.4458) 1.5 47.9 284.3 8.3 15.1 79.5 1014.9 17.4
5-13-2024 17:00 32o 31.13' ( 32.5189) 117o 27.79' (-117.4631) 7.1 73.5 312.0 6.9 14.8 80.0 1015.0 17.4
5-13-2024 16:45 32o 30.60' ( 32.5100) 117o 29.80' (-117.4967) 7.1 73.3 312.2 9.2 14.7 79.7 1014.8 17.5
5-13-2024 16:30 32o 30.13' ( 32.5021) 117o 31.80' (-117.5300) 7.0 82.9 316.6 9.0 14.6 79.1 1014.9 17.5
5-13-2024 16:15 32o 29.88' ( 32.4981) 117o 33.87' (-117.5646) 7.1 82.8 325.2 4.8 14.6 79.8 1014.9 17.4
5-13-2024 16:00 32o 29.63' ( 32.4938) 117o 35.97' (-117.5994) 7.3 83.0 298.9 6.6 14.6 80.4 1014.9 17.4
5-13-2024 15:45 32o 29.38' ( 32.4897) 117o 38.06' (-117.6344) 7.1 83.0 297.1 5.2 14.6 80.0 1014.8 17.3
5-13-2024 15:30 32o 29.13' ( 32.4855) 117o 40.15' (-117.6692) 7.0 83.0 310.9 4.2 14.4 80.0 1014.9 17.3
5-13-2024 15:15 32o 28.89' ( 32.4816) 117o 42.19' (-117.7031) 6.9 82.5 352.1 4.1 14.2 81.6 1014.8 17.4
5-13-2024 15:00 32o 28.72' ( 32.4786) 117o 44.06' (-117.7344) 6.1 82.6 320.8 1.4 14.2 82.8 1014.6 17.0
5-13-2024 14:45 32o 28.58' ( 32.4763) 117o 45.83' (-117.7638) 5.5 82.4 284.3 0.9 14.1 82.6 1014.8 17.0
5-13-2024 14:30 32o 28.39' ( 32.4732) 117o 47.42' (-117.7903) 5.3 80.9 325.8 3.8 14.0 83.5 1014.8 16.9
5-13-2024 14:15 32o 28.20' ( 32.4700) 117o 48.97' (-117.8162) 5.3 77.8 292.8 7.2 13.9 83.4 1014.8 17.1
5-13-2024 14:00 32o 28.00' ( 32.4666) 117o 50.51' (-117.8419) 5.2 77.4 344.5 4.6 13.7 84.1 1014.7 17.2
5-13-2024 13:45 32o 27.82' ( 32.4637) 117o 52.08' (-117.8680) 5.6 80.5 307.7 7.6 13.5 84.0 1014.6 17.2
5-13-2024 13:30 32o 27.67' ( 32.4611) 117o 53.70' (-117.8950) 5.4 80.1 290.2 7.9 13.4 86.0 1014.5 17.0
5-13-2024 13:15 32o 27.51' ( 32.4585) 117o 55.27' (-117.9212) 5.2 80.1 307.7 9.7 13.4 86.3 1014.2 16.8
5-13-2024 13:00 32o 27.34' ( 32.4556) 117o 56.81' (-117.9469) 5.3 79.6 313.6 8.4 13.2 85.9 1013.9 16.5
5-13-2024 12:45 32o 27.15' ( 32.4526) 117o 58.37' (-117.9728) 5.4 79.3 298.9 8.0 13.3 86.0 1014.0 16.3
5-13-2024 12:30 32o 26.98' ( 32.4496) 117o 59.96' (-117.9993) 5.8 81.5 310.2 5.3 13.1 85.8 1014.2 16.1
5-13-2024 12:15 32o 26.83' ( 32.4472) 118o 1.68' (-118.0280) 5.8 84.1 310.4 8.1 13.2 86.0 1014.0 16.0
5-13-2024 12:00 32o 26.67' ( 32.4445) 118o 3.40' (-118.0567) 5.9 83.6 289.4 10.1 13.1 86.3 1014.2 16.0
5-13-2024 11:45 32o 26.49' ( 32.4416) 118o 5.11' (-118.0852) 5.8 81.6 296.9 10.3 13.1 86.3 1014.3 16.0
5-13-2024 11:30 32o 26.25' ( 32.4376) 118o 6.82' (-118.1137) 5.8 80.2 311.8 9.7 13.2 86.0 1014.4 16.0
5-13-2024 11:15 32o 26.01' ( 32.4335) 118o 8.50' (-118.1416) 5.7 79.9 295.1 9.7 13.1 87.0 1014.3 15.9
5-13-2024 11:00 32o 25.79' ( 32.4298) 118o 10.31' (-118.1718) 6.7 79.1 296.8 10.4 13.0 86.7 1014.3 16.0
5-13-2024 10:45 32o 25.55' ( 32.4258) 118o 12.37' (-118.2061) 7.1 81.8 282.3 11.3 13.1 87.2 1014.3 16.0
5-13-2024 10:30 32o 25.36' ( 32.4227) 118o 14.46' (-118.2410) 7.0 84.3 303.1 10.8 13.1 87.6 1014.3 15.8
5-13-2024 10:15 32o 25.22' ( 32.4203) 118o 16.53' (-118.2755) 7.0 85.3 302.9 8.1 13.1 88.1 1014.4 15.9
5-13-2024 10:00 32o 25.02' ( 32.4171) 118o 18.60' (-118.3100) 7.5 85.1 305.2 10.2 13.1 88.3 1014.3 16.1
5-13-2024 9:45 32o 24.79' ( 32.4132) 118o 20.82' (-118.3470) 7.6 83.1 295.5 8.0 13.0 88.3 1014.6 16.0
5-13-2024 9:30 32o 24.51' ( 32.4085) 118o 23.03' (-118.3838) 7.6 84.1 310.7 9.3 13.0 88.0 1014.6 16.0
5-13-2024 9:15 32o 24.23' ( 32.4038) 118o 25.24' (-118.4206) 7.5 83.4 312.5 7.4 12.9 88.2 1014.5 16.0
5-13-2024 9:00 32o 23.96' ( 32.3993) 118o 27.40' (-118.4567) 7.4 84.2 310.1 12.1 13.1 88.0 1014.5 15.9
5-13-2024 8:45 32o 23.65' ( 32.3942) 118o 29.58' (-118.4930) 7.5 81.9 280.9 10.5 13.1 88.8 1014.7 16.1
5-13-2024 8:30 32o 23.34' ( 32.3890) 118o 31.73' (-118.5288) 7.3 82.7 322.0 10.1 12.9 88.0 1014.5 16.2
5-13-2024 8:15 32o 23.04' ( 32.3840) 118o 33.92' (-118.5653) 8.4 81.4 327.0 8.3 12.6 88.5 1014.5 16.1
5-13-2024 8:00 32o 22.68' ( 32.3780) 118o 36.59' (-118.6098) 9.5 83.1 324.1 7.8 12.8 88.8 1014.6 16.0
5-13-2024 7:45 32o 22.35' ( 32.3725) 118o 39.37' (-118.6561) 9.5 82.7 339.2 9.6 12.9 88.7 1014.5 16.0
5-13-2024 7:30 32o 22.03' ( 32.3672) 118o 42.11' (-118.7018) 9.4 84.1 329.2 13.1 12.9 88.5 1014.3 15.9
5-13-2024 7:15 32o 21.75' ( 32.3624) 118o 44.82' (-118.7470) 9.2 84.3 330.9 10.3 12.8 88.0 1014.6 15.6
5-13-2024 7:00 32o 21.35' ( 32.3558) 118o 47.53' (-118.7922) 9.4 80.3 321.8 9.0 12.8 88.1 1014.7 15.1
5-13-2024 6:45 32o 21.09' ( 32.3515) 118o 50.33' (-118.8388) 9.6 80.4 314.7 13.5 13.0 87.6 1014.7 14.7
5-13-2024 6:30 32o 20.84' ( 32.3473) 118o 53.10' (-118.8850) 9.6 80.4 323.7 13.3 13.2 87.5 1014.8 14.8
5-13-2024 6:15 32o 20.60' ( 32.3433) 118o 55.94' (-118.9323) 9.7 80.4 310.3 16.6 13.3 87.3 1014.7 14.9
5-13-2024 6:00 32o 20.37' ( 32.3394) 118o 58.77' (-118.9795) 9.7 80.9 314.2 15.5 13.4 87.1 1014.8 15.1
5-13-2024 5:45 32o 20.23' ( 32.3372) 119o 1.65' (-119.0275) 9.7 83.2 307.3 15.8 13.4 87.1 1014.8 15.2
5-13-2024 5:30 32o 19.95' ( 32.3325) 119o 4.48' (-119.0747) 9.7 78.6 295.8 15.8 13.4 87.4 1014.8 15.3
5-13-2024 5:15 32o 19.57' ( 32.3261) 119o 7.30' (-119.1217) 9.6 77.7 313.3 17.6 13.4 87.2 1014.6 15.2
5-13-2024 5:00 32o 19.18' ( 32.3196) 119o 10.09' (-119.1682) 9.6 77.9 311.0 18.6 13.5 87.2 1014.4 15.0
5-13-2024 4:45 32o 18.81' ( 32.3135) 119o 12.90' (-119.2149) 9.6 78.7 308.6 20.0 13.5 87.4 1014.3 15.0
5-13-2024 4:30 32o 18.41' ( 32.3068) 119o 15.68' (-119.2613) 9.6 78.2 306.6 19.4 13.4 87.0 1014.1 15.2
5-13-2024 4:15 32o 18.04' ( 32.3007) 119o 18.45' (-119.3075) 9.4 78.8 293.6 19.0 13.6 86.9 1014.0 NaN
5-13-2024 4:00 32o 17.69' ( 32.2948) 119o 21.21' (-119.3536) 9.5 79.4 304.1 19.1 13.8 87.0 1013.8 15.9
5-13-2024 3:45 32o 17.33' ( 32.2888) 119o 24.01' (-119.4001) 9.8 80.2 302.3 18.0 13.6 86.4 1013.8 15.5
5-13-2024 3:30 32o 16.99' ( 32.2832) 119o 26.89' (-119.4482) 10.1 82.8 304.8 20.9 13.8 86.0 1013.0 15.6
5-13-2024 3:15 32o 16.64' ( 32.2773) 119o 29.81' (-119.4968) 10.0 81.3 294.2 18.8 13.6 85.8 1013.7 15.6
5-13-2024 3:00 32o 16.26' ( 32.2710) 119o 32.71' (-119.5451) 10.0 81.7 294.7 17.7 13.7 85.6 1013.6 15.6
5-13-2024 2:45 32o 15.88' ( 32.2647) 119o 35.63' (-119.5938) 9.9 79.6 297.1 18.4 13.8 85.6 1013.5 15.6
5-13-2024 2:30 32o 15.48' ( 32.2580) 119o 38.49' (-119.6415) 9.7 78.2 294.9 17.2 13.9 84.8 1013.7 15.4
5-13-2024 2:15 32o 15.13' ( 32.2522) 119o 41.33' (-119.6888) 9.7 79.2 302.3 20.3 14.1 84.9 1013.7 15.3
5-13-2024 2:00 32o 14.90' ( 32.2484) 119o 44.18' (-119.7364) 9.8 84.8 297.9 16.9 14.0 84.0 1013.7 15.1
5-13-2024 1:45 32o 14.72' ( 32.2453) 119o 47.06' (-119.7844) 9.8 83.7 302.4 16.2 14.3 84.3 1013.6 15.4
5-13-2024 1:30 32o 14.46' ( 32.2409) 119o 49.96' (-119.8327) 9.8 78.8 294.2 15.6 14.2 83.9 1013.7 15.8
5-13-2024 1:15 32o 13.91' ( 32.2319) 119o 53.05' (-119.8842) 11.5 76.6 293.4 18.2 14.2 83.9 1013.8 15.8
5-13-2024 1:00 32o 13.30' ( 32.2217) 119o 56.31' (-119.9386) 11.3 78.4 310.3 15.3 14.4 84.0 1013.8 14.8
5-13-2024 0:45 32o 12.83' ( 32.2138) 119o 59.59' (-119.9932) 11.4 79.2 302.7 17.1 14.5 83.0 1014.0 15.1
5-13-2024 0:30 32o 12.41' ( 32.2068) 120o 2.91' (-120.0485) 11.3 78.6 288.9 16.3 14.6 83.2 1014.0 15.3
5-13-2024 0:15 32o 12.02' ( 32.2004) 120o 6.21' (-120.1035) 11.2 82.2 302.4 15.5 14.4 82.6 1013.9 15.5
5-13-2024 0:00 32o 11.72' ( 32.1953) 120o 9.52' (-120.1587) 11.4 82.0 300.1 16.7 14.5 82.0 1014.0 15.5
5-12-2024 23:45 32o 11.48' ( 32.1914) 120o 12.86' (-120.2144) 11.4 88.4 311.1 16.0 14.3 81.9 1014.1 15.1
5-12-2024 23:30 32o 11.35' ( 32.1892) 120o 16.26' (-120.2710) 11.9 86.3 313.3 13.5 14.4 81.7 1014.2 15.4
5-12-2024 23:15 32o 11.17' ( 32.1861) 120o 19.81' (-120.3302) 12.2 84.5 317.9 13.5 14.1 81.1 1014.2 15.5
5-12-2024 23:00 32o 10.88' ( 32.1814) 120o 23.29' (-120.3882) 11.9 84.4 305.6 14.4 14.4 81.0 1014.4 15.5
5-12-2024 22:45 32o 10.66' ( 32.1777) 120o 24.87' (-120.4145) 0.3 303.0 310.6 12.1 14.2 81.5 1014.5 15.5
5-12-2024 22:30 32o 10.54' ( 32.1756) 120o 24.68' (-120.4114) 1.0 302.0 315.5 11.7 14.3 81.5 1014.7 15.5
5-12-2024 22:15 32o 10.38' ( 32.1729) 120o 24.47' (-120.4078) 0.7 298.7 304.0 12.1 14.3 81.5 1014.8 15.5
5-12-2024 22:00 32o 10.25' ( 32.1709) 120o 24.29' (-120.4049) 0.8 299.2 310.2 12.0 14.4 81.6 1014.8 15.5
5-12-2024 21:45 32o 10.13' ( 32.1688) 120o 24.11' (-120.4019) 0.8 301.8 312.6 11.2 14.4 81.2 1014.7 15.6
5-12-2024 21:30 32o 10.00' ( 32.1667) 120o 23.93' (-120.3989) 0.8 305.3 317.3 10.2 14.6 81.6 1014.8 15.6
5-12-2024 21:15 32o 9.89' ( 32.1648) 120o 23.78' (-120.3963) 0.1 315.0 314.6 11.5 14.1 80.9 1014.9 15.6
5-12-2024 21:00 32o 9.90' ( 32.1649) 120o 23.78' (-120.3963) 0.2 320.7 306.8 12.3 14.3 81.8 1015.0 15.6
5-12-2024 20:45 32o 9.89' ( 32.1649) 120o 23.78' (-120.3963) 0.1 319.7 317.8 11.2 14.3 81.3 1015.0 15.5
5-12-2024 20:30 32o 9.89' ( 32.1649) 120o 23.78' (-120.3963) 0.1 327.9 314.2 10.4 14.2 81.0 1015.0 15.5
5-12-2024 20:15 32o 9.89' ( 32.1649) 120o 23.78' (-120.3963) 0.2 332.7 314.9 10.7 14.3 81.5 1015.0 15.5
5-12-2024 20:00 32o 9.90' ( 32.1649) 120o 23.78' (-120.3963) 0.2 333.3 322.8 11.7 14.3 80.8 1015.1 15.5
5-12-2024 19:45 32o 9.86' ( 32.1644) 120o 24.31' (-120.4051) 4.1 87.1 322.3 11.7 14.3 80.7 1015.3 15.5
5-12-2024 19:30 32o 9.59' ( 32.1598) 120o 25.37' (-120.4229) 4.5 99.4 316.0 12.4 14.5 82.3 1015.5 15.5
5-12-2024 19:15 32o 9.37' ( 32.1562) 120o 26.53' (-120.4421) 3.8 28.2 315.7 13.1 14.2 82.0 1015.6 15.5
5-12-2024 19:00 32o 9.11' ( 32.1518) 120o 27.66' (-120.4610) 3.5 33.0 317.0 12.0 14.2 82.0 1015.8 15.5
5-12-2024 18:45 32o 8.59' ( 32.1432) 120o 28.55' (-120.4759) 4.3 78.4 319.7 13.0 14.4 81.0 1015.8 15.5
5-12-2024 18:30 32o 8.47' ( 32.1412) 120o 29.80' (-120.4967) 4.3 77.7 314.9 13.3 14.4 81.8 1015.8 15.6
5-12-2024 18:15 32o 8.39' ( 32.1398) 120o 31.06' (-120.5177) 4.3 78.0 319.4 13.5 14.4 81.7 1015.8 15.6
5-12-2024 18:00 32o 8.29' ( 32.1382) 120o 32.33' (-120.5388) 4.4 77.5 323.0 14.2 14.2 82.5 1015.8 15.6
5-12-2024 17:45 32o 8.13' ( 32.1356) 120o 33.92' (-120.5653) 5.7 77.6 314.6 13.3 14.3 82.9 1015.9 15.6
5-12-2024 17:30 32o 8.00' ( 32.1334) 120o 35.39' (-120.5898) 3.0 77.7 306.6 14.4 14.0 82.7 1016.0 15.6
5-12-2024 17:15 32o 8.05' ( 32.1342) 120o 35.95' (-120.5991) 1.6 65.7 311.2 13.7 14.2 84.3 1016.0 15.7
5-12-2024 17:00 32o 8.02' ( 32.1337) 120o 36.59' (-120.6099) 5.8 77.3 303.2 11.5 14.0 84.5 1016.2 15.7
5-12-2024 16:45 32o 7.65' ( 32.1275) 120o 39.45' (-120.6576) 11.5 77.7 305.9 11.8 14.0 84.9 1016.1 15.4
5-12-2024 16:30 32o 7.18' ( 32.1197) 120o 42.81' (-120.7135) 11.7 79.1 311.1 12.2 13.8 84.6 1016.0 15.6
5-12-2024 16:15 32o 6.74' ( 32.1123) 120o 46.22' (-120.7703) 11.6 79.2 314.1 13.6 13.9 85.3 1016.1 15.5
5-12-2024 16:00 32o 6.28' ( 32.1047) 120o 49.58' (-120.8264) 11.5 81.5 302.4 12.5 13.9 85.0 1016.2 15.6
5-12-2024 15:45 32o 5.85' ( 32.0975) 120o 52.93' (-120.8822) 11.6 82.3 297.0 10.4 13.9 85.1 1016.1 15.6
5-12-2024 15:30 32o 5.39' ( 32.0898) 120o 56.30' (-120.9383) 11.5 81.7 308.0 10.8 13.0 85.2 1016.1 15.6
5-12-2024 15:15 32o 4.97' ( 32.0829) 120o 59.66' (-120.9944) 11.5 81.9 313.0 9.1 13.8 85.7 1016.2 15.5
5-12-2024 15:00 32o 4.56' ( 32.0759) 121o 2.98' (-121.0497) 11.4 81.2 295.8 12.9 13.7 85.9 1016.2 15.6
5-12-2024 14:45 32o 4.17' ( 32.0696) 121o 6.32' (-121.1053) 11.5 81.4 311.7 10.7 13.7 86.3 1016.1 15.5
5-12-2024 14:30 32o 3.77' ( 32.0628) 121o 9.68' (-121.1614) 11.7 77.9 285.3 8.3 13.7 86.7 1016.0 15.5
5-12-2024 14:15 32o 3.23' ( 32.0538) 121o 13.06' (-121.2177) 11.6 78.1 299.2 10.6 13.7 86.7 1015.8 15.7
5-12-2024 14:00 32o 2.69' ( 32.0448) 121o 16.41' (-121.2736) 11.5 75.8 316.5 12.9 13.6 86.3 1015.7 15.4
5-12-2024 13:45 32o 2.21' ( 32.0368) 121o 19.78' (-121.3297) 11.7 77.9 320.2 11.6 13.7 86.5 1015.5 15.6
5-12-2024 13:30 32o 1.79' ( 32.0298) 121o 23.20' (-121.3867) 11.7 80.0 323.5 11.0 13.7 86.4 1015.3 15.6
5-12-2024 13:15 32o 1.33' ( 32.0222) 121o 26.62' (-121.4436) 11.7 81.4 310.3 11.6 13.7 86.7 1015.2 15.7
5-12-2024 13:00 32o 0.89' ( 32.0148) 121o 30.01' (-121.5002) 11.6 79.8 301.0 13.4 13.5 86.2 1015.0 15.8
5-12-2024 12:45 32o 0.40' ( 32.0066) 121o 33.40' (-121.5566) 11.7 79.0 298.5 10.2 13.7 86.0 1015.0 15.6
5-12-2024 12:30 31o 59.92' ( 31.9987) 121o 36.81' (-121.6135) 11.8 79.5 308.4 7.5 13.6 85.4 1015.0 15.7
5-12-2024 12:15 31o 59.43' ( 31.9906) 121o 40.19' (-121.6699) 11.6 79.5 308.1 8.6 13.8 85.6 1015.1 15.9
5-12-2024 12:00 31o 58.94' ( 31.9823) 121o 43.55' (-121.7258) 11.7 79.8 304.7 12.9 13.7 85.4 1015.3 15.9
5-12-2024 11:45 31o 58.46' ( 31.9743) 121o 46.92' (-121.7820) 11.6 81.7 315.3 11.0 13.7 85.7 1015.3 15.9
5-12-2024 11:30 31o 57.98' ( 31.9663) 121o 50.29' (-121.8381) 11.6 80.9 322.6 9.6 13.7 85.4 1015.3 15.9
5-12-2024 11:15 31o 57.52' ( 31.9587) 121o 53.66' (-121.8944) 11.7 81.5 323.9 9.8 13.8 85.9 1015.1 15.9
5-12-2024 11:00 31o 57.06' ( 31.9509) 121o 57.03' (-121.9505) 11.5 79.1 328.2 9.5 13.8 85.9 1015.1 15.9
5-12-2024 10:45 31o 56.59' ( 31.9432) 122o 0.39' (-122.0064) 11.6 80.7 336.2 11.0 13.8 85.8 1015.0 15.9
5-12-2024 10:30 31o 56.14' ( 31.9356) 122o 3.75' (-122.0625) 11.6 80.9 330.1 9.5 13.9 85.9 1015.1 15.9
5-12-2024 10:15 31o 55.64' ( 31.9273) 122o 7.11' (-122.1184) 11.6 80.3 323.6 10.6 14.0 86.0 1015.0 15.9
5-12-2024 10:00 31o 55.14' ( 31.9190) 122o 10.44' (-122.1740) 11.5 79.4 342.6 12.1 14.3 85.7 1014.8 15.8
5-12-2024 9:45 31o 54.67' ( 31.9111) 122o 13.77' (-122.2294) 11.5 79.7 345.0 12.8 14.5 85.6 1014.8 15.8
5-12-2024 9:30 31o 54.18' ( 31.9031) 122o 17.09' (-122.2849) 11.5 78.0 333.9 12.4 14.6 85.4 1015.0 15.8
5-12-2024 9:15 31o 53.67' ( 31.8945) 122o 20.42' (-122.3404) 11.4 78.9 337.9 12.5 14.8 85.8 1015.1 15.8
5-12-2024 9:00 31o 53.13' ( 31.8856) 122o 23.75' (-122.3958) 11.5 77.7 331.5 12.4 14.8 85.7 1015.1 15.8
5-12-2024 8:45 31o 52.62' ( 31.8770) 122o 27.08' (-122.4513) 11.6 78.5 328.1 13.6 14.8 85.5 1015.3 15.8
5-12-2024 8:30 31o 52.13' ( 31.8688) 122o 30.42' (-122.5070) 11.6 80.0 321.5 13.9 14.9 85.0 1015.3 15.9
5-12-2024 8:15 31o 51.66' ( 31.8609) 122o 33.77' (-122.5629) 11.6 78.4 322.1 13.3 14.9 85.1 1015.4 16.0
5-12-2024 8:00 31o 51.21' ( 31.8534) 122o 37.13' (-122.6189) 11.5 80.9 319.6 13.6 14.9 84.9 1015.5 16.1
5-12-2024 7:45 31o 50.73' ( 31.8455) 122o 40.46' (-122.6744) 11.5 78.8 321.2 14.7 14.9 84.7 1015.6 16.1
5-12-2024 7:30 31o 50.20' ( 31.8367) 122o 43.78' (-122.7297) 11.4 78.8 326.4 14.3 14.9 84.6 1015.5 16.1
5-12-2024 7:15 31o 49.67' ( 31.8279) 122o 47.06' (-122.7844) 11.3 78.7 316.5 15.3 15.0 84.0 1015.8 16.2
5-12-2024 7:00 31o 49.14' ( 31.8190) 122o 50.34' (-122.8391) 11.4 78.4 319.7 14.6 14.9 83.6 1015.9 16.1
5-12-2024 6:45 31o 48.69' ( 31.8114) 122o 53.65' (-122.8942) 11.3 81.9 317.0 15.3 14.9 83.6 1016.0 16.0
5-12-2024 6:30 31o 48.24' ( 31.8039) 122o 56.99' (-122.9498) 11.6 80.8 313.3 15.7 14.8 83.1 1016.1 16.1
5-12-2024 6:15 31o 47.77' ( 31.7962) 123o 0.33' (-123.0055) 11.4 81.6 307.1 14.6 14.9 82.7 1016.3 16.0
5-12-2024 6:00 31o 47.28' ( 31.7880) 123o 3.64' (-123.0606) 11.6 80.0 303.1 14.6 14.8 81.0 1016.5 16.0
5-12-2024 5:45 31o 46.72' ( 31.7787) 123o 6.97' (-123.1162) 11.6 78.8 297.8 14.7 14.8 81.7 1016.5 15.9
5-12-2024 5:30 31o 46.19' ( 31.7698) 123o 10.34' (-123.1723) 11.8 78.9 299.2 15.3 14.8 81.1 1016.5 15.8
5-12-2024 5:15 31o 45.65' ( 31.7608) 123o 13.72' (-123.2287) 11.7 80.6 303.0 16.1 14.8 80.2 1016.5 15.9
5-12-2024 5:00 31o 45.16' ( 31.7526) 123o 17.09' (-123.2848) 11.7 79.9 309.8 14.5 14.9 79.6 1016.5 15.9
5-12-2024 4:45 31o 44.73' ( 31.7455) 123o 20.50' (-123.3416) 11.7 80.7 306.7 14.3 14.9 78.9 1016.5 15.9
5-12-2024 4:30 31o 44.21' ( 31.7368) 123o 23.90' (-123.3984) 11.8 78.8 305.5 12.7 14.9 78.7 1016.4 15.9
5-12-2024 4:15 31o 43.61' ( 31.7269) 123o 27.30' (-123.4550) 11.7 78.3 323.7 13.6 14.9 78.9 1016.2 15.9
5-12-2024 4:00 31o 43.02' ( 31.7170) 123o 30.67' (-123.5112) 11.7 77.6 307.4 14.0 14.9 78.4 1016.1 15.9
5-12-2024 3:45 31o 42.45' ( 31.7075) 123o 34.04' (-123.5674) 11.8 79.9 308.4 13.7 15.0 78.1 1016.0 16.0
5-12-2024 3:30 31o 41.96' ( 31.6994) 123o 37.48' (-123.6246) 11.8 81.4 298.7 14.8 14.9 77.0 1016.1 16.0
5-12-2024 3:15 31o 41.50' ( 31.6917) 123o 40.89' (-123.6816) 11.8 79.1 312.4 12.6 15.0 76.6 1016.0 16.0
5-12-2024 3:00 31o 40.96' ( 31.6827) 123o 44.31' (-123.7385) 11.9 79.6 307.3 14.1 15.1 75.9 1015.8 16.0
5-12-2024 2:45 31o 40.45' ( 31.6741) 123o 47.69' (-123.7949) 11.7 79.2 302.1 13.5 15.1 75.1 1015.8 16.0
5-12-2024 2:30 31o 39.93' ( 31.6654) 123o 51.07' (-123.8511) 11.8 77.8 317.2 12.7 15.1 75.5 1015.8 16.0
5-12-2024 2:15 31o 39.33' ( 31.6554) 123o 54.47' (-123.9079) 11.9 77.6 308.3 14.4 15.1 74.0 1015.8 16.1
5-12-2024 2:00 31o 38.75' ( 31.6458) 123o 57.90' (-123.9650) 11.9 78.2 315.3 12.8 15.3 75.4 1015.8 16.1
5-12-2024 1:45 31o 38.23' ( 31.6372) 124o 1.34' (-124.0223) 12.0 78.7 303.9 14.2 15.2 74.3 1015.8 16.0
5-12-2024 1:30 31o 37.69' ( 31.6282) 124o 4.77' (-124.0794) 11.9 78.6 308.9 13.9 15.2 74.7 1015.8 16.1
5-12-2024 1:15 31o 37.14' ( 31.6190) 124o 8.18' (-124.1363) 11.9 78.4 307.5 13.8 15.3 74.1 1015.8 16.1
5-12-2024 1:00 31o 36.59' ( 31.6099) 124o 11.61' (-124.1936) 11.9 78.5 310.8 12.4 15.3 75.9 1015.9 16.2
5-12-2024 0:45 31o 36.01' ( 31.6002) 124o 15.07' (-124.2512) 12.1 76.9 299.5 12.8 15.3 74.0 1016.0 16.2
5-12-2024 0:30 31o 35.41' ( 31.5902) 124o 18.54' (-124.3090) 12.1 80.4 309.0 12.9 15.4 74.1 1016.1 16.3
5-12-2024 0:15 31o 34.95' ( 31.5825) 124o 22.03' (-124.3672) 12.1 81.5 308.3 11.9 15.5 74.1 1016.1 16.4
5-12-2024 0:00 31o 34.58' ( 31.5763) 124o 25.55' (-124.4259) 12.1 83.4 308.9 12.2 15.6 73.1 1016.2 16.5
5-11-2024 23:45 31o 34.23' ( 31.5705) 124o 29.05' (-124.4842) 12.1 83.4 312.1 12.3 15.5 73.5 1016.2 16.5
5-11-2024 23:30 31o 33.91' ( 31.5651) 124o 32.55' (-124.5425) 12.0 84.5 318.4 11.8 15.6 72.5 1016.3 16.4
5-11-2024 23:15 31o 33.93' ( 31.5655) 124o 36.05' (-124.6008) 11.9 91.9 306.4 11.0 15.8 72.1 1016.4 16.2
5-11-2024 23:00 31o 34.01' ( 31.5669) 124o 39.52' (-124.6587) 11.8 92.6 312.3 9.4 15.7 72.3 1016.0 16.1
5-11-2024 22:45 31o 34.11' ( 31.5685) 124o 43.00' (-124.7166) 11.9 88.0 309.3 11.5 15.5 71.9 1016.6 16.0
5-11-2024 22:30 31o 33.48' ( 31.5580) 124o 46.31' (-124.7718) 11.7 60.3 313.4 10.7 15.6 72.3 1016.6 16.0
5-11-2024 22:15 31o 32.16' ( 31.5361) 124o 49.36' (-124.8227) 11.7 61.1 301.0 10.5 15.6 70.6 1016.6 16.0
5-11-2024 22:00 31o 30.86' ( 31.5143) 124o 52.41' (-124.8736) 11.7 61.4 312.8 11.0 15.6 70.9 1016.7 16.0
5-11-2024 21:45 31o 29.59' ( 31.4932) 124o 55.49' (-124.9248) 11.7 64.3 308.2 9.5 15.9 69.6 1016.8 15.9
5-11-2024 21:30 31o 28.78' ( 31.4796) 124o 58.78' (-124.9796) 11.8 78.3 318.9 9.1 15.6 68.7 1016.9 15.8
5-11-2024 21:15 31o 28.22' ( 31.4703) 125o 2.15' (-125.0359) 11.7 77.8 319.4 10.1 15.8 69.2 1017.0 15.8
5-11-2024 21:00 31o 27.62' ( 31.4604) 125o 5.51' (-125.0919) 11.7 77.3 311.7 11.0 15.8 68.9 1017.1 15.7
5-11-2024 20:45 31o 27.06' ( 31.4510) 125o 8.88' (-125.1481) 11.7 78.4 323.1 9.0 15.7 67.8 1017.2 15.7
5-11-2024 20:30 31o 26.53' ( 31.4422) 125o 12.24' (-125.2041) 11.8 79.9 314.7 10.7 15.9 68.5 1017.2 15.8
5-11-2024 20:15 31o 25.97' ( 31.4328) 125o 15.62' (-125.2603) 11.7 79.6 324.7 12.1 15.8 68.5 1017.2 15.7
5-11-2024 20:00 31o 25.39' ( 31.4232) 125o 18.97' (-125.3162) 11.7 79.2 315.1 9.6 15.7 65.9 1017.3 15.7
5-11-2024 19:45 31o 24.81' ( 31.4135) 125o 22.30' (-125.3716) 11.5 79.6 326.5 9.2 15.8 67.2 1017.4 15.8
5-11-2024 19:30 31o 24.23' ( 31.4039) 125o 25.62' (-125.4270) 11.6 79.8 325.6 9.4 15.7 66.1 1017.5 15.8
5-11-2024 19:15 31o 23.68' ( 31.3946) 125o 28.93' (-125.4821) 11.5 81.0 333.5 10.1 15.7 65.8 1017.5 16.0
5-11-2024 19:00 31o 23.22' ( 31.3869) 125o 32.23' (-125.5371) 11.3 83.3 338.5 8.5 15.7 65.0 1017.7 16.0
5-11-2024 18:45 31o 22.83' ( 31.3806) 125o 35.50' (-125.5917) 11.3 81.1 317.0 10.2 15.7 67.2 1017.7 16.2
5-11-2024 18:30 31o 22.32' ( 31.3719) 125o 38.74' (-125.6456) 10.1 78.3 325.7 8.5 15.7 62.9 1017.8 16.5
5-11-2024 18:15 31o 21.75' ( 31.3626) 125o 41.70' (-125.6950) 11.2 78.6 340.7 9.3 15.6 64.2 1017.7 16.8
5-11-2024 18:00 31o 21.15' ( 31.3525) 125o 44.93' (-125.7489) 11.4 79.1 330.3 11.1 15.5 64.5 1017.8 16.7
5-11-2024 17:45 31o 20.52' ( 31.3420) 125o 48.17' (-125.8028) 11.4 75.2 337.4 8.1 15.4 66.8 1017.9 16.4
5-11-2024 17:30 31o 19.86' ( 31.3310) 125o 51.38' (-125.8564) 11.3 76.1 327.6 7.7 15.4 67.4 1017.8 16.3
5-11-2024 17:15 31o 19.20' ( 31.3200) 125o 54.62' (-125.9103) 11.4 76.3 340.2 6.8 15.3 63.6 1017.8 16.4
5-11-2024 17:00 31o 18.53' ( 31.3088) 125o 57.85' (-125.9641) 11.4 76.8 337.8 8.3 15.2 67.2 1017.9 16.2
5-11-2024 16:45 31o 17.91' ( 31.2985) 126o 1.09' (-126.0182) 11.3 78.3 324.6 7.0 15.2 64.5 1017.8 16.3
5-11-2024 16:30 31o 17.37' ( 31.2895) 126o 4.29' (-126.0715) 11.1 78.4 350.7 7.7 15.0 66.1 1017.6 16.3
5-11-2024 16:15 31o 16.85' ( 31.2808) 126o 7.50' (-126.1250) 11.3 78.7 334.4 6.8 15.0 66.3 1017.6 16.1
5-11-2024 16:00 31o 16.31' ( 31.2719) 126o 10.74' (-126.1790) 11.4 78.6 339.9 6.5 14.9 66.8 1017.6 15.8
5-11-2024 15:45 31o 15.78' ( 31.2630) 126o 13.99' (-126.2332) 11.3 78.9 351.6 5.8 14.9 64.3 1017.5 15.8
5-11-2024 15:30 31o 15.24' ( 31.2539) 126o 17.21' (-126.2869) 11.2 78.6 352.0 6.7 14.9 67.6 1017.4 15.8
5-11-2024 15:15 31o 14.66' ( 31.2443) 126o 20.42' (-126.3403) 11.3 75.7 323.5 7.2 15.0 64.9 1017.4 15.8
5-11-2024 15:00 31o 14.07' ( 31.2345) 126o 23.62' (-126.3937) 11.2 76.4 4.4 7.7 14.8 66.2 1017.3 15.8
5-11-2024 14:45 31o 13.48' ( 31.2246) 126o 26.80' (-126.4467) 11.1 76.0 355.4 8.7 14.9 67.9 1017.1 15.8
5-11-2024 14:30 31o 12.89' ( 31.2148) 126o 30.00' (-126.5000) 11.2 76.6 334.0 5.8 14.9 65.7 1017.1 15.8
5-11-2024 14:15 31o 12.33' ( 31.2055) 126o 33.20' (-126.5533) 11.0 74.8 360.0 9.1 14.9 66.1 1016.9 15.9
5-11-2024 14:00 31o 11.73' ( 31.1954) 126o 36.38' (-126.6063) 11.2 76.2 341.8 9.0 14.9 68.5 1016.8 15.8
5-11-2024 13:45 31o 11.16' ( 31.1860) 126o 39.58' (-126.6596) 11.3 77.2 339.2 8.6 15.0 66.9 1016.0 15.8
5-11-2024 13:30 31o 10.57' ( 31.1762) 126o 42.74' (-126.7124) 11.0 75.8 352.7 10.2 15.0 65.5 1016.5 15.8
5-11-2024 13:15 31o 10.00' ( 31.1666) 126o 45.91' (-126.7652) 11.2 76.9 340.1 11.2 15.0 66.9 1016.4 15.9
5-11-2024 13:00 31o 9.42' ( 31.1571) 126o 49.11' (-126.8186) 11.2 74.9 351.6 11.0 15.0 66.9 1016.2 16.0
5-11-2024 12:45 31o 8.86' ( 31.1476) 126o 52.34' (-126.8723) 11.3 76.2 338.1 11.4 15.1 68.5 1016.3 16.1
5-11-2024 12:30 31o 8.28' ( 31.1380) 126o 55.60' (-126.9266) 11.5 75.9 349.8 7.2 15.1 65.3 1016.3 16.1
5-11-2024 12:15 31o 7.65' ( 31.1274) 126o 58.87' (-126.9812) 11.4 72.1 351.6 4.2 15.1 66.2 1016.3 16.1
5-11-2024 12:00 31o 6.93' ( 31.1155) 127o 2.09' (-127.0348) 11.4 74.5 344.1 7.3 15.1 65.6 1016.3 16.1
5-11-2024 11:45 31o 6.37' ( 31.1062) 127o 5.36' (-127.0893) 11.3 76.8 348.0 3.4 15.0 64.1 1016.4 16.2
5-11-2024 11:30 31o 5.86' ( 31.0977) 127o 8.60' (-127.1434) 11.3 77.4 15.6 6.4 15.1 64.6 1016.5 16.2
5-11-2024 11:15 31o 5.29' ( 31.0881) 127o 11.86' (-127.1977) 11.5 76.2 333.2 12.5 15.2 65.4 1016.4 16.4
5-11-2024 11:00 31o 4.67' ( 31.0778) 127o 15.14' (-127.2523) 11.6 75.6 341.8 6.6 15.1 64.5 1016.5 16.9
5-11-2024 10:45 31o 4.03' ( 31.0672) 127o 18.39' (-127.3065) 11.5 76.5 5.8 2.7 15.1 64.2 1016.5 16.9
5-11-2024 10:30 31o 3.39' ( 31.0564) 127o 21.62' (-127.3603) 11.4 76.5 350.4 7.1 15.1 64.0 1016.6 16.9
5-11-2024 10:15 31o 2.74' ( 31.0457) 127o 24.84' (-127.4140) 11.4 75.8 343.1 7.0 15.1 66.0 1016.6 17.0
5-11-2024 10:00 31o 2.08' ( 31.0346) 127o 28.08' (-127.4681) 11.5 77.6 327.8 5.3 15.1 65.0 1016.8 17.0
5-11-2024 9:45 31o 1.45' ( 31.0242) 127o 31.32' (-127.5220) 11.5 76.7 336.1 8.2 15.2 65.9 1016.9 17.0
5-11-2024 9:30 31o 0.89' ( 31.0148) 127o 34.58' (-127.5763) 11.5 78.8 349.4 6.7 15.3 67.1 1016.9 17.1
5-11-2024 9:15 31o 0.31' ( 31.0051) 127o 37.84' (-127.6307) 11.3 79.3 0.1 7.0 15.2 65.8 1017.0 17.1
5-11-2024 9:00 30o 59.70' ( 30.9950) 127o 41.03' (-127.6839) 11.1 79.1 333.5 10.0 15.3 67.0 1017.2 17.1
5-11-2024 8:45 30o 59.10' ( 30.9850) 127o 44.21' (-127.7368) 11.1 79.8 348.8 7.1 15.2 65.9 1017.2 17.1
5-11-2024 8:30 30o 58.50' ( 30.9750) 127o 47.41' (-127.7902) 11.2 80.2 342.6 9.4 15.3 64.5 1017.2 17.1
5-11-2024 8:15 30o 57.89' ( 30.9649) 127o 50.60' (-127.8434) 11.2 79.1 353.6 11.6 15.3 66.2 1017.2 16.9
5-11-2024 8:00 30o 57.27' ( 30.9546) 127o 53.81' (-127.8968) 11.3 77.3 341.6 5.3 15.4 65.7 1017.0 16.2
5-11-2024 7:45 30o 56.63' ( 30.9438) 127o 56.98' (-127.9496) 11.1 76.9 324.1 5.2 15.5 64.1 1017.0 16.3
5-11-2024 7:30 30o 55.96' ( 30.9327) 128o 0.10' (-128.0016) 11.1 75.6 340.2 9.1 15.5 65.0 1017.6 16.3
5-11-2024 7:15 30o 55.29' ( 30.9216) 128o 3.22' (-128.0536) 11.1 75.6 336.0 7.3 15.6 66.4 1017.6 16.3
5-11-2024 7:00 30o 54.69' ( 30.9114) 128o 6.38' (-128.1063) 11.2 76.4 354.2 10.5 15.7 67.4 1017.7 16.2
5-11-2024 6:45 30o 54.06' ( 30.9010) 128o 9.55' (-128.1592) 11.2 76.9 346.4 9.5 15.7 64.0 1017.6 16.3
5-11-2024 6:30 30o 53.49' ( 30.8915) 128o 12.70' (-128.2117) 11.0 78.8 345.4 8.8 15.8 66.1 1017.5 16.3
5-11-2024 6:15 30o 52.95' ( 30.8826) 128o 15.84' (-128.2639) 10.9 78.7 357.2 13.0 15.8 67.5 1017.4 16.3
5-11-2024 6:00 30o 52.43' ( 30.8738) 128o 18.95' (-128.3159) 11.1 77.9 347.5 7.6 15.8 66.3 1017.5 16.3
5-11-2024 5:45 30o 51.83' ( 30.8639) 128o 22.12' (-128.3687) 11.1 76.2 340.1 8.8 15.8 64.3 1017.4 16.4
5-11-2024 5:30 30o 51.18' ( 30.8530) 128o 25.26' (-128.4209) 11.1 76.9 353.5 11.4 15.9 66.4 1017.3 17.1
5-11-2024 5:15 30o 50.50' ( 30.8416) 128o 28.39' (-128.4731) 11.2 75.8 341.1 7.9 15.0 68.2 1017.3 16.9
5-11-2024 5:00 30o 49.85' ( 30.8308) 128o 31.54' (-128.5257) 11.3 77.0 319.4 6.2 15.9 64.5 1017.2 16.8
5-11-2024 4:45 30o 49.24' ( 30.8206) 128o 34.72' (-128.5786) 11.3 74.0 348.9 9.1 15.9 67.8 1017.1 16.6
5-11-2024 4:30 30o 48.52' ( 30.8087) 128o 37.88' (-128.6313) 11.3 74.1 313.5 11.1 15.9 66.5 1017.0 16.7
5-11-2024 4:15 30o 47.91' ( 30.7985) 128o 41.06' (-128.6843) 11.2 76.7 340.8 7.7 15.9 66.0 1017.0 16.6
5-11-2024 4:00 30o 47.32' ( 30.7887) 128o 44.26' (-128.7376) 11.4 78.4 337.9 6.0 15.9 66.0 1016.9 17.0
5-11-2024 3:45 30o 46.70' ( 30.7784) 128o 47.49' (-128.7915) 11.7 77.9 323.5 11.9 15.9 66.6 1016.9 17.2
5-11-2024 3:30 30o 46.07' ( 30.7679) 128o 50.76' (-128.8460) 11.7 77.6 315.3 10.6 15.9 66.4 1016.8 17.6
5-11-2024 3:15 30o 45.44' ( 30.7574) 128o 54.01' (-128.9002) 11.5 76.5 333.9 13.3 16.0 66.8 1016.4 17.8
5-11-2024 3:00 30o 44.73' ( 30.7455) 128o 57.21' (-128.9535) 11.5 72.7 327.3 14.3 16.0 66.9 1016.4 17.8
5-11-2024 2:45 30o 44.00' ( 30.7333) 129o 0.40' (-129.0067) 11.4 74.9 334.3 12.9 16.0 66.1 1016.3 17.5
5-11-2024 2:30 30o 43.34' ( 30.7223) 129o 3.63' (-129.0605) 11.5 76.2 325.4 9.5 16.0 65.3 1016.4 17.1
5-11-2024 2:15 30o 42.74' ( 30.7123) 129o 6.88' (-129.1147) 11.4 76.5 336.3 10.1 16.1 67.6 1016.3 17.1
5-11-2024 2:00 30o 42.10' ( 30.7017) 129o 10.11' (-129.1684) 11.4 76.3 339.5 13.0 16.1 67.9 1016.2 17.2
5-11-2024 1:45 30o 41.45' ( 30.6909) 129o 13.33' (-129.2222) 11.2 68.9 323.9 15.3 16.0 67.0 1016.2 17.2
5-11-2024 1:30 30o 40.83' ( 30.6805) 129o 16.53' (-129.2755) 11.3 77.4 335.2 12.9 16.2 72.4 1016.3 17.5
5-11-2024 1:15 30o 40.19' ( 30.6698) 129o 19.71' (-129.3286) 11.3 77.5 342.2 12.4 16.2 72.8 1016.4 17.7
5-11-2024 1:00 30o 39.48' ( 30.6581) 129o 22.89' (-129.3815) 11.3 73.6 345.8 13.5 16.2 73.4 1016.3 17.6
5-11-2024 0:45 30o 38.75' ( 30.6458) 129o 26.07' (-129.4345) 11.6 80.6 334.1 10.8 16.2 72.1 1016.5 17.6
5-11-2024 0:30 30o 38.20' ( 30.6367) 129o 29.32' (-129.4887) 11.4 75.9 336.3 11.5 16.2 72.9 1016.6 17.7
5-11-2024 0:15 30o 37.54' ( 30.6257) 129o 32.52' (-129.5420) 11.3 77.1 331.7 12.1 16.2 71.7 1016.6 17.8
5-11-2024 0:00 30o 36.92' ( 30.6153) 129o 35.72' (-129.5953) 11.5 77.4 330.1 12.9 16.3 72.3 1016.8 17.9
5-10-2024 23:45 30o 36.26' ( 30.6043) 129o 38.93' (-129.6488) 11.2 76.7 336.2 13.5 16.4 73.4 1016.8 18.0
5-10-2024 23:30 30o 35.55' ( 30.5925) 129o 42.07' (-129.7012) 11.3 74.7 329.3 12.9 16.6 73.0 1017.0 18.0
5-10-2024 23:15 30o 34.81' ( 30.5801) 129o 45.20' (-129.7533) 11.0 74.3 325.3 11.6 16.5 69.9 1017.3 18.0
5-10-2024 23:00 30o 34.10' ( 30.5683) 129o 48.30' (-129.8051) 11.0 75.1 322.9 12.5 16.5 70.5 1017.4 17.7
5-10-2024 22:45 30o 33.48' ( 30.5580) 129o 51.41' (-129.8568) 11.2 76.3 321.1 12.7 16.5 70.0 1017.5 17.7
5-10-2024 22:30 30o 32.88' ( 30.5481) 129o 54.56' (-129.9094) 11.1 79.1 328.5 12.7 16.5 70.4 1017.6 17.8
5-10-2024 22:15 30o 32.33' ( 30.5388) 129o 57.71' (-129.9618) 11.0 79.2 323.3 12.2 16.7 67.8 1017.8 17.7
5-10-2024 22:00 30o 31.71' ( 30.5286) 130o 0.84' (-130.0139) 11.4 78.3 320.7 11.7 16.8 67.7 1018.0 17.9
5-10-2024 21:45 30o 31.06' ( 30.5177) 130o 4.00' (-130.0666) 11.2 78.6 329.4 11.1 16.7 68.3 1018.1 17.8
5-10-2024 21:30 30o 30.42' ( 30.5070) 130o 7.17' (-130.1195) 11.2 78.0 333.0 10.7 16.7 68.1 1018.2 18.1
5-10-2024 21:15 30o 29.73' ( 30.4956) 130o 10.32' (-130.1719) 11.1 76.4 329.8 11.5 16.7 66.4 1018.4 18.1
5-10-2024 21:00 30o 29.01' ( 30.4834) 130o 13.45' (-130.2241) 11.3 76.3 308.4 11.3 16.5 69.0 1018.6 18.1
5-10-2024 20:45 30o 28.32' ( 30.4720) 130o 16.45' (-130.2742) 11.3 77.4 304.9 11.0 16.3 70.3 1018.8 18.0
5-10-2024 20:30 30o 27.60' ( 30.4600) 130o 19.59' (-130.3265) 10.9 76.0 317.4 9.6 16.1 70.8 1019.0 17.9
5-10-2024 20:15 30o 26.92' ( 30.4486) 130o 22.69' (-130.3782) 11.1 75.8 327.0 10.1 16.0 70.0 1019.1 17.8
5-10-2024 20:00 30o 26.27' ( 30.4379) 130o 25.84' (-130.4307) 11.2 75.8 337.2 10.8 16.3 68.0 1019.1 17.8
5-10-2024 19:45 30o 25.63' ( 30.4272) 130o 29.01' (-130.4835) 11.3 76.7 330.5 9.2 16.5 65.7 1019.3 17.4
5-10-2024 19:30 30o 24.98' ( 30.4163) 130o 32.21' (-130.5368) 11.6 77.4 327.2 7.7 16.5 65.2 1019.4 17.4
5-10-2024 19:15 30o 24.26' ( 30.4044) 130o 35.42' (-130.5903) 11.3 75.9 327.1 7.4 16.2 66.9 1019.5 17.5
5-10-2024 19:00 30o 23.56' ( 30.3927) 130o 38.57' (-130.6429) 11.4 76.4 333.8 9.7 16.0 67.6 1019.5 17.7
5-10-2024 18:45 30o 22.86' ( 30.3810) 130o 41.73' (-130.6955) 11.3 74.1 334.7 6.2 16.3 65.9 1019.4 17.7
5-10-2024 18:30 30o 22.13' ( 30.3688) 130o 44.83' (-130.7471) 9.4 75.1 334.2 10.3 16.0 66.3 1019.4 17.7
5-10-2024 18:15 30o 21.49' ( 30.3582) 130o 47.62' (-130.7936) 11.0 74.1 332.9 8.9 15.9 68.7 1019.4 17.7
5-10-2024 18:00 30o 20.79' ( 30.3464) 130o 50.74' (-130.8456) 11.4 74.9 325.0 8.3 16.1 67.0 1019.4 17.7
5-10-2024 17:45 30o 20.11' ( 30.3352) 130o 53.91' (-130.8986) 11.2 75.2 326.0 7.0 15.8 66.1 1019.5 17.5
5-10-2024 17:30 30o 19.48' ( 30.3246) 130o 57.08' (-130.9513) 11.3 75.6 344.1 9.5 15.9 68.8 1019.5 17.3
5-10-2024 17:15 30o 18.82' ( 30.3137) 131o 0.26' (-131.0043) 11.6 75.9 332.4 10.2 15.9 69.0 1019.5 17.3
5-10-2024 17:00 30o 18.13' ( 30.3021) 131o 3.49' (-131.0581) 11.4 75.0 331.0 12.0 15.9 67.5 1019.4 17.4
5-10-2024 16:45 30o 17.51' ( 30.2918) 131o 6.70' (-131.1117) 11.3 78.2 330.7 9.0 15.7 70.0 1019.4 17.5
5-10-2024 16:30 30o 16.81' ( 30.2802) 131o 9.87' (-131.1645) 11.3 75.3 327.6 5.4 15.6 67.6 1019.3 17.4
5-10-2024 16:15 30o 16.07' ( 30.2678) 131o 13.02' (-131.2170) 11.2 74.1 11.3 5.4 15.4 67.9 1019.2 17.3
5-10-2024 16:00 30o 15.34' ( 30.2556) 131o 16.14' (-131.2690) 11.2 74.6 355.2 10.2 15.5 69.3 1019.0 17.1
5-10-2024 15:45 30o 14.63' ( 30.2438) 131o 19.28' (-131.3213) 11.0 75.5 337.6 9.2 15.6 70.0 1018.9 17.1
5-10-2024 15:30 30o 13.93' ( 30.2322) 131o 22.38' (-131.3730) 11.2 74.9 341.9 9.4 15.5 70.1 1018.8 17.3
5-10-2024 15:15 30o 13.20' ( 30.2200) 131o 25.50' (-131.4249) 11.2 74.3 343.5 6.6 15.4 70.4 1018.7 17.5
5-10-2024 15:00 30o 12.51' ( 30.2085) 131o 28.66' (-131.4776) 11.3 76.1 11.9 7.8 15.3 70.0 1018.6 17.3
5-10-2024 14:45 30o 11.86' ( 30.1976) 131o 31.83' (-131.5305) 11.2 76.5 348.4 9.8 15.3 68.2 1018.5 17.3
5-10-2024 14:30 30o 11.18' ( 30.1863) 131o 34.97' (-131.5828) 11.2 76.4 346.7 7.9 15.4 70.7 1018.3 17.3
5-10-2024 14:15 30o 10.46' ( 30.1743) 131o 38.06' (-131.6344) 11.0 73.9 355.1 7.5 15.4 68.8 1018.2 17.3
5-10-2024 14:00 30o 9.76' ( 30.1626) 131o 41.12' (-131.6853) 11.0 74.0 357.0 10.1 15.5 69.9 1018.1 17.4
5-10-2024 13:45 30o 9.06' ( 30.1510) 131o 44.19' (-131.7364) 11.1 75.3 333.2 10.8 15.4 70.1 1018.2 17.4
5-10-2024 13:30 30o 8.38' ( 30.1397) 131o 47.25' (-131.7876) 11.0 76.6 349.5 12.1 15.4 68.9 1018.1 17.4
5-10-2024 13:15 30o 7.74' ( 30.1290) 131o 50.34' (-131.8390) 11.0 78.7 9.8 8.8 15.5 69.9 1018.0 17.5
5-10-2024 13:00 30o 7.09' ( 30.1181) 131o 53.42' (-131.8904) 11.0 78.2 354.7 7.6 15.4 69.1 1018.1 17.7
5-10-2024 12:45 30o 6.33' ( 30.1055) 131o 56.44' (-131.9407) 11.2 74.8 341.8 9.5 15.6 71.9 1018.1 18.3
5-10-2024 12:30 30o 5.60' ( 30.0934) 131o 59.56' (-131.9926) 11.2 74.3 341.5 11.9 15.5 70.9 1018.2 18.7
5-10-2024 12:15 30o 4.88' ( 30.0814) 132o 2.70' (-132.0450) 11.2 74.7 357.3 10.1 15.6 71.0 1018.2 18.6
5-10-2024 12:00 30o 4.09' ( 30.0682) 132o 5.82' (-132.0970) 11.2 71.9 350.5 10.9 15.5 71.6 1018.2 18.6
5-10-2024 11:45 30o 3.37' ( 30.0562) 132o 8.92' (-132.1487) 11.1 72.4 13.3 8.8 15.4 70.0 1018.2 18.0
5-10-2024 11:30 30o 2.67' ( 30.0446) 132o 12.00' (-132.2000) 11.0 73.6 350.8 11.5 15.5 72.4 1018.2 17.6
5-10-2024 11:15 30o 1.97' ( 30.0329) 132o 15.07' (-132.2512) 10.9 72.8 358.1 11.4 15.6 71.4 1018.2 17.6
5-10-2024 11:00 30o 1.24' ( 30.0207) 132o 18.13' (-132.3021) 11.1 73.2 7.1 9.3 15.7 73.6 1018.3 17.6
5-10-2024 10:45 30o 0.48' ( 30.0081) 132o 21.21' (-132.3535) 11.2 72.1 6.1 10.0 15.6 72.4 1018.5 17.5
5-10-2024 10:30 29o 59.73' ( 29.9955) 132o 24.31' (-132.4052) 11.0 73.6 355.3 12.8 15.5 71.9 1018.6 17.7
5-10-2024 10:15 29o 58.98' ( 29.9831) 132o 27.40' (-132.4567) 11.1 73.9 24.7 11.5 15.7 72.2 1018.6 18.4
5-10-2024 10:00 29o 58.29' ( 29.9714) 132o 30.52' (-132.5086) 11.3 74.2 2.0 11.0 15.8 71.3 1018.8 19.2
5-10-2024 9:45 29o 57.57' ( 29.9595) 132o 33.67' (-132.5612) 11.4 73.9 3.1 12.5 15.8 71.1 1019.0 19.0
5-10-2024 9:30 29o 56.85' ( 29.9476) 132o 36.82' (-132.6136) 11.4 74.1 354.3 15.5 15.9 70.8 1019.1 18.8
5-10-2024 9:15 29o 56.14' ( 29.9357) 132o 39.96' (-132.6661) 11.1 75.0 9.6 10.7 16.0 70.5 1019.3 18.1
5-10-2024 9:00 29o 55.46' ( 29.9243) 132o 43.11' (-132.7185) 11.2 78.0 26.6 14.5 15.9 70.1 1019.3 18.0
5-10-2024 8:45 29o 54.80' ( 29.9134) 132o 46.24' (-132.7707) 11.2 78.8 22.5 12.0 16.1 70.1 1019.6 18.1
5-10-2024 8:30 29o 54.19' ( 29.9032) 132o 49.40' (-132.8234) 11.2 79.9 20.7 10.1 16.2 69.5 1019.7 18.2
5-10-2024 8:15 29o 53.50' ( 29.8917) 132o 52.56' (-132.8759) 11.3 75.2 12.7 11.3 16.3 69.3 1019.7 18.5
5-10-2024 8:00 29o 52.64' ( 29.8773) 132o 55.63' (-132.9271) 11.1 73.1 29.9 12.5 16.4 68.5 1019.8 19.0
5-10-2024 7:45 29o 51.84' ( 29.8640) 132o 58.70' (-132.9783) 11.1 75.9 15.3 12.1 16.3 67.0 1019.8 18.8
5-10-2024 7:30 29o 51.10' ( 29.8517) 133o 1.75' (-133.0291) 10.9 74.9 2.4 12.3 16.4 67.3 1020.1 18.9
5-10-2024 7:15 29o 50.41' ( 29.8401) 133o 4.74' (-133.0790) 10.8 76.3 24.4 10.2 16.4 67.4 1020.2 19.0
5-10-2024 7:00 29o 49.77' ( 29.8296) 133o 7.76' (-133.1294) 10.9 76.6 9.0 14.0 16.4 67.6 1020.2 19.0
5-10-2024 6:45 29o 49.07' ( 29.8178) 133o 10.76' (-133.1794) 10.8 75.3 3.4 14.0 16.5 68.5 1020.2 18.9
5-10-2024 6:30 29o 48.27' ( 29.8044) 133o 13.84' (-133.2307) 11.4 74.6 14.9 12.5 16.5 69.0 1020.3 18.6
5-10-2024 6:15 29o 47.49' ( 29.7915) 133o 16.98' (-133.2829) 11.3 75.5 13.9 13.5 16.4 67.5 1020.3 18.5
5-10-2024 6:00 29o 46.71' ( 29.7785) 133o 20.11' (-133.3352) 11.4 74.5 8.1 13.3 16.5 67.2 1020.2 18.8
5-10-2024 5:45 29o 45.96' ( 29.7660) 133o 23.27' (-133.3879) 11.5 73.8 10.3 13.0 16.5 66.0 1020.1 19.3
5-10-2024 5:30 29o 45.23' ( 29.7538) 133o 26.46' (-133.4409) 11.3 74.9 8.5 16.0 16.5 67.0 1020.0 19.3
5-10-2024 5:15 29o 44.47' ( 29.7412) 133o 29.63' (-133.4939) 11.5 74.5 3.9 13.7 16.4 65.4 1019.9 19.4
5-10-2024 5:00 29o 43.67' ( 29.7279) 133o 32.77' (-133.5461) 11.2 74.2 13.1 17.0 16.5 67.1 1019.7 19.4
5-10-2024 4:45 29o 42.92' ( 29.7153) 133o 35.88' (-133.5980) 11.2 73.9 356.7 15.4 16.5 66.3 1019.8 19.3
5-10-2024 4:30 29o 42.19' ( 29.7032) 133o 38.98' (-133.6497) 11.2 74.3 4.3 16.5 16.5 66.2 1019.7 19.3
5-10-2024 4:15 29o 41.40' ( 29.6900) 133o 42.08' (-133.7013) 11.4 72.4 5.2 15.3 16.6 66.0 1019.6 19.3
5-10-2024 4:00 29o 40.74' ( 29.6790) 133o 45.24' (-133.7540) 11.3 76.0 7.5 13.9 16.6 64.6 1019.6 19.3
5-10-2024 3:45 29o 40.03' ( 29.6671) 133o 48.29' (-133.8048) 8.5 74.9 11.4 13.6 16.6 65.4 1019.5 19.4
5-10-2024 3:30 29o 39.55' ( 29.6592) 133o 50.14' (-133.8357) 2.2 71.4 4.2 14.1 16.6 65.7 1019.6 19.3
5-10-2024 3:15 29o 39.03' ( 29.6506) 133o 52.09' (-133.8681) 11.5 72.6 359.3 15.2 16.7 65.1 1019.4 19.3
5-10-2024 3:00 29o 38.22' ( 29.6370) 133o 55.27' (-133.9212) 11.9 71.3 355.0 14.4 16.7 63.0 1019.4 19.3
5-10-2024 2:45 29o 37.38' ( 29.6229) 133o 58.55' (-133.9759) 12.0 73.6 359.4 12.6 16.8 63.7 1019.5 19.4
5-10-2024 2:30 29o 36.61' ( 29.6101) 134o 1.86' (-134.0310) 11.9 74.7 1.6 13.5 16.9 63.8 1019.5 19.5
5-10-2024 2:15 29o 35.81' ( 29.5968) 134o 5.14' (-134.0856) 11.8 74.9 3.6 11.8 16.8 63.5 1019.5 19.5
5-10-2024 2:00 29o 35.01' ( 29.5834) 134o 8.38' (-134.1397) 11.7 72.5 6.5 13.0 17.1 63.0 1019.5 19.5
5-10-2024 1:45 29o 34.15' ( 29.5691) 134o 11.59' (-134.1931) 11.7 74.5 351.8 14.3 16.9 64.8 1019.7 19.5
5-10-2024 1:30 29o 33.37' ( 29.5562) 134o 14.80' (-134.2467) 11.6 74.7 348.9 13.4 16.9 64.4 1019.7 19.4
5-10-2024 1:15 29o 32.62' ( 29.5436) 134o 18.00' (-134.3001) 11.5 75.4 351.3 13.0 17.1 62.3 1019.7 19.4
5-10-2024 1:00 29o 31.82' ( 29.5303) 134o 21.19' (-134.3531) 11.7 74.3 5.8 11.4 17.0 61.5 1019.7 19.5
5-10-2024 0:45 29o 31.09' ( 29.5181) 134o 24.44' (-134.4073) 11.8 77.2 5.3 11.5 17.0 63.0 1019.8 19.4
5-10-2024 0:30 29o 30.28' ( 29.5047) 134o 27.70' (-134.4617) 11.8 74.4 5.5 12.0 17.0 62.5 1019.8 19.4
5-10-2024 0:15 29o 29.46' ( 29.4910) 134o 30.94' (-134.5156) 11.7 74.8 3.8 12.4 17.2 63.4 1019.9 19.2
5-10-2024 0:00 29o 28.68' ( 29.4780) 134o 34.14' (-134.5691) 11.5 74.8 20.7 11.4 16.9 63.0 1020.1 19.1
5-9-2024 23:45 29o 27.89' ( 29.4649) 134o 37.31' (-134.6219) 11.5 74.2 5.0 11.2 17.1 62.3 1020.3 19.2
5-9-2024 23:30 29o 27.12' ( 29.4521) 134o 40.46' (-134.6743) 11.4 74.4 3.5 9.6 17.1 60.1 1020.4 19.1
5-9-2024 23:15 29o 26.32' ( 29.4386) 134o 43.58' (-134.7263) 11.2 72.6 15.8 10.7 16.9 61.3 1020.5 19.0
5-9-2024 23:00 29o 25.49' ( 29.4248) 134o 46.60' (-134.7767) 11.1 72.0 16.5 10.3 16.8 64.3 1020.7 18.9
5-9-2024 22:45 29o 24.64' ( 29.4106) 134o 49.62' (-134.8270) 11.0 72.3 22.5 10.3 17.0 60.0 1020.9 18.9
5-9-2024 22:30 29o 23.85' ( 29.3976) 134o 52.50' (-134.8749) 8.4 71.6 28.1 11.2 17.0 62.0 1020.9 19.0
5-9-2024 22:15 29o 23.38' ( 29.3897) 134o 54.57' (-134.9095) 6.5 73.9 31.2 10.7 17.2 60.2 1021.1 19.2
5-9-2024 22:00 29o 23.14' ( 29.3856) 134o 55.98' (-134.9329) 7.4 74.2 33.3 10.2 16.9 63.6 1021.2 19.2
5-9-2024 21:45 29o 22.57' ( 29.3762) 134o 58.40' (-134.9734) 11.1 72.1 25.0 12.1 17.0 63.8 1021.2 19.2
5-9-2024 21:30 29o 21.73' ( 29.3622) 135o 1.43' (-135.0238) 11.2 71.0 18.8 10.3 17.0 61.1 1021.3 19.2
5-9-2024 21:15 29o 20.91' ( 29.3486) 135o 4.51' (-135.0752) 11.2 71.4 31.7 9.8 17.0 59.1 1021.3 19.3
5-9-2024 21:00 29o 20.11' ( 29.3352) 135o 7.59' (-135.1265) 11.1 72.3 39.4 10.1 17.0 59.6 1021.5 19.1
5-9-2024 20:45 29o 19.28' ( 29.3214) 135o 10.65' (-135.1776) 11.3 71.5 37.2 8.8 17.0 63.0 1021.7 18.9
5-9-2024 20:30 29o 18.48' ( 29.3080) 135o 13.76' (-135.2294) 11.3 71.9 32.6 7.8 17.0 60.0 1021.8 18.9
5-9-2024 20:15 29o 17.71' ( 29.2951) 135o 16.87' (-135.2812) 11.4 74.8 39.4 11.9 17.1 59.2 1021.8 18.8
5-9-2024 20:00 29o 16.95' ( 29.2826) 135o 20.01' (-135.3336) 11.5 75.0 26.6 11.0 17.0 62.3 1021.9 18.9
5-9-2024 19:45 29o 16.14' ( 29.2691) 135o 23.19' (-135.3864) 11.6 74.8 25.3 7.9 17.1 59.3 1022.1 18.9
5-9-2024 19:30 29o 15.36' ( 29.2559) 135o 26.34' (-135.4391) 11.5 74.9 32.1 9.3 17.1 57.5 1022.0 19.3
5-9-2024 19:15 29o 14.55' ( 29.2425) 135o 29.48' (-135.4913) 11.5 75.2 35.4 9.7 17.2 57.1 1022.0 19.3
5-9-2024 19:00 29o 13.77' ( 29.2295) 135o 32.68' (-135.5446) 11.6 74.6 35.7 9.3 17.1 56.3 1022.0 19.1
5-9-2024 18:45 29o 12.94' ( 29.2157) 135o 35.87' (-135.5978) 11.7 71.7 38.1 9.1 17.2 56.0 1022.0 18.9
5-9-2024 18:30 29o 12.10' ( 29.2016) 135o 39.04' (-135.6506) 11.5 71.8 42.4 9.0 17.1 57.3 1022.0 19.2
5-9-2024 18:15 29o 11.29' ( 29.1882) 135o 42.18' (-135.7030) 11.4 71.7 39.5 11.6 17.2 58.8 1021.8 19.3
5-9-2024 18:00 29o 10.49' ( 29.1748) 135o 45.28' (-135.7547) 11.3 71.4 38.3 11.3 17.1 61.4 1021.9 19.3
5-9-2024 17:45 29o 9.64' ( 29.1607) 135o 48.37' (-135.8061) 11.4 69.8 28.9 8.8 17.2 65.0 1021.9 19.2
5-9-2024 17:30 29o 8.75' ( 29.1458) 135o 51.45' (-135.8575) 11.3 69.4 40.2 9.7 17.2 60.5 1021.8 19.3
5-9-2024 17:15 29o 7.93' ( 29.1322) 135o 54.52' (-135.9087) 11.2 70.7 41.6 10.9 17.2 57.8 1021.7 19.3
5-9-2024 17:00 29o 7.12' ( 29.1186) 135o 57.55' (-135.9592) 11.0 73.3 46.4 10.1 17.2 59.0 1021.6 19.4
5-9-2024 16:45 29o 6.36' ( 29.1059) 136o 0.56' (-136.0093) 10.8 74.2 34.6 12.5 17.2 62.0 1021.4 19.5
5-9-2024 16:30 29o 5.55' ( 29.0925) 136o 3.52' (-136.0586) 11.0 74.3 44.2 11.6 17.2 62.9 1021.4 19.1
5-9-2024 16:15 29o 4.80' ( 29.0800) 136o 6.50' (-136.1084) 11.0 76.0 48.1 13.5 17.3 62.6 1021.3 19.3
5-9-2024 16:00 29o 4.04' ( 29.0674) 136o 9.51' (-136.1585) 11.0 75.6 39.8 12.3 17.5 61.2 1021.2 19.5
5-9-2024 15:45 29o 3.28' ( 29.0546) 136o 12.50' (-136.2083) 10.8 76.8 41.4 12.7 17.5 59.0 1021.1 19.6
5-9-2024 15:30 29o 2.53' ( 29.0422) 136o 15.43' (-136.2571) 10.7 76.7 41.0 12.8 17.5 62.3 1021.0 19.1
5-9-2024 15:15 29o 1.77' ( 29.0296) 136o 18.39' (-136.3066) 11.0 76.9 55.7 10.7 17.4 64.2 1021.0 18.8
5-9-2024 15:00 29o 0.95' ( 29.0159) 136o 21.40' (-136.3567) 11.2 74.5 70.1 9.9 17.6 57.6 1020.9 18.9
5-9-2024 14:45 29o 0.13' ( 29.0022) 136o 24.50' (-136.4083) 11.5 73.9 54.1 11.1 17.6 62.4 1020.8 19.3
5-9-2024 14:30 28o 59.31' ( 28.9884) 136o 27.65' (-136.4608) 11.6 72.7 39.3 13.8 17.7 64.4 1020.6 19.5
5-9-2024 14:15 28o 58.43' ( 28.9739) 136o 30.81' (-136.5135) 11.7 68.9 48.7 10.9 17.8 58.8 1020.5 19.5
5-9-2024 14:00 28o 57.46' ( 28.9577) 136o 33.97' (-136.5662) 11.9 69.3 50.6 7.2 17.9 55.0 1020.5 19.5
5-9-2024 13:45 28o 56.50' ( 28.9416) 136o 37.19' (-136.6199) 12.0 74.4 36.1 8.3 17.9 57.3 1020.4 19.6
5-9-2024 13:30 28o 55.74' ( 28.9290) 136o 40.50' (-136.6750) 11.9 74.6 34.0 12.8 17.8 62.4 1020.3 19.6
5-9-2024 13:15 28o 54.95' ( 28.9158) 136o 43.78' (-136.7297) 11.9 74.2 45.0 13.1 17.9 60.7 1020.3 19.6
5-9-2024 13:00 28o 54.10' ( 28.9016) 136o 47.09' (-136.7848) 12.2 73.6 46.9 10.4 17.8 62.5 1020.4 19.6
5-9-2024 12:45 28o 53.20' ( 28.8867) 136o 50.39' (-136.8398) 12.1 73.4 45.8 9.5 17.7 65.9 1020.5 19.3
5-9-2024 12:30 28o 52.32' ( 28.8721) 136o 53.69' (-136.8948) 12.1 73.4 29.1 9.4 17.4 71.7 1020.5 19.0
5-9-2024 12:15 28o 51.43' ( 28.8572) 136o 56.98' (-136.9496) 12.1 74.0 40.0 10.1 17.4 73.3 1020.5 19.3
5-9-2024 12:00 28o 50.47' ( 28.8412) 137o 0.22' (-137.0037) 11.9 72.2 48.0 11.4 17.5 72.4 1020.6 19.3
5-9-2024 11:45 28o 49.52' ( 28.8253) 137o 3.45' (-137.0574) 11.9 71.7 51.9 9.9 17.7 70.4 1020.6 19.3
5-9-2024 11:30 28o 48.61' ( 28.8102) 137o 6.67' (-137.1112) 11.8 72.5 40.3 10.7 17.8 70.5 1020.6 19.4
5-9-2024 11:15 28o 47.72' ( 28.7953) 137o 9.88' (-137.1647) 11.8 73.0 51.5 13.0 17.9 69.8 1020.5 19.5
5-9-2024 11:00 28o 46.89' ( 28.7815) 137o 13.09' (-137.2181) 11.7 74.9 52.8 12.7 18.0 70.4 1020.7 19.5
5-9-2024 10:45 28o 46.08' ( 28.7679) 137o 16.27' (-137.2711) 11.7 74.1 56.1 10.2 18.1 69.3 1020.8 19.5
5-9-2024 10:30 28o 45.25' ( 28.7542) 137o 19.41' (-137.3236) 11.4 74.9 51.1 11.4 18.0 69.8 1021.0 19.5
5-9-2024 10:15 28o 44.45' ( 28.7409) 137o 22.48' (-137.3747) 11.1 74.8 56.0 12.9 18.0 71.4 1021.1 19.4
5-9-2024 10:00 28o 43.70' ( 28.7284) 137o 25.51' (-137.4252) 11.0 72.0 57.8 12.2 18.0 70.1 1021.2 19.5
5-9-2024 9:45 28o 42.88' ( 28.7146) 137o 28.50' (-137.4750) 11.0 72.2 58.2 11.8 18.2 72.9 1021.3 19.5
5-9-2024 9:30 28o 42.04' ( 28.7006) 137o 31.50' (-137.5250) 11.2 72.8 62.0 10.4 18.3 70.5 1021.4 19.5
5-9-2024 9:15 28o 41.19' ( 28.6865) 137o 34.52' (-137.5754) 11.2 72.6 71.4 10.4 18.4 72.0 1021.6 19.5
5-9-2024 9:00 28o 40.35' ( 28.6725) 137o 37.53' (-137.6254) 11.0 73.0 70.5 10.3 18.4 71.7 1021.7 19.5
5-9-2024 8:45 28o 39.52' ( 28.6587) 137o 40.49' (-137.6749) 10.9 72.7 70.4 11.0 18.5 74.0 1021.7 19.5
5-9-2024 8:30 28o 38.70' ( 28.6450) 137o 43.45' (-137.7241) 10.9 73.0 78.0 12.6 18.4 72.9 1021.8 19.5
5-9-2024 8:15 28o 37.86' ( 28.6310) 137o 46.40' (-137.7733) 10.9 71.2 75.2 13.1 18.2 73.7 1021.8 19.5
5-9-2024 8:00 28o 37.00' ( 28.6167) 137o 49.33' (-137.8221) 10.8 69.9 74.9 13.9 18.3 75.0 1021.8 19.5
5-9-2024 7:45 28o 36.12' ( 28.6019) 137o 52.24' (-137.8707) 10.8 71.1 79.4 14.9 18.4 76.0 1021.8 18.6
5-9-2024 7:30 28o 35.29' ( 28.5882) 137o 55.19' (-137.9198) 10.8 70.2 79.0 13.4 18.4 77.6 1021.8 19.2
5-9-2024 7:15 28o 34.49' ( 28.5749) 137o 58.15' (-137.9692) 10.9 71.5 81.1 14.6 18.4 75.7 1021.7 19.3
5-9-2024 7:00 28o 33.65' ( 28.5609) 138o 1.10' (-138.0184) 11.0 69.5 79.4 15.1 18.5 75.8 1021.6 19.7
5-9-2024 6:45 28o 32.77' ( 28.5461) 138o 4.05' (-138.0674) 10.8 70.0 76.5 15.1 18.3 77.1 1021.6 19.7
5-9-2024 6:30 28o 31.92' ( 28.5320) 138o 6.96' (-138.1161) 10.8 68.4 79.9 17.1 18.1 78.8 1021.5 20.0
5-9-2024 6:15 28o 31.08' ( 28.5179) 138o 9.88' (-138.1646) 10.8 68.2 81.1 15.4 18.1 79.0 1021.4 19.9
5-9-2024 6:00 28o 30.19' ( 28.5032) 138o 12.76' (-138.2126) 10.6 69.1 79.8 14.9 18.0 79.8 1021.3 20.0
5-9-2024 5:45 28o 29.27' ( 28.4879) 138o 15.60' (-138.2600) 10.7 69.2 84.0 13.8 17.9 83.9 1021.2 20.2
5-9-2024 5:30 28o 28.65' ( 28.4775) 138o 18.56' (-138.3093) 10.6 75.5 85.0 16.2 17.4 85.8 1021.1 19.9
5-9-2024 5:15 28o 27.75' ( 28.4625) 138o 21.41' (-138.3568) 10.9 74.1 71.9 10.9 17.5 89.0 1021.0 19.7
5-9-2024 5:00 28o 27.03' ( 28.4505) 138o 24.38' (-138.4062) 10.9 73.9 88.6 11.3 16.9 90.0 1020.9 19.6
5-9-2024 4:45 28o 26.26' ( 28.4377) 138o 27.31' (-138.4552) 10.8 74.2 76.3 12.3 17.5 87.3 1020.8 19.7
5-9-2024 4:30 28o 25.42' ( 28.4237) 138o 30.20' (-138.5034) 10.7 74.1 75.4 14.3 17.2 87.7 1020.6 19.6
5-9-2024 4:15 28o 24.66' ( 28.4109) 138o 33.11' (-138.5518) 10.6 76.4 89.7 15.6 17.2 88.5 1020.5 19.6
5-9-2024 4:00 28o 23.88' ( 28.3980) 138o 35.99' (-138.5999) 10.7 75.6 69.4 9.6 17.2 84.9 1020.4 19.8
5-9-2024 3:45 28o 22.90' ( 28.3817) 138o 38.79' (-138.6465) 10.7 69.2 89.7 15.2 18.4 79.0 1020.1 19.8
5-9-2024 3:30 28o 21.81' ( 28.3635) 138o 41.57' (-138.6928) 10.8 69.8 77.5 13.1 18.0 82.5 1020.0 19.8
5-9-2024 3:15 28o 21.20' ( 28.3533) 138o 44.35' (-138.7391) 10.4 121.9 77.0 15.7 18.3 82.0 1019.9 19.8
5-9-2024 3:00 28o 20.47' ( 28.3411) 138o 47.28' (-138.7879) 11.0 75.1 78.7 13.4 18.3 80.1 1019.8 19.9
5-9-2024 2:45 28o 19.65' ( 28.3276) 138o 50.25' (-138.8375) 10.9 75.8 84.9 11.4 17.7 86.0 1019.9 20.0
5-9-2024 2:30 28o 18.86' ( 28.3144) 138o 53.20' (-138.8867) 11.0 77.1 78.6 11.7 18.1 82.3 1019.8 19.9
5-9-2024 2:15 28o 18.00' ( 28.3000) 138o 56.12' (-138.9353) 10.7 74.3 81.1 13.1 17.8 83.4 1019.8 20.0
5-9-2024 2:00 28o 17.16' ( 28.2860) 138o 59.01' (-138.9835) 10.9 73.9 74.5 13.2 18.7 79.3 1019.7 20.0
5-9-2024 1:45 28o 16.39' ( 28.2731) 139o 1.96' (-139.0326) 10.9 75.9 76.2 12.6 18.6 75.1 1019.6 20.1
5-9-2024 1:30 28o 15.54' ( 28.2590) 139o 4.86' (-139.0811) 10.8 73.3 81.1 13.6 18.8 74.0 1019.6 20.0
5-9-2024 1:15 28o 14.68' ( 28.2447) 139o 7.74' (-139.1290) 10.7 73.7 77.3 13.7 18.8 75.4 1019.5 20.0
5-9-2024 1:00 28o 13.83' ( 28.2305) 139o 10.58' (-139.1764) 10.6 71.5 83.7 12.8 18.8 76.1 1019.5 20.0
5-9-2024 0:45 28o 12.90' ( 28.2150) 139o 13.41' (-139.2236) 10.8 72.0 75.1 13.8 18.6 74.2 1019.5 20.2
5-9-2024 0:30 28o 12.05' ( 28.2008) 139o 16.31' (-139.2719) 10.9 74.9 80.9 13.8 18.7 75.3 1019.5 20.6
5-9-2024 0:15 28o 11.28' ( 28.1880) 139o 19.24' (-139.3206) 10.7 75.7 82.4 14.6 18.6 75.9 1019.7 20.7
5-9-2024 0:00 28o 10.45' ( 28.1742) 139o 22.12' (-139.3687) 10.9 75.4 76.9 13.6 18.5 80.0 1019.7 20.6
5-8-2024 23:45 28o 9.64' ( 28.1606) 139o 25.01' (-139.4169) 10.8 77.2 81.2 13.9 18.6 77.2 1019.8 20.7
5-8-2024 23:30 28o 8.86' ( 28.1476) 139o 27.91' (-139.4652) 10.7 75.6 78.0 13.8 18.7 75.3 1020.0 20.7
5-8-2024 23:15 28o 7.99' ( 28.1332) 139o 30.79' (-139.5132) 10.8 74.5 80.1 13.6 18.5 78.5 1020.0 20.7
5-8-2024 23:00 28o 7.17' ( 28.1196) 139o 33.69' (-139.5616) 10.8 74.9 78.6 13.5 18.0 74.2 1020.1 20.5
5-8-2024 22:45 28o 6.33' ( 28.1054) 139o 36.62' (-139.6103) 10.8 74.9 81.3 12.8 18.9 72.0 1020.3 20.5
5-8-2024 22:30 28o 5.48' ( 28.0913) 139o 39.53' (-139.6588) 10.9 74.3 79.1 12.6 18.8 74.4 1020.4 20.2
5-8-2024 22:15 28o 4.63' ( 28.0771) 139o 42.44' (-139.7074) 10.8 74.8 77.9 13.1 18.7 74.4 1020.4 20.1
5-8-2024 22:00 28o 3.78' ( 28.0630) 139o 45.37' (-139.7561) 10.9 74.7 82.2 12.9 18.7 76.6 1020.5 20.0
5-8-2024 21:45 28o 2.90' ( 28.0484) 139o 48.30' (-139.8050) 11.0 73.7 87.1 13.6 19.0 74.1 1020.5 20.0
5-8-2024 21:30 28o 2.00' ( 28.0334) 139o 51.22' (-139.8536) 10.8 72.7 93.0 15.3 18.3 79.2 1020.6 20.0
5-8-2024 21:15 28o 1.06' ( 28.0177) 139o 54.10' (-139.9017) 10.9 72.2 78.0 13.5 18.9 75.4 1020.7 20.0
5-8-2024 21:00 28o 0.11' ( 28.0018) 139o 56.99' (-139.9498) 11.0 72.0 79.7 15.1 18.6 75.1 1020.8 20.1
5-8-2024 20:45 27o 59.08' ( 27.9847) 139o 59.86' (-139.9976) 11.0 69.9 78.0 13.6 18.7 75.7 1021.0 20.0
5-8-2024 20:30 27o 58.05' ( 27.9674) 140o 2.76' (-140.0460) 11.0 69.4 66.2 12.1 18.2 80.0 1021.2 19.9
5-8-2024 20:15 27o 57.04' ( 27.9507) 140o 5.65' (-140.0942) 11.1 73.6 69.0 10.6 18.4 77.2 1021.2 19.9
5-8-2024 20:00 27o 56.65' ( 27.9442) 140o 8.71' (-140.1452) 11.0 71.7 65.0 13.8 18.7 76.5 1021.2 19.9
5-8-2024 19:45 27o 55.77' ( 27.9296) 140o 11.62' (-140.1937) 10.8 71.1 68.6 13.5 18.6 76.7 1021.3 19.9
5-8-2024 19:30 27o 54.95' ( 27.9158) 140o 14.49' (-140.2416) 10.6 72.0 68.3 13.5 18.5 76.3 1021.4 19.9
5-8-2024 19:15 27o 54.02' ( 27.9004) 140o 17.31' (-140.2886) 10.7 66.1 73.7 13.4 18.7 75.2 1021.4 19.8
5-8-2024 19:00 27o 53.22' ( 27.8870) 140o 20.18' (-140.3364) 10.8 70.7 68.7 12.8 18.7 76.2 1021.3 20.0
5-8-2024 18:45 27o 52.49' ( 27.8748) 140o 23.11' (-140.3852) 10.9 73.1 62.9 12.6 18.4 79.3 1021.3 20.0
5-8-2024 18:30 27o 51.75' ( 27.8625) 140o 26.05' (-140.4341) 10.8 69.5 54.6 14.3 18.2 79.7 1021.3 20.0
5-8-2024 18:15 27o 50.86' ( 27.8477) 140o 28.91' (-140.4818) 10.8 68.8 62.5 12.7 18.6 77.0 1021.4 19.9
5-8-2024 18:00 27o 49.85' ( 27.8309) 140o 31.75' (-140.5291) 10.9 66.7 60.9 12.5 18.6 76.8 1021.5 20.0
5-8-2024 17:45 27o 48.90' ( 27.8149) 140o 34.63' (-140.5771) 11.0 70.9 59.9 12.8 18.3 79.2 1021.5 20.0
5-8-2024 17:30 27o 48.02' ( 27.8003) 140o 37.56' (-140.6259) 10.9 70.5 60.4 12.0 18.4 77.0 1021.4 20.1
5-8-2024 17:15 27o 47.12' ( 27.7853) 140o 40.48' (-140.6747) 11.0 70.6 58.4 12.3 18.4 79.6 1021.5 20.1
5-8-2024 17:00 27o 46.18' ( 27.7697) 140o 43.42' (-140.7236) 11.1 70.6 61.3 11.6 18.5 75.6 1021.5 20.0
5-8-2024 16:45 27o 45.25' ( 27.7542) 140o 46.35' (-140.7726) 11.1 71.0 71.2 10.6 18.7 76.0 1021.4 19.9
5-8-2024 16:30 27o 44.35' ( 27.7392) 140o 49.32' (-140.8221) 11.1 72.2 63.0 11.8 18.8 74.0 1021.4 19.9
5-8-2024 16:15 27o 43.47' ( 27.7244) 140o 52.32' (-140.8719) 11.2 72.9 56.0 11.0 18.5 75.9 1021.2 20.0
5-8-2024 16:00 27o 42.57' ( 27.7095) 140o 55.30' (-140.9217) 11.2 71.3 67.8 10.6 18.6 76.9 1021.0 20.0
5-8-2024 15:45 27o 41.61' ( 27.6934) 140o 58.26' (-140.9711) 11.1 69.5 56.8 12.3 18.4 77.0 1020.9 19.9
5-8-2024 15:30 27o 40.69' ( 27.6781) 141o 1.20' (-141.0200) 11.0 70.5 59.4 12.5 18.4 77.2 1020.8 20.0
5-8-2024 15:15 27o 39.81' ( 27.6636) 141o 4.12' (-141.0687) 10.9 70.2 63.1 12.2 17.9 81.4 1020.8 19.9
5-8-2024 15:00 27o 38.90' ( 27.6483) 141o 7.00' (-141.1166) 10.8 68.6 54.0 12.5 18.0 82.7 1020.6 19.8
5-8-2024 14:45 27o 37.88' ( 27.6314) 141o 9.79' (-141.1632) 10.8 66.7 68.1 8.7 18.4 78.0 1020.5 19.7
5-8-2024 14:30 27o 36.87' ( 27.6146) 141o 12.60' (-141.2100) 10.7 67.1 29.6 7.6 17.8 83.6 1020.3 19.5
5-8-2024 14:15 27o 36.10' ( 27.6016) 141o 15.47' (-141.2579) 10.7 72.0 42.3 8.4 17.8 83.8 1020.3 19.6
5-8-2024 14:00 27o 35.39' ( 27.5898) 141o 18.36' (-141.3059) 10.8 72.2 48.2 10.2 17.7 83.0 1020.4 19.9
5-8-2024 13:45 27o 34.62' ( 27.5771) 141o 21.26' (-141.3544) 10.8 72.1 43.9 11.0 17.4 82.1 1020.3 20.1
5-8-2024 13:30 27o 33.76' ( 27.5627) 141o 24.17' (-141.4029) 10.8 70.6 38.1 12.4 17.1 83.3 1020.3 20.2
5-8-2024 13:15 27o 32.83' ( 27.5472) 141o 27.01' (-141.4502) 10.9 70.0 46.4 12.6 17.6 82.6 1020.3 19.9
5-8-2024 13:00 27o 31.94' ( 27.5323) 141o 29.88' (-141.4979) 10.7 69.3 56.8 14.6 17.7 80.6 1020.2 20.0
5-8-2024 12:45 27o 30.98' ( 27.5164) 141o 32.71' (-141.5451) 10.9 70.0 56.5 13.1 18.2 78.6 1020.4 20.1
5-8-2024 12:30 27o 30.02' ( 27.5003) 141o 35.58' (-141.5930) 10.9 69.3 60.9 12.9 18.3 79.4 1020.4 20.2
5-8-2024 12:15 27o 29.08' ( 27.4846) 141o 38.46' (-141.6410) 10.8 68.1 65.7 14.0 18.2 79.8 1020.5 20.2
5-8-2024 12:00 27o 28.15' ( 27.4691) 141o 41.32' (-141.6886) 10.9 68.9 75.2 12.7 18.5 78.0 1020.7 20.2
5-8-2024 11:45 27o 27.25' ( 27.4542) 141o 44.20' (-141.7367) 10.9 71.1 77.2 12.9 18.5 74.8 1020.7 20.1
5-8-2024 11:30 27o 26.38' ( 27.4396) 141o 47.09' (-141.7849) 10.9 71.4 83.6 13.5 18.5 78.2 1020.7 20.0
5-8-2024 11:15 27o 25.49' ( 27.4248) 141o 50.03' (-141.8338) 11.2 70.2 57.7 5.1 16.8 90.6 1021.1 20.2
5-8-2024 11:00 27o 24.60' ( 27.4100) 141o 52.96' (-141.8826) 10.9 71.0 60.1 13.5 16.9 87.7 1021.2 20.2
5-8-2024 10:45 27o 23.71' ( 27.3951) 141o 55.86' (-141.9311) 11.0 70.8 90.3 12.2 16.6 88.6 1021.3 20.3
5-8-2024 10:30 27o 22.82' ( 27.3803) 141o 58.80' (-141.9800) 11.1 70.3 26.4 4.9 16.5 90.1 1021.6 20.3
5-8-2024 10:15 27o 21.93' ( 27.3655) 142o 1.73' (-142.0288) 10.8 71.3 81.2 12.2 16.8 87.0 1021.8 20.2
5-8-2024 10:00 27o 21.01' ( 27.3502) 142o 4.57' (-142.0761) 11.0 68.3 84.5 6.2 18.5 75.3 1021.8 20.3
5-8-2024 9:45 27o 20.01' ( 27.3335) 142o 7.47' (-142.1246) 11.1 69.4 99.6 8.0 17.4 82.6 1021.9 20.4
5-8-2024 9:30 27o 19.01' ( 27.3168) 142o 10.34' (-142.1723) 10.9 68.6 102.6 13.3 17.5 80.8 1021.9 20.7
5-8-2024 9:15 27o 18.08' ( 27.3013) 142o 13.17' (-142.2194) 10.6 68.1 97.9 12.6 18.0 78.9 1021.9 21.1
5-8-2024 9:00 27o 17.17' ( 27.2862) 142o 15.95' (-142.2658) 10.6 70.1 101.2 14.6 18.3 80.0 1022.0 21.2
5-8-2024 8:45 27o 16.30' ( 27.2717) 142o 18.72' (-142.3121) 10.4 70.4 91.4 17.4 19.1 77.1 1021.8 21.2
5-8-2024 8:30 27o 15.43' ( 27.2572) 142o 21.50' (-142.3583) 10.5 69.4 89.5 17.8 18.9 77.3 1021.8 21.2
5-8-2024 8:15 27o 14.53' ( 27.2421) 142o 24.26' (-142.4044) 10.5 69.8 80.3 15.1 19.3 76.0 1022.0 21.2
5-8-2024 8:00 27o 13.60' ( 27.2267) 142o 27.03' (-142.4505) 10.5 69.4 86.5 15.7 19.4 80.1 1022.1 21.2
5-8-2024 7:45 27o 12.71' ( 27.2119) 142o 29.82' (-142.4970) 10.7 71.6 82.9 14.1 19.8 74.3 1022.2 21.2
5-8-2024 7:30 27o 11.86' ( 27.1977) 142o 32.66' (-142.5443) 10.7 74.4 76.6 13.1 19.7 73.8 1022.3 21.1
5-8-2024 7:15 27o 10.98' ( 27.1830) 142o 35.50' (-142.5916) 10.8 73.8 69.9 12.3 19.8 72.0 1022.3 21.1
5-8-2024 7:00 27o 10.04' ( 27.1674) 142o 38.36' (-142.6394) 11.0 73.9 80.0 12.9 19.8 70.5 1022.3 21.1
5-8-2024 6:45 27o 9.09' ( 27.1515) 142o 41.25' (-142.6875) 11.0 73.8 75.7 12.5 19.9 68.3 1022.2 21.1
5-8-2024 6:30 27o 8.15' ( 27.1358) 142o 44.16' (-142.7361) 10.9 76.8 79.8 12.4 19.9 69.1 1022.1 21.3
5-8-2024 6:15 27o 7.28' ( 27.1213) 142o 47.07' (-142.7844) 10.9 77.0 67.1 13.6 19.9 69.7 1022.0 21.3
5-8-2024 6:00 27o 6.38' ( 27.1063) 142o 49.96' (-142.8327) 11.0 77.1 77.7 13.3 19.8 67.7 1021.8 21.2
5-8-2024 5:45 27o 5.27' ( 27.0879) 142o 52.82' (-142.8803) 11.1 72.4 80.8 14.1 19.9 67.0 1021.7 20.7
5-8-2024 5:30 27o 4.32' ( 27.0720) 142o 55.72' (-142.9287) 11.0 72.9 75.7 13.7 19.9 69.1 1021.6 20.8
5-8-2024 5:15 27o 3.36' ( 27.0560) 142o 58.60' (-142.9767) 11.0 72.5 74.6 13.5 19.9 70.8 1021.4 20.7
5-8-2024 5:00 27o 2.39' ( 27.0398) 143o 1.49' (-143.0248) 11.0 73.2 71.8 13.3 19.0 70.8 1021.2 20.6
5-8-2024 4:45 27o 1.42' ( 27.0237) 143o 4.38' (-143.0729) 11.0 70.5 76.7 14.2 19.9 68.0 1021.1 20.5
5-8-2024 4:30 27o 0.43' ( 27.0072) 143o 7.25' (-143.1209) 11.0 70.3 72.3 13.4 19.8 70.0 1020.9 20.4
5-8-2024 4:15 26o 59.37' ( 26.9896) 143o 10.12' (-143.1687) 11.2 67.6 70.2 13.4 19.8 69.4 1020.7 20.5
5-8-2024 4:00 26o 58.46' ( 26.9743) 143o 13.07' (-143.2178) 11.2 74.6 71.0 11.8 19.8 71.1 1020.6 20.7
5-8-2024 3:45 26o 57.62' ( 26.9603) 143o 16.05' (-143.2674) 11.1 73.4 74.3 12.7 19.8 69.0 1020.5 20.6
5-8-2024 3:30 26o 56.76' ( 26.9460) 143o 18.99' (-143.3164) 11.1 74.2 72.1 12.3 19.8 71.3 1020.3 20.5
5-8-2024 3:15 26o 55.89' ( 26.9316) 143o 21.92' (-143.3654) 11.1 73.3 70.0 13.1 19.8 70.5 1020.2 20.7
5-8-2024 3:00 26o 54.73' ( 26.9122) 143o 24.61' (-143.4102) 10.9 72.4 71.7 12.5 19.9 70.3 1020.2 20.8
5-8-2024 2:45 26o 53.73' ( 26.8956) 143o 27.40' (-143.4567) 10.7 71.7 71.0 12.8 19.9 72.2 1020.0 20.5
5-8-2024 2:30 26o 52.77' ( 26.8795) 143o 30.16' (-143.5026) 10.6 71.6 71.0 15.3 19.8 67.6 1020.0 20.3
5-8-2024 2:15 26o 51.85' ( 26.8642) 143o 32.96' (-143.5494) 10.8 70.6 68.7 15.6 19.8 70.1 1020.0 20.2
5-8-2024 2:00 26o 50.95' ( 26.8492) 143o 35.83' (-143.5971) 11.0 70.7 69.6 14.5 19.8 69.0 1020.1 20.2
5-8-2024 1:45 26o 50.04' ( 26.8340) 143o 38.75' (-143.6459) 11.1 71.2 69.3 14.2 19.8 70.0 1020.2 20.2
5-8-2024 1:30 26o 49.15' ( 26.8192) 143o 41.72' (-143.6954) 11.4 71.1 73.3 12.2 20.0 72.8 1020.2 20.4
5-8-2024 1:15 26o 47.89' ( 26.7982) 143o 44.52' (-143.7420) 11.2 56.7 67.2 14.9 20.0 70.2 1020.1 20.4
5-8-2024 1:00 26o 46.44' ( 26.7740) 143o 47.23' (-143.7871) 11.4 56.6 68.9 16.1 19.9 70.0 1020.0 21.0
5-8-2024 0:45 26o 45.37' ( 26.7561) 143o 50.19' (-143.8364) 11.4 66.3 72.4 16.3 19.9 70.1 1020.1 21.2
5-8-2024 0:30 26o 44.35' ( 26.7391) 143o 53.16' (-143.8860) 11.3 66.8 69.5 13.9 20.0 69.2 1020.2 21.3
5-8-2024 0:15 26o 43.39' ( 26.7232) 143o 56.10' (-143.9351) 11.2 69.2 66.2 14.1 20.0 68.1 1020.4 21.2
5-8-2024 0:00 26o 42.46' ( 26.7076) 143o 59.02' (-143.9837) 11.1 69.5 71.4 15.8 20.0 66.0 1020.5 21.3
5-7-2024 23:45 26o 41.52' ( 26.6920) 144o 1.91' (-144.0319) 11.0 70.0 64.5 14.1 20.0 68.7 1020.7 21.3
5-7-2024 23:30 26o 40.53' ( 26.6756) 144o 4.82' (-144.0803) 11.3 68.4 75.0 13.3 20.3 68.0 1020.9 21.3
5-7-2024 23:15 26o 39.55' ( 26.6591) 144o 7.74' (-144.1291) 11.0 69.0 69.8 13.1 20.3 66.4 1021.2 21.3
5-7-2024 23:00 26o 38.57' ( 26.6428) 144o 10.60' (-144.1767) 10.9 69.6 76.6 13.7 20.2 66.4 1021.3 21.3
5-7-2024 22:45 26o 37.59' ( 26.6265) 144o 13.45' (-144.2241) 10.9 68.5 67.2 13.0 20.3 64.1 1021.4 21.3
5-7-2024 22:30 26o 36.59' ( 26.6098) 144o 16.27' (-144.2712) 10.9 67.8 67.8 13.9 20.3 65.0 1021.4 21.3
5-7-2024 22:15 26o 35.48' ( 26.5914) 144o 19.06' (-144.3177) 10.9 66.7 58.8 13.2 20.4 66.2 1021.5 21.3
5-7-2024 22:00 26o 34.42' ( 26.5737) 144o 21.86' (-144.3643) 10.9 68.1 64.1 13.4 20.5 64.2 1021.6 21.3
5-7-2024 21:45 26o 33.40' ( 26.5567) 144o 24.68' (-144.4114) 10.9 66.4 68.4 14.0 20.5 61.2 1021.7 21.3
5-7-2024 21:30 26o 32.33' ( 26.5389) 144o 27.47' (-144.4578) 10.8 65.9 66.6 13.3 20.5 59.2 1021.8 21.3
5-7-2024 21:15 26o 31.24' ( 26.5207) 144o 30.25' (-144.5042) 10.9 65.9 69.5 13.2 20.5 64.4 1022.0 21.3
5-7-2024 21:00 26o 30.20' ( 26.5033) 144o 33.05' (-144.5508) 10.8 66.1 71.0 14.3 20.4 64.8 1022.0 21.3
5-7-2024 20:45 26o 29.22' ( 26.4871) 144o 35.87' (-144.5978) 10.8 67.7 65.5 15.8 20.7 58.9 1022.2 21.5
5-7-2024 20:30 26o 28.29' ( 26.4716) 144o 38.72' (-144.6454) 10.9 67.3 62.0 14.7 20.4 63.6 1022.3 21.6
5-7-2024 20:15 26o 27.37' ( 26.4562) 144o 41.57' (-144.6928) 10.8 64.1 64.0 16.0 16.9 67.6 1022.3 21.7
5-7-2024 20:00 26o 26.32' ( 26.4386) 144o 44.36' (-144.7393) 11.0 64.9 68.0 14.2 17.0 63.0 1022.4 21.9
5-7-2024 19:45 26o 25.26' ( 26.4210) 144o 47.19' (-144.7865) 10.9 64.9 64.1 14.1 16.7 61.7 1022.5 22.0
5-7-2024 19:30 26o 24.21' ( 26.4036) 144o 50.01' (-144.8336) 11.0 64.8 56.5 15.0 16.1 68.7 1022.5 22.0
5-7-2024 19:15 26o 23.16' ( 26.3860) 144o 52.84' (-144.8807) 11.0 65.0 63.4 17.0 16.6 67.9 1022.4 22.1
5-7-2024 19:00 26o 22.15' ( 26.3692) 144o 55.73' (-144.9288) 11.2 68.9 61.4 15.1 16.2 68.5 1022.5 22.1
5-7-2024 18:45 26o 21.20' ( 26.3534) 144o 58.66' (-144.9776) 11.3 68.9 66.3 16.3 15.7 69.3 1022.4 22.1
5-7-2024 18:30 26o 20.15' ( 26.3359) 145o 1.55' (-145.0258) 11.2 64.6 63.9 16.1 15.6 69.2 1022.4 22.1
5-7-2024 18:15 26o 19.06' ( 26.3177) 145o 4.43' (-145.0738) 11.3 64.7 66.0 15.8 15.5 71.2 1022.4 22.0
5-7-2024 18:00 26o 17.91' ( 26.2985) 145o 7.30' (-145.1217) 11.2 65.1 57.9 15.7 16.4 69.4 1022.3 22.0
5-7-2024 17:45 26o 16.93' ( 26.2822) 145o 10.24' (-145.1707) 11.2 69.6 62.6 15.5 15.9 66.2 1022.1 21.8
5-7-2024 17:30 26o 15.94' ( 26.2656) 145o 13.18' (-145.2196) 11.3 66.1 63.1 16.2 16.5 66.8 1022.0 21.6
5-7-2024 17:15 26o 14.87' ( 26.2478) 145o 16.10' (-145.2684) 11.3 65.2 54.3 16.5 16.0 68.4 1022.0 22.0
5-7-2024 17:00 26o 13.77' ( 26.2294) 145o 19.03' (-145.3172) 11.4 64.4 61.6 15.0 15.6 68.1 1021.9 22.0
5-7-2024 16:45 26o 12.68' ( 26.2113) 145o 21.96' (-145.3660) 11.4 65.4 63.1 16.3 15.0 68.6 1021.9 22.0
5-7-2024 16:30 26o 11.63' ( 26.1939) 145o 24.89' (-145.4149) 11.3 65.3 67.4 17.1 14.5 70.6 1021.8 22.0
5-7-2024 16:15 26o 10.56' ( 26.1759) 145o 27.81' (-145.4636) 11.4 66.4 60.0 16.8 14.6 71.7 1021.6 22.0
5-7-2024 16:00 26o 9.47' ( 26.1578) 145o 30.75' (-145.5125) 11.5 66.4 57.1 15.0 14.3 72.1 1021.6 22.0
5-7-2024 15:45 26o 8.40' ( 26.1399) 145o 33.71' (-145.5618) 11.5 67.5 59.1 14.0 14.8 69.5 1021.4 22.0
5-7-2024 15:30 26o 7.34' ( 26.1224) 145o 36.68' (-145.6113) 11.4 67.6 56.7 15.4 14.6 70.8 1021.3 22.1
5-7-2024 15:15 26o 6.27' ( 26.1046) 145o 39.62' (-145.6604) 11.5 66.3 67.1 15.0 14.0 71.8 1021.2 22.1
5-7-2024 15:00 26o 5.15' ( 26.0859) 145o 42.54' (-145.7090) 11.3 66.8 63.8 15.9 14.4 69.0 1021.2 22.1
5-7-2024 14:45 26o 4.05' ( 26.0675) 145o 45.43' (-145.7572) 11.3 68.8 58.2 16.0 14.6 72.1 1021.1 22.1
5-7-2024 14:30 26o 3.03' ( 26.0505) 145o 48.36' (-145.8060) 11.3 69.7 61.6 14.8 14.4 71.4 1021.1 22.1
5-7-2024 14:15 26o 2.02' ( 26.0337) 145o 51.29' (-145.8548) 11.3 70.3 71.6 14.9 14.7 69.1 1021.1 22.2
5-7-2024 14:00 26o 0.97' ( 26.0161) 145o 54.21' (-145.9035) 11.4 69.9 78.9 12.2 15.0 68.7 1021.1 22.2
5-7-2024 13:45 25o 59.86' ( 25.9977) 145o 57.11' (-145.9519) 11.3 70.5 79.8 13.3 15.1 65.0 1021.1 22.2
5-7-2024 13:30 25o 58.76' ( 25.9793) 145o 59.97' (-145.9995) 11.1 69.1 77.6 14.7 15.1 63.0 1021.1 22.3
5-7-2024 13:15 25o 57.69' ( 25.9615) 146o 2.81' (-146.0469) 11.1 69.3 78.8 14.5 15.3 62.0 1021.1 22.3
5-7-2024 13:00 25o 56.63' ( 25.9438) 146o 5.66' (-146.0943) 11.1 68.5 80.5 13.4 15.1 66.9 1021.3 22.4
5-7-2024 12:45 25o 55.54' ( 25.9256) 146o 8.49' (-146.1415) 11.0 67.5 77.5 14.5 15.1 65.8 1021.3 22.4
5-7-2024 12:30 25o 54.50' ( 25.9083) 146o 11.32' (-146.1887) 11.0 69.6 76.5 15.3 14.9 65.7 1021.4 22.4
5-7-2024 12:15 25o 53.49' ( 25.8915) 146o 14.21' (-146.2368) 11.1 69.0 84.5 16.8 14.9 67.2 1021.3 22.4
5-7-2024 12:00 25o 52.47' ( 25.8745) 146o 17.07' (-146.2845) 11.1 70.9 80.6 16.2 14.9 68.4 1021.5 22.4
5-7-2024 11:45 25o 51.48' ( 25.8580) 146o 19.93' (-146.3322) 11.0 72.2 80.4 16.3 14.7 68.9 1021.5 22.4
5-7-2024 11:30 25o 50.50' ( 25.8416) 146o 22.81' (-146.3802) 11.2 73.5 80.7 15.8 14.4 71.7 1021.4 22.4
5-7-2024 11:15 25o 49.53' ( 25.8255) 146o 25.70' (-146.4283) 11.0 73.3 77.8 15.7 14.8 74.0 1021.6 22.4
5-7-2024 11:00 25o 48.53' ( 25.8089) 146o 28.58' (-146.4763) 11.1 72.3 86.0 15.2 14.8 70.3 1021.8 22.4
5-7-2024 10:45 25o 47.43' ( 25.7904) 146o 31.42' (-146.5237) 11.0 72.4 82.2 15.4 14.7 71.0 1021.9 22.4
5-7-2024 10:30 25o 46.32' ( 25.7720) 146o 34.19' (-146.5698) 10.7 70.3 81.0 15.3 14.9 70.6 1022.1 22.5
5-7-2024 10:15 25o 45.13' ( 25.7522) 146o 36.80' (-146.6134) 10.5 65.7 92.1 15.3 15.1 68.0 1022.1 22.5
5-7-2024 10:00 25o 44.00' ( 25.7333) 146o 39.41' (-146.6568) 10.4 64.1 88.3 17.6 14.9 65.9 1022.1 22.5
5-7-2024 9:45 25o 42.95' ( 25.7158) 146o 42.03' (-146.7005) 10.5 65.0 82.1 17.6 14.9 68.3 1022.2 22.6
5-7-2024 9:30 25o 41.94' ( 25.6991) 146o 44.76' (-146.7459) 10.6 65.2 91.0 19.5 14.4 64.4 1022.4 22.6
5-7-2024 9:15 25o 40.93' ( 25.6821) 146o 47.46' (-146.7910) 10.6 65.0 84.7 19.9 14.6 65.1 1022.5 22.6
5-7-2024 9:00 25o 39.89' ( 25.6648) 146o 50.15' (-146.8359) 10.6 64.8 77.0 19.2 14.4 68.1 1022.7 22.6
5-7-2024 8:45 25o 38.82' ( 25.6470) 146o 52.86' (-146.8810) 10.7 64.0 79.0 16.0 15.1 67.5 1022.7 22.6
5-7-2024 8:30 25o 37.75' ( 25.6292) 146o 55.55' (-146.9258) 10.7 65.9 78.8 17.2 15.1 65.2 1022.7 22.7
5-7-2024 8:15 25o 36.81' ( 25.6134) 146o 58.33' (-146.9722) 10.7 69.9 82.0 19.0 15.2 65.5 1022.7 22.7
5-7-2024 8:00 25o 35.92' ( 25.5986) 147o 1.12' (-147.0187) 10.6 72.4 86.8 18.4 15.0 67.7 1022.8 22.7
5-7-2024 7:45 25o 34.97' ( 25.5828) 147o 3.89' (-147.0648) 10.7 69.5 78.6 17.2 15.1 69.0 1022.9 22.7
5-7-2024 7:30 25o 33.94' ( 25.5656) 147o 6.60' (-147.1100) 10.6 69.0 80.5 18.9 15.1 67.3 1022.9 22.7
5-7-2024 7:15 25o 32.87' ( 25.5478) 147o 9.27' (-147.1545) 10.5 69.6 78.4 18.3 15.2 68.1 1022.8 22.7
5-7-2024 7:00 25o 31.78' ( 25.5297) 147o 11.90' (-147.1984) 10.3 69.1 80.5 16.6 15.3 68.5 1022.7 22.7
5-7-2024 6:45 25o 30.69' ( 25.5116) 147o 14.48' (-147.2413) 10.3 67.4 76.7 18.6 15.2 68.0 1022.5 22.7
5-7-2024 6:30 25o 29.60' ( 25.4934) 147o 17.08' (-147.2847) 10.4 67.9 78.3 17.2 15.0 68.1 1022.4 22.7
5-7-2024 6:15 25o 28.61' ( 25.4768) 147o 19.76' (-147.3294) 10.5 69.7 81.1 20.7 15.4 67.3 1022.2 22.6
5-7-2024 6:00 25o 27.55' ( 25.4591) 147o 22.47' (-147.3746) 10.7 73.3 84.6 16.9 15.2 67.4 1022.2 22.6
5-7-2024 5:45 25o 26.61' ( 25.4435) 147o 25.25' (-147.4208) 10.7 75.1 91.5 17.9 15.4 68.2 1022.0 22.6
5-7-2024 5:30 25o 25.63' ( 25.4272) 147o 27.99' (-147.4665) 10.5 75.7 85.4 18.4 15.6 68.0 1021.8 22.6
5-7-2024 5:15 25o 24.60' ( 25.4100) 147o 30.65' (-147.5109) 10.6 75.1 80.5 18.3 15.4 69.3 1021.5 22.7
5-7-2024 5:00 25o 23.54' ( 25.3924) 147o 33.35' (-147.5558) 10.7 72.0 78.6 18.5 15.0 70.9 1021.4 22.7
5-7-2024 4:45 25o 22.47' ( 25.3746) 147o 36.06' (-147.6011) 10.8 71.8 85.9 19.7 15.4 68.8 1021.2 22.7
5-7-2024 4:30 25o 21.43' ( 25.3571) 147o 38.79' (-147.6465) 10.7 74.2 86.3 20.4 15.2 69.7 1021.0 22.7
5-7-2024 4:15 25o 20.43' ( 25.3404) 147o 41.53' (-147.6921) 10.7 71.8 82.5 18.8 15.4 69.3 1020.9 22.7
5-7-2024 4:00 25o 19.34' ( 25.3223) 147o 44.21' (-147.7368) 10.6 70.7 71.8 18.1 15.0 70.3 1020.7 22.7
5-7-2024 3:45 25o 18.27' ( 25.3045) 147o 46.89' (-147.7815) 10.5 70.6 80.7 16.1 15.6 70.3 1020.6 22.7
5-7-2024 3:30 25o 17.29' ( 25.2882) 147o 49.57' (-147.8262) 10.5 71.1 82.3 19.0 15.6 70.3 1020.4 22.7
5-7-2024 3:15 25o 16.30' ( 25.2716) 147o 52.27' (-147.8711) 10.4 69.6 79.0 20.3 15.9 69.0 1020.2 22.7
5-7-2024 3:00 25o 15.24' ( 25.2541) 147o 54.89' (-147.9148) 10.4 67.5 76.8 19.9 16.7 70.0 1020.0 22.7
5-7-2024 2:45 25o 14.12' ( 25.2353) 147o 57.48' (-147.9580) 10.4 67.4 74.1 20.4 15.8 70.7 1020.0 22.8
5-7-2024 2:30 25o 12.90' ( 25.2151) 148o 0.03' (-148.0004) 10.4 64.2 69.6 20.0 15.9 72.8 1019.9 22.8
5-7-2024 2:15 25o 11.71' ( 25.1951) 148o 2.57' (-148.0428) 10.4 64.9 73.7 17.9 15.9 75.9 1019.9 22.8
5-7-2024 2:00 25o 10.52' ( 25.1753) 148o 5.11' (-148.0852) 10.1 65.3 72.4 19.1 16.6 74.0 1019.9 22.9
5-7-2024 1:45 25o 10.25' ( 25.1708) 148o 7.66' (-148.1277) 10.3 69.8 69.9 18.1 16.5 73.0 1020.0 22.9
5-7-2024 1:30 25o 9.26' ( 25.1543) 148o 10.27' (-148.1712) 10.3 68.6 72.6 19.1 16.2 73.2 1020.0 22.9
5-7-2024 1:15 25o 8.27' ( 25.1378) 148o 12.89' (-148.2148) 10.2 68.8 76.0 19.6 16.1 71.9 1020.1 23.0
5-7-2024 1:00 25o 7.29' ( 25.1214) 148o 15.50' (-148.2583) 10.4 68.6 75.7 16.6 16.8 76.3 1020.2 23.0
5-7-2024 0:45 25o 6.21' ( 25.1035) 148o 18.08' (-148.3014) 10.3 66.3 83.0 18.7 15.8 80.6 1020.3 23.0
5-7-2024 0:30 25o 5.08' ( 25.0847) 148o 20.63' (-148.3439) 10.4 64.9 75.5 17.5 16.6 79.2 1020.5 23.1
5-7-2024 0:15 25o 3.93' ( 25.0655) 148o 23.20' (-148.3867) 10.4 64.8 77.4 17.0 16.6 83.4 1020.7 23.1
5-7-2024 0:00 25o 2.77' ( 25.0461) 148o 25.76' (-148.4294) 10.1 65.0 82.6 21.4 15.6 84.8 1020.8 23.2
5-6-2024 23:45 25o 2.28' ( 25.0380) 148o 28.40' (-148.4733) 10.6 66.9 78.4 16.4 15.7 84.8 1021.0 23.2
5-6-2024 23:30 25o 1.13' ( 25.0188) 148o 31.03' (-148.5171) 10.5 64.8 80.0 18.7 16.6 84.3 1021.1 23.2
5-6-2024 23:15 24o 59.96' ( 24.9994) 148o 33.64' (-148.5606) 10.7 64.8 75.9 17.9 17.3 82.7 1021.1 23.3
5-6-2024 23:00 24o 58.81' ( 24.9801) 148o 36.37' (-148.6061) 11.0 64.7 74.0 14.3 17.0 78.3 1021.2 23.3
5-6-2024 22:45 24o 57.73' ( 24.9621) 148o 39.15' (-148.6525) 10.9 65.4 83.8 12.8 17.8 75.9 1021.2 23.3
5-6-2024 22:30 24o 56.64' ( 24.9440) 148o 41.88' (-148.6980) 10.8 65.1 73.0 11.7 17.4 79.5 1021.3 23.4
5-6-2024 22:15 24o 55.51' ( 24.9252) 148o 44.58' (-148.7429) 10.9 64.4 69.4 9.3 17.1 81.3 1021.4 23.3
5-6-2024 22:00 24o 54.36' ( 24.9060) 148o 47.29' (-148.7882) 11.1 65.4 69.4 10.2 17.3 80.9 1021.6 23.3
5-6-2024 21:45 24o 53.20' ( 24.8867) 148o 50.10' (-148.8349) 11.3 67.8 74.0 11.1 17.4 77.2 1021.7 22.9
5-6-2024 21:30 24o 52.10' ( 24.8683) 148o 52.91' (-148.8819) 11.2 67.4 68.8 11.4 17.5 78.8 1021.8 23.1
5-6-2024 21:15 24o 51.04' ( 24.8506) 148o 55.76' (-148.9293) 11.4 67.9 76.6 10.1 16.3 81.0 1021.8 23.5
5-6-2024 21:00 24o 50.04' ( 24.8340) 148o 58.66' (-148.9777) 11.1 70.2 81.1 10.5 17.5 72.4 1021.9 23.3
5-6-2024 20:45 24o 49.01' ( 24.8168) 149o 1.55' (-149.0258) 11.3 70.9 87.6 11.4 17.6 73.8 1021.9 23.3
5-6-2024 20:30 24o 47.95' ( 24.7992) 149o 4.39' (-149.0731) 11.1 71.2 82.8 12.2 17.6 74.8 1022.0 23.2
5-6-2024 20:15 24o 46.85' ( 24.7808) 149o 7.19' (-149.1198) 11.1 69.4 80.5 12.2 17.4 76.1 1022.0 23.2
5-6-2024 20:00 24o 45.69' ( 24.7615) 149o 9.99' (-149.1664) 11.2 69.2 84.4 12.9 17.8 72.0 1022.0 23.2
5-6-2024 19:45 24o 44.57' ( 24.7428) 149o 12.80' (-149.2133) 11.2 69.5 80.4 12.7 17.8 72.6 1022.0 23.1
5-6-2024 19:30 24o 43.46' ( 24.7244) 149o 15.63' (-149.2604) 11.3 69.6 82.5 10.8 17.5 76.3 1022.0 23.0
5-6-2024 19:15 24o 42.37' ( 24.7061) 149o 18.50' (-149.3083) 11.5 69.2 79.1 10.4 17.0 76.7 1022.0 22.8
5-6-2024 19:00 24o 41.21' ( 24.6868) 149o 21.40' (-149.3566) 11.6 64.7 97.4 9.7 16.9 79.2 1021.9 22.6
5-6-2024 18:45 24o 40.04' ( 24.6673) 149o 24.25' (-149.4042) 11.4 65.2 87.1 16.0 17.0 72.8 1021.7 22.8
5-6-2024 18:30 24o 38.90' ( 24.6483) 149o 27.13' (-149.4521) 11.4 65.1 83.1 14.7 17.7 71.9 1021.7 22.7
5-6-2024 18:15 24o 37.71' ( 24.6285) 149o 29.99' (-149.4999) 11.6 63.0 81.4 13.5 17.4 72.9 1021.7 22.8
5-6-2024 18:00 24o 36.48' ( 24.6079) 149o 32.92' (-149.5486) 11.8 64.1 87.3 13.3 16.9 81.0 1021.6 23.1
5-6-2024 17:45 24o 35.26' ( 24.5877) 149o 35.86' (-149.5976) 11.8 63.4 84.1 12.3 17.2 72.9 1021.4 23.1
5-6-2024 17:30 24o 33.97' ( 24.5662) 149o 38.81' (-149.6469) 12.0 59.3 79.9 11.7 17.4 73.8 1021.4 23.2
5-6-2024 17:15 24o 32.73' ( 24.5455) 149o 41.80' (-149.6967) 12.2 62.5 93.1 11.5 17.2 77.5 1021.3 23.3
5-6-2024 17:00 24o 31.50' ( 24.5250) 149o 44.85' (-149.7476) 11.8 61.6 100.5 17.5 15.1 79.5 1021.1 23.4
5-6-2024 16:45 24o 30.27' ( 24.5046) 149o 47.82' (-149.7969) 11.9 62.6 75.3 13.7 16.9 69.1 1021.1 23.4
5-6-2024 16:30 24o 29.08' ( 24.4846) 149o 50.78' (-149.8464) 11.9 66.3 75.8 12.9 16.8 70.4 1021.0 23.3
5-6-2024 16:15 24o 27.94' ( 24.4657) 149o 53.80' (-149.8967) 11.9 66.9 76.3 11.9 16.1 71.6 1020.8 23.3
5-6-2024 16:00 24o 26.78' ( 24.4463) 149o 56.77' (-149.9462) 11.8 66.7 71.6 12.6 16.4 69.2 1020.8 23.3
5-6-2024 15:45 24o 25.58' ( 24.4264) 149o 59.71' (-149.9952) 11.7 66.4 74.8 12.0 16.1 69.0 1020.7 23.2
5-6-2024 15:30 24o 24.40' ( 24.4066) 150o 2.67' (-150.0445) 11.9 66.8 71.6 11.5 15.9 71.6 1020.5 23.2
5-6-2024 15:15 24o 23.22' ( 24.3870)